Time,TemperatureF,DewpointF,PressureIn,WindDirection,WindDirectionDegrees,WindSpeedMPH,WindSpeedGustMPH,Humidity,HourlyPrecipIn,Conditions,Clouds,dailyrainin,SoftwareType,DateUTC
2013-08-18 00:00:00,67.5,64.8,29.26,ESE,112,0.0,0.0,91,0.00,,---,0.00,VWS V14.00,2013-08-18 04:00:00,
2013-08-18 00:01:00,67.5,64.8,29.26,ESE,112,2.0,2.0,91,0.00,,---,0.00,VWS V14.00,2013-08-18 04:01:00,
2013-08-18 00:02:00,67.5,64.8,29.26,East,90,2.0,2.0,91,0.00,,---,0.00,VWS V14.00,2013-08-18 04:02:00,
2013-08-18 00:03:00,67.5,64.8,29.26,ESE,112,1.6,2.0,91,0.00,,---,0.00,VWS V14.00,2013-08-18 04:03:00,
2013-08-18 00:04:00,67.5,64.8,29.26,East,90,1.3,1.6,91,0.00,,---,0.00,VWS V14.00,2013-08-18 04:04:00,
2013-08-18 00:05:00,67.5,64.8,29.26,SE,135,2.5,2.5,91,0.00,,---,0.00,VWS V14.00,2013-08-18 04:05:00,
2013-08-18 00:06:00,67.5,64.8,29.26,NE,45,1.3,2.5,91,0.00,,---,0.00,VWS V14.00,2013-08-18 04:06:00,
2013-08-18 00:07:00,67.5,64.8,29.26,NE,45,1.3,1.3,91,0.00,,---,0.00,VWS V14.00,2013-08-18 04:07:00,
2013-08-18 00:08:00,67.5,64.8,29.26,ENE,68,0.0,1.3,91,0.00,,---,0.00,VWS V14.00,2013-08-18 04:08:00,
2013-08-18 00:09:00,67.5,64.8,29.26,East,90,0.0,2.7,91,0.00,,---,0.00,VWS V14.00,2013-08-18 04:09:00,
2013-08-18 00:10:00,67.5,64.8,29.26,NNW,338,0.0,1.6,91,0.00,,---,0.00,VWS V14.00,2013-08-18 04:10:00,
2013-08-18 00:11:00,67.5,64.8,29.26,SE,135,0.0,0.0,91,0.00,,---,0.00,VWS V14.00,2013-08-18 04:11:00,
2013-08-18 00:12:00,67.5,64.8,29.26,ENE,68,0.0,0.0,91,0.00,,---,0.00,VWS V14.00,2013-08-18 04:12:00,
2013-08-18 00:13:00,67.5,64.8,29.26,ENE,68,0.0,0.0,91,0.00,,---,0.00,VWS V14.00,2013-08-18 04:13:00,
2013-08-18 00:14:00,67.5,64.8,29.23,North,0,1.6,1.6,91,0.00,,---,0.00,VWS V14.00,2013-08-18 04:14:00,
2013-08-18 00:15:00,67.5,64.8,29.23,NE,45,3.1,3.1,91,0.00,,---,0.00,VWS V14.00,2013-08-18 04:15:00,
2013-08-18 00:16:00,67.3,64.6,29.23,NNE,22,1.6,3.1,91,0.00,,---,0.00,VWS V14.00,2013-08-18 04:16:00,
2013-08-18 00:17:00,67.3,64.6,29.23,NE,45,2.7,2.7,91,0.00,,---,0.00,VWS V14.00,2013-08-18 04:17:00,
2013-08-18 00:18:00,67.3,64.6,29.23,NNE,22,2.0,2.7,91,0.00,,---,0.00,VWS V14.00,2013-08-18 04:18:00,
2013-08-18 00:19:00,67.3,64.6,29.23,NNE,22,2.0,2.0,91,0.00,,---,0.00,VWS V14.00,2013-08-18 04:19:00,
2013-08-18 00:20:00,67.3,64.6,29.23,SE,135,1.1,2.0,91,0.00,,---,0.00,VWS V14.00,2013-08-18 04:20:00,
2013-08-18 00:21:00,67.3,64.6,29.23,SE,135,1.1,1.1,91,0.00,,---,0.00,VWS V14.00,2013-08-18 04:21:00,
2013-08-18 00:22:00,67.3,64.6,29.23,SE,135,0.0,1.1,91,0.00,,---,0.00,VWS V14.00,2013-08-18 04:22:00,
2013-08-18 00:23:00,67.3,64.6,29.23,NNE,22,0.0,0.0,91,0.00,,---,0.00,VWS V14.00,2013-08-18 04:23:00,
2013-08-18 00:24:00,67.3,64.6,29.23,NE,45,0.0,0.0,91,0.00,,---,0.00,VWS V14.00,2013-08-18 04:24:00,
2013-08-18 00:25:00,67.3,64.6,29.23,ENE,68,0.0,0.0,91,0.00,,---,0.00,VWS V14.00,2013-08-18 04:25:00,
2013-08-18 00:26:00,67.3,64.6,29.23,SSE,158,0.0,0.0,91,0.00,,---,0.00,VWS V14.00,2013-08-18 04:26:00,
2013-08-18 00:27:00,67.3,64.6,29.23,North,0,0.0,0.0,91,0.00,,---,0.00,VWS V14.00,2013-08-18 04:27:00,
2013-08-18 00:28:00,67.3,64.6,29.23,ENE,68,0.9,2.2,91,0.00,,---,0.00,VWS V14.00,2013-08-18 04:28:00,
2013-08-18 00:29:00,67.3,64.6,29.26,East,90,0.0,0.9,91,0.00,,---,0.00,VWS V14.00,2013-08-18 04:29:00,
2013-08-18 00:30:00,67.3,64.6,29.26,NNE,22,1.1,1.1,91,0.00,,---,0.00,VWS V14.00,2013-08-18 04:30:00,
2013-08-18 00:31:00,67.3,64.6,29.26,NNE,22,1.6,1.6,91,0.00,,---,0.00,VWS V14.00,2013-08-18 04:31:00,
2013-08-18 00:32:00,67.3,64.6,29.26,NNE,22,1.3,1.6,91,0.00,,---,0.00,VWS V14.00,2013-08-18 04:32:00,
2013-08-18 00:33:00,67.3,64.6,29.26,NNE,22,1.3,1.3,91,0.00,,---,0.00,VWS V14.00,2013-08-18 04:33:00,
2013-08-18 00:34:00,67.3,64.6,29.26,NNE,22,1.3,1.3,91,0.00,,---,0.00,VWS V14.00,2013-08-18 04:34:00,
2013-08-18 00:35:00,67.3,64.6,29.26,NNE,22,1.6,2.0,91,0.00,,---,0.00,VWS V14.00,2013-08-18 04:35:00,
2013-08-18 00:36:00,67.3,64.6,29.26,NNE,22,1.6,1.6,91,0.00,,---,0.00,VWS V14.00,2013-08-18 04:36:00,
2013-08-18 00:37:00,67.3,64.6,29.26,NNW,338,3.4,3.4,91,0.00,,---,0.00,VWS V14.00,2013-08-18 04:37:00,
2013-08-18 00:38:00,67.3,64.6,29.26,NNE,22,3.4,4.0,91,0.00,,---,0.00,VWS V14.00,2013-08-18 04:38:00,
2013-08-18 00:39:00,67.3,64.6,29.26,NNW,338,2.2,3.8,91,0.00,,---,0.00,VWS V14.00,2013-08-18 04:39:00,
2013-08-18 00:40:00,67.3,64.6,29.26,NNW,338,2.2,2.2,91,0.00,,---,0.00,VWS V14.00,2013-08-18 04:40:00,
2013-08-18 00:41:00,67.3,64.6,29.26,NNW,338,2.5,2.5,91,0.00,,---,0.00,VWS V14.00,2013-08-18 04:41:00,
2013-08-18 00:42:00,67.3,64.6,29.26,WNW,292,3.1,3.1,91,0.00,,---,0.00,VWS V14.00,2013-08-18 04:42:00,
2013-08-18 00:43:00,67.1,64.4,29.26,NW,315,2.0,3.1,91,0.00,,---,0.00,VWS V14.00,2013-08-18 04:43:00,
2013-08-18 00:44:00,67.1,64.4,29.26,WNW,292,2.5,2.9,91,0.00,,---,0.00,VWS V14.00,2013-08-18 04:44:00,
2013-08-18 00:45:00,67.1,64.4,29.26,WNW,292,1.6,2.5,91,0.00,,---,0.00,VWS V14.00,2013-08-18 04:45:00,
2013-08-18 00:46:00,67.1,64.4,29.26,WSW,248,0.9,1.6,91,0.00,,---,0.00,VWS V14.00,2013-08-18 04:46:00,
2013-08-18 00:47:00,67.1,64.4,29.26,WSW,248,2.0,2.2,91,0.00,,---,0.00,VWS V14.00,2013-08-18 04:47:00,
2013-08-18 00:48:00,67.1,64.4,29.26,WSW,248,2.9,2.9,91,0.00,,---,0.00,VWS V14.00,2013-08-18 04:48:00,
2013-08-18 00:49:00,67.1,64.4,29.26,WSW,248,2.7,3.4,91,0.00,,---,0.00,VWS V14.00,2013-08-18 04:49:00,
2013-08-18 00:50:00,67.1,64.4,29.26,WSW,248,0.9,2.7,91,0.00,,---,0.00,VWS V14.00,2013-08-18 04:50:00,
2013-08-18 00:51:00,67.1,64.4,29.26,WSW,248,0.0,1.1,91,0.00,,---,0.00,VWS V14.00,2013-08-18 04:51:00,
2013-08-18 00:52:00,67.1,64.4,29.26,West,270,0.0,1.1,91,0.00,,---,0.00,VWS V14.00,2013-08-18 04:52:00,
2013-08-18 00:53:00,67.1,64.4,29.26,WNW,292,0.9,2.2,91,0.00,,---,0.00,VWS V14.00,2013-08-18 04:53:00,
2013-08-18 00:54:00,67.1,64.4,29.26,WNW,292,2.2,2.2,91,0.00,,---,0.00,VWS V14.00,2013-08-18 04:54:00,
2013-08-18 00:55:00,67.1,64.4,29.26,WNW,292,0.9,2.2,91,0.00,,---,0.00,VWS V14.00,2013-08-18 04:55:00,
2013-08-18 00:56:00,67.1,64.4,29.26,NNW,338,2.5,2.7,91,0.00,,---,0.00,VWS V14.00,2013-08-18 04:56:00,
2013-08-18 00:57:00,67.1,64.4,29.26,NNW,338,2.2,2.5,91,0.00,,---,0.00,VWS V14.00,2013-08-18 04:57:00,
2013-08-18 00:58:00,67.1,64.4,29.26,NNW,338,1.6,2.2,91,0.00,,---,0.00,VWS V14.00,2013-08-18 04:58:00,
2013-08-18 00:59:00,67.1,64.4,29.26,WNW,292,3.1,3.1,91,0.00,,---,0.00,VWS V14.00,2013-08-18 04:59:00,
2013-08-18 01:00:00,67.1,64.4,29.26,WNW,292,2.0,3.1,91,0.00,,---,0.00,VWS V14.00,2013-08-18 05:00:00,
2013-08-18 01:01:00,67.1,64.4,29.26,NW,315,2.9,2.9,91,0.00,,---,0.00,VWS V14.00,2013-08-18 05:01:00,
2013-08-18 01:02:00,67.1,64.4,29.26,NNW,338,3.1,4.3,91,0.00,,---,0.00,VWS V14.00,2013-08-18 05:02:00,
2013-08-18 01:03:00,67.1,64.4,29.26,NNW,338,1.1,3.1,91,0.00,,---,0.00,VWS V14.00,2013-08-18 05:03:00,
2013-08-18 01:04:00,67.1,64.4,29.26,NNW,338,2.5,2.5,91,0.00,,---,0.00,VWS V14.00,2013-08-18 05:04:00,
2013-08-18 01:05:00,67.1,64.4,29.26,WNW,292,1.3,2.5,91,0.00,,---,0.00,VWS V14.00,2013-08-18 05:05:00,
2013-08-18 01:06:00,67.1,64.4,29.26,WNW,292,0.9,1.6,91,0.00,,---,0.00,VWS V14.00,2013-08-18 05:06:00,
2013-08-18 01:07:00,67.1,64.4,29.26,WSW,248,2.2,2.2,91,0.00,,---,0.00,VWS V14.00,2013-08-18 05:07:00,
2013-08-18 01:08:00,67.1,64.4,29.26,WSW,248,2.2,2.2,91,0.00,,---,0.00,VWS V14.00,2013-08-18 05:08:00,
2013-08-18 01:09:00,67.1,64.4,29.26,WSW,248,2.5,2.9,91,0.00,,---,0.00,VWS V14.00,2013-08-18 05:09:00,
2013-08-18 01:10:00,67.1,64.4,29.26,WSW,248,1.6,2.5,91,0.00,,---,0.00,VWS V14.00,2013-08-18 05:10:00,
2013-08-18 01:11:00,67.1,64.4,29.26,WSW,248,0.0,2.2,91,0.00,,---,0.00,VWS V14.00,2013-08-18 05:11:00,
2013-08-18 01:12:00,67.1,64.4,29.26,West,270,0.0,0.0,91,0.00,,---,0.00,VWS V14.00,2013-08-18 05:12:00,
2013-08-18 01:13:00,67.1,64.4,29.26,West,270,0.0,1.1,91,0.00,,---,0.00,VWS V14.00,2013-08-18 05:13:00,
2013-08-18 01:14:00,67.1,64.4,29.26,WSW,248,2.5,2.5,91,0.00,,---,0.00,VWS V14.00,2013-08-18 05:14:00,
2013-08-18 01:15:00,67.1,64.4,29.26,SSW,202,2.9,2.9,91,0.00,,---,0.00,VWS V14.00,2013-08-18 05:15:00,
2013-08-18 01:16:00,67.1,64.4,29.26,SSW,202,0.9,1.6,91,0.00,,---,0.00,VWS V14.00,2013-08-18 05:16:00,
2013-08-18 01:17:00,67.1,64.4,29.26,WSW,248,3.1,3.1,91,0.00,,---,0.00,VWS V14.00,2013-08-18 05:17:00,
2013-08-18 01:18:00,67.1,64.4,29.26,SSW,202,3.1,3.6,91,0.00,,---,0.00,VWS V14.00,2013-08-18 05:18:00,
2013-08-18 01:19:00,67.1,64.4,29.26,WNW,292,1.3,3.1,91,0.00,,---,0.00,VWS V14.00,2013-08-18 05:19:00,
2013-08-18 01:20:00,67.1,64.4,29.26,WSW,248,3.4,3.4,91,0.00,,---,0.00,VWS V14.00,2013-08-18 05:20:00,
2013-08-18 01:21:00,67.1,64.4,29.26,WSW,248,2.9,3.4,91,0.00,,---,0.00,VWS V14.00,2013-08-18 05:21:00,
2013-08-18 01:22:00,67.1,64.4,29.26,WSW,248,2.9,3.6,91,0.00,,---,0.00,VWS V14.00,2013-08-18 05:22:00,
2013-08-18 01:23:00,67.1,64.4,29.26,WSW,248,2.9,3.6,91,0.00,,---,0.00,VWS V14.00,2013-08-18 05:23:00,
2013-08-18 01:24:00,67.1,64.4,29.26,WSW,248,3.6,3.8,91,0.00,,---,0.00,VWS V14.00,2013-08-18 05:24:00,
2013-08-18 01:25:00,67.1,64.4,29.26,SW,225,1.6,4.3,91,0.00,,---,0.00,VWS V14.00,2013-08-18 05:25:00,
2013-08-18 01:26:00,67.1,64.4,29.26,WSW,248,3.4,3.4,91,0.00,,---,0.00,VWS V14.00,2013-08-18 05:26:00,
2013-08-18 01:27:00,67.1,64.4,29.26,SW,225,2.9,3.4,91,0.00,,---,0.00,VWS V14.00,2013-08-18 05:27:00,
2013-08-18 01:28:00,67.1,64.4,29.26,WSW,248,4.3,4.3,91,0.00,,---,0.00,VWS V14.00,2013-08-18 05:28:00,
2013-08-18 01:29:00,67.1,64.4,29.26,WSW,248,3.8,4.9,91,0.00,,---,0.00,VWS V14.00,2013-08-18 05:29:00,
2013-08-18 01:30:00,67.1,64.4,29.26,WSW,248,2.7,3.8,91,0.00,,---,0.00,VWS V14.00,2013-08-18 05:30:00,
2013-08-18 01:31:00,67.1,64.4,29.26,WSW,248,2.9,2.9,91,0.00,,---,0.00,VWS V14.00,2013-08-18 05:31:00,
2013-08-18 01:32:00,66.9,64.2,29.26,WSW,248,2.0,2.9,91,0.00,,---,0.00,VWS V14.00,2013-08-18 05:32:00,
2013-08-18 01:33:00,66.9,64.2,29.26,WSW,248,2.9,4.0,91,0.00,,---,0.00,VWS V14.00,2013-08-18 05:33:00,
2013-08-18 01:34:00,66.9,64.2,29.26,WSW,248,4.0,4.0,91,0.00,,---,0.00,VWS V14.00,2013-08-18 05:34:00,
2013-08-18 01:35:00,66.9,64.2,29.26,WSW,248,4.0,4.0,91,0.00,,---,0.00,VWS V14.00,2013-08-18 05:35:00,
2013-08-18 01:36:00,66.9,64.2,29.26,WSW,248,3.1,4.0,91,0.00,,---,0.00,VWS V14.00,2013-08-18 05:36:00,
2013-08-18 01:37:00,66.9,64.2,29.26,WNW,292,3.8,3.8,91,0.00,,---,0.00,VWS V14.00,2013-08-18 05:37:00,
2013-08-18 01:38:00,66.9,64.2,29.26,West,270,3.1,4.9,91,0.00,,---,0.00,VWS V14.00,2013-08-18 05:38:00,
2013-08-18 01:39:00,66.9,64.2,29.26,WSW,248,3.1,5.8,91,0.00,,---,0.00,VWS V14.00,2013-08-18 05:39:00,
2013-08-18 01:40:00,66.9,64.2,29.26,WSW,248,4.3,4.3,91,0.00,,---,0.00,VWS V14.00,2013-08-18 05:40:00,
2013-08-18 01:41:00,66.9,64.2,29.26,WSW,248,2.7,4.3,91,0.00,,---,0.00,VWS V14.00,2013-08-18 05:41:00,
2013-08-18 01:42:00,66.9,64.2,29.26,WSW,248,2.0,3.8,91,0.00,,---,0.00,VWS V14.00,2013-08-18 05:42:00,
2013-08-18 01:43:00,66.9,64.2,29.26,NW,315,1.6,2.9,91,0.00,,---,0.00,VWS V14.00,2013-08-18 05:43:00,
2013-08-18 01:44:00,66.9,64.2,29.26,WNW,292,0.0,1.6,91,0.00,,---,0.00,VWS V14.00,2013-08-18 05:44:00,
2013-08-18 01:45:00,66.9,64.2,29.26,WSW,248,3.8,3.8,91,0.00,,---,0.00,VWS V14.00,2013-08-18 05:45:00,
2013-08-18 01:46:00,66.9,64.2,29.26,WSW,248,2.7,4.3,91,0.00,,---,0.00,VWS V14.00,2013-08-18 05:46:00,
2013-08-18 01:47:00,66.9,64.2,29.26,WSW,248,2.7,3.1,91,0.00,,---,0.00,VWS V14.00,2013-08-18 05:47:00,
2013-08-18 01:48:00,66.9,64.2,29.26,WSW,248,2.0,2.7,91,0.00,,---,0.00,VWS V14.00,2013-08-18 05:48:00,
2013-08-18 01:49:00,66.9,64.2,29.26,WSW,248,2.7,2.7,91,0.00,,---,0.00,VWS V14.00,2013-08-18 05:49:00,
2013-08-18 01:50:00,66.9,64.2,29.26,WSW,248,2.5,3.1,91,0.00,,---,0.00,VWS V14.00,2013-08-18 05:50:00,
2013-08-18 01:51:00,66.7,64.0,29.26,West,270,2.5,2.5,91,0.00,,---,0.00,VWS V14.00,2013-08-18 05:51:00,
2013-08-18 01:52:00,66.7,64.0,29.26,West,270,1.3,2.5,91,0.00,,---,0.00,VWS V14.00,2013-08-18 05:52:00,
2013-08-18 01:53:00,66.7,64.0,29.26,WSW,248,2.5,2.5,91,0.00,,---,0.00,VWS V14.00,2013-08-18 05:53:00,
2013-08-18 01:54:00,66.7,64.0,29.26,WSW,248,1.6,2.9,91,0.00,,---,0.00,VWS V14.00,2013-08-18 05:54:00,
2013-08-18 01:55:00,66.7,64.0,29.26,West,270,1.1,2.5,91,0.00,,---,0.00,VWS V14.00,2013-08-18 05:55:00,
2013-08-18 01:56:00,66.7,64.0,29.26,WNW,292,2.2,3.4,91,0.00,,---,0.00,VWS V14.00,2013-08-18 05:56:00,
2013-08-18 01:57:00,66.7,64.0,29.26,West,270,2.7,2.7,91,0.00,,---,0.00,VWS V14.00,2013-08-18 05:57:00,
2013-08-18 01:58:00,66.7,64.0,29.26,WNW,292,1.3,2.7,91,0.00,,---,0.00,VWS V14.00,2013-08-18 05:58:00,
2013-08-18 01:59:00,66.7,64.0,29.26,WSW,248,1.6,3.1,91,0.00,,---,0.00,VWS V14.00,2013-08-18 05:59:00,
2013-08-18 02:00:00,66.7,64.0,29.26,West,270,3.4,3.4,91,0.00,,---,0.00,VWS V14.00,2013-08-18 06:00:00,
2013-08-18 02:01:00,66.7,64.0,29.26,WSW,248,1.6,3.4,91,0.00,,---,0.00,VWS V14.00,2013-08-18 06:01:00,
2013-08-18 02:02:00,66.7,64.0,29.26,West,270,2.9,2.9,91,0.00,,---,0.00,VWS V14.00,2013-08-18 06:02:00,
2013-08-18 02:03:00,66.7,64.0,29.26,WNW,292,3.1,4.3,91,0.00,,---,0.00,VWS V14.00,2013-08-18 06:03:00,
2013-08-18 02:04:00,66.7,64.0,29.26,WNW,292,1.6,3.1,91,0.00,,---,0.00,VWS V14.00,2013-08-18 06:04:00,
2013-08-18 02:05:00,66.7,64.0,29.26,WSW,248,0.0,1.6,91,0.00,,---,0.00,VWS V14.00,2013-08-18 06:05:00,
2013-08-18 02:06:00,66.7,64.0,29.26,West,270,5.6,5.6,91,0.00,,---,0.00,VWS V14.00,2013-08-18 06:06:00,
2013-08-18 02:07:00,66.6,63.9,29.26,SSW,202,2.5,5.6,91,0.00,,---,0.00,VWS V14.00,2013-08-18 06:07:00,
2013-08-18 02:08:00,66.6,63.9,29.26,WSW,248,2.7,3.4,91,0.00,,---,0.00,VWS V14.00,2013-08-18 06:08:00,
2013-08-18 02:09:00,66.6,63.9,29.26,WSW,248,4.3,5.4,91,0.00,,---,0.00,VWS V14.00,2013-08-18 06:09:00,
2013-08-18 02:10:00,66.6,63.9,29.26,WSW,248,3.1,4.3,91,0.00,,---,0.00,VWS V14.00,2013-08-18 06:10:00,
2013-08-18 02:11:00,66.6,63.9,29.26,WSW,248,2.2,3.1,91,0.00,,---,0.00,VWS V14.00,2013-08-18 06:11:00,
2013-08-18 02:12:00,66.6,63.9,29.26,WNW,292,4.3,4.3,91,0.00,,---,0.00,VWS V14.00,2013-08-18 06:12:00,
2013-08-18 02:13:00,66.6,63.9,29.26,SW,225,2.5,4.3,91,0.00,,---,0.00,VWS V14.00,2013-08-18 06:13:00,
2013-08-18 02:14:00,66.6,63.9,29.26,SW,225,1.6,2.5,91,0.00,,---,0.00,VWS V14.00,2013-08-18 06:14:00,
2013-08-18 02:15:00,66.6,63.9,29.26,WNW,292,1.6,2.0,91,0.00,,---,0.00,VWS V14.00,2013-08-18 06:15:00,
2013-08-18 02:16:00,66.6,63.9,29.26,WSW,248,3.4,3.4,91,0.00,,---,0.00,VWS V14.00,2013-08-18 06:16:00,
2013-08-18 02:17:00,66.6,63.9,29.26,WSW,248,2.5,3.4,91,0.00,,---,0.00,VWS V14.00,2013-08-18 06:17:00,
2013-08-18 02:18:00,66.6,63.9,29.26,WSW,248,3.8,3.8,91,0.00,,---,0.00,VWS V14.00,2013-08-18 06:18:00,
2013-08-18 02:19:00,66.6,63.9,29.26,West,270,3.1,3.8,91,0.00,,---,0.00,VWS V14.00,2013-08-18 06:19:00,
2013-08-18 02:20:00,66.6,63.9,29.26,West,270,2.9,4.3,91,0.00,,---,0.00,VWS V14.00,2013-08-18 06:20:00,
2013-08-18 02:21:00,66.6,63.9,29.26,WSW,248,2.9,4.0,91,0.00,,---,0.00,VWS V14.00,2013-08-18 06:21:00,
2013-08-18 02:22:00,66.6,63.9,29.26,WSW,248,3.6,4.3,91,0.00,,---,0.00,VWS V14.00,2013-08-18 06:22:00,
2013-08-18 02:23:00,66.6,63.9,29.26,WSW,248,3.8,3.8,91,0.00,,---,0.00,VWS V14.00,2013-08-18 06:23:00,
2013-08-18 02:24:00,66.6,63.9,29.26,WNW,292,2.5,4.9,91,0.00,,---,0.00,VWS V14.00,2013-08-18 06:24:00,
2013-08-18 02:25:00,66.6,63.9,29.26,WSW,248,2.9,2.9,91,0.00,,---,0.00,VWS V14.00,2013-08-18 06:25:00,
2013-08-18 02:26:00,66.6,63.9,29.26,WSW,248,1.1,2.9,91,0.00,,---,0.00,VWS V14.00,2013-08-18 06:26:00,
2013-08-18 02:27:00,66.4,63.7,29.26,NNW,338,2.0,2.9,91,0.00,,---,0.00,VWS V14.00,2013-08-18 06:27:00,
2013-08-18 02:28:00,66.4,63.7,29.26,WNW,292,3.4,3.4,91,0.00,,---,0.00,VWS V14.00,2013-08-18 06:28:00,
2013-08-18 02:29:00,66.4,63.7,29.26,SW,225,3.6,3.6,91,0.00,,---,0.00,VWS V14.00,2013-08-18 06:29:00,
2013-08-18 02:30:00,66.4,63.7,29.26,West,270,4.0,4.0,91,0.00,,---,0.00,VWS V14.00,2013-08-18 06:30:00,
2013-08-18 02:31:00,66.4,63.7,29.26,West,270,2.9,4.0,91,0.00,,---,0.00,VWS V14.00,2013-08-18 06:31:00,
2013-08-18 02:32:00,66.4,63.7,29.26,NNW,338,1.6,2.9,91,0.00,,---,0.00,VWS V14.00,2013-08-18 06:32:00,
2013-08-18 02:33:00,66.4,63.7,29.26,WNW,292,1.6,3.8,91,0.00,,---,0.00,VWS V14.00,2013-08-18 06:33:00,
2013-08-18 02:34:00,66.4,63.7,29.26,West,270,0.0,2.5,91,0.00,,---,0.00,VWS V14.00,2013-08-18 06:34:00,
2013-08-18 02:35:00,66.4,63.7,29.26,NW,315,2.5,3.1,91,0.00,,---,0.00,VWS V14.00,2013-08-18 06:35:00,
2013-08-18 02:36:00,66.4,63.7,29.26,West,270,1.6,2.5,91,0.00,,---,0.00,VWS V14.00,2013-08-18 06:36:00,
2013-08-18 02:37:00,66.4,63.7,29.26,WSW,248,2.0,3.4,91,0.00,,---,0.00,VWS V14.00,2013-08-18 06:37:00,
2013-08-18 02:38:00,66.4,63.7,29.26,WNW,292,1.1,2.0,91,0.00,,---,0.00,VWS V14.00,2013-08-18 06:38:00,
2013-08-18 02:39:00,66.4,63.7,29.26,WSW,248,1.3,3.4,91,0.00,,---,0.00,VWS V14.00,2013-08-18 06:39:00,
2013-08-18 02:40:00,66.4,63.7,29.26,West,270,3.4,3.4,91,0.00,,---,0.00,VWS V14.00,2013-08-18 06:40:00,
2013-08-18 02:41:00,66.4,63.7,29.26,WNW,292,2.5,3.6,91,0.00,,---,0.00,VWS V14.00,2013-08-18 06:41:00,
2013-08-18 02:42:00,66.4,63.7,29.26,WNW,292,2.2,2.5,91,0.00,,---,0.00,VWS V14.00,2013-08-18 06:42:00,
2013-08-18 02:43:00,66.4,63.7,29.26,WSW,248,2.5,2.5,91,0.00,,---,0.00,VWS V14.00,2013-08-18 06:43:00,
2013-08-18 02:44:00,66.2,63.5,29.26,WSW,248,0.0,2.5,91,0.00,,---,0.00,VWS V14.00,2013-08-18 06:44:00,
2013-08-18 02:45:00,66.2,63.5,29.26,NW,315,1.3,1.3,91,0.00,,---,0.00,VWS V14.00,2013-08-18 06:45:00,
2013-08-18 02:46:00,66.2,63.5,29.26,NW,315,2.7,2.7,91,0.00,,---,0.00,VWS V14.00,2013-08-18 06:46:00,
2013-08-18 02:47:00,66.2,63.5,29.26,NNW,338,2.2,2.7,91,0.00,,---,0.00,VWS V14.00,2013-08-18 06:47:00,
2013-08-18 02:48:00,66.2,63.5,29.26,WNW,292,1.1,2.2,91,0.00,,---,0.00,VWS V14.00,2013-08-18 06:48:00,
2013-08-18 02:49:00,66.2,63.5,29.26,WNW,292,0.0,1.1,91,0.00,,---,0.00,VWS V14.00,2013-08-18 06:49:00,
2013-08-18 02:50:00,66.2,63.5,29.26,WNW,292,1.3,1.3,91,0.00,,---,0.00,VWS V14.00,2013-08-18 06:50:00,
2013-08-18 02:51:00,66.2,63.5,29.26,West,270,1.1,1.3,91,0.00,,---,0.00,VWS V14.00,2013-08-18 06:51:00,
2013-08-18 02:52:00,66.2,63.5,29.26,West,270,1.3,1.3,91,0.00,,---,0.00,VWS V14.00,2013-08-18 06:52:00,
2013-08-18 02:53:00,66.2,63.5,29.26,West,270,1.6,1.6,91,0.00,,---,0.00,VWS V14.00,2013-08-18 06:53:00,
2013-08-18 02:54:00,66.2,63.5,29.26,West,270,0.0,1.6,91,0.00,,---,0.00,VWS V14.00,2013-08-18 06:54:00,
2013-08-18 02:55:00,66.2,63.5,29.26,WSW,248,0.0,0.0,91,0.00,,---,0.00,VWS V14.00,2013-08-18 06:55:00,
2013-08-18 02:56:00,66.2,63.5,29.26,WSW,248,0.0,0.0,91,0.00,,---,0.00,VWS V14.00,2013-08-18 06:56:00,
2013-08-18 02:57:00,66.2,63.5,29.26,WSW,248,0.0,0.0,91,0.00,,---,0.00,VWS V14.00,2013-08-18 06:57:00,
2013-08-18 02:58:00,66.2,63.5,29.26,South,180,0.0,0.0,91,0.00,,---,0.00,VWS V14.00,2013-08-18 06:58:00,
2013-08-18 02:59:00,66.2,63.5,29.23,South,180,0.0,0.0,91,0.00,,---,0.00,VWS V14.00,2013-08-18 06:59:00,
2013-08-18 03:00:00,66.2,63.5,29.23,SSW,202,0.0,0.0,91,0.00,,---,0.00,VWS V14.00,2013-08-18 07:00:00,
2013-08-18 03:01:00,66.2,63.5,29.23,SW,225,0.0,1.3,91,0.00,,---,0.00,VWS V14.00,2013-08-18 07:01:00,
2013-08-18 03:02:00,66.2,63.5,29.23,SW,225,0.0,0.0,91,0.00,,---,0.00,VWS V14.00,2013-08-18 07:02:00,
2013-08-18 03:03:00,66.2,63.5,29.23,SW,225,0.0,0.0,91,0.00,,---,0.00,VWS V14.00,2013-08-18 07:03:00,
2013-08-18 03:04:00,66.2,63.5,29.23,SW,225,0.0,0.0,91,0.00,,---,0.00,VWS V14.00,2013-08-18 07:04:00,
2013-08-18 03:05:00,66.2,63.5,29.23,SW,225,0.0,0.0,91,0.00,,---,0.00,VWS V14.00,2013-08-18 07:05:00,
2013-08-18 03:06:00,66.2,63.5,29.23,SW,225,1.3,1.3,91,0.00,,---,0.00,VWS V14.00,2013-08-18 07:06:00,
2013-08-18 03:07:00,66.0,63.6,29.23,WSW,248,2.0,2.0,92,0.00,,---,0.00,VWS V14.00,2013-08-18 07:07:00,
2013-08-18 03:08:00,66.0,63.6,29.23,WSW,248,2.7,3.1,92,0.00,,---,0.00,VWS V14.00,2013-08-18 07:08:00,
2013-08-18 03:09:00,66.0,63.6,29.23,NW,315,2.0,2.9,92,0.00,,---,0.00,VWS V14.00,2013-08-18 07:09:00,
2013-08-18 03:10:00,66.0,63.6,29.23,NW,315,0.0,2.0,92,0.00,,---,0.00,VWS V14.00,2013-08-18 07:10:00,
2013-08-18 03:11:00,66.0,63.6,29.23,WNW,292,0.0,0.9,92,0.00,,---,0.00,VWS V14.00,2013-08-18 07:11:00,
2013-08-18 03:12:00,66.0,63.6,29.23,WNW,292,0.0,1.6,92,0.00,,---,0.00,VWS V14.00,2013-08-18 07:12:00,
2013-08-18 03:13:00,66.0,63.6,29.23,WNW,292,0.0,0.0,92,0.00,,---,0.00,VWS V14.00,2013-08-18 07:13:00,
2013-08-18 03:14:00,66.0,63.6,29.26,WNW,292,0.0,0.0,92,0.00,,---,0.00,VWS V14.00,2013-08-18 07:14:00,
2013-08-18 03:15:00,66.0,63.6,29.26,WNW,292,0.0,0.0,92,0.00,,---,0.00,VWS V14.00,2013-08-18 07:15:00,
2013-08-18 03:16:00,66.0,63.6,29.26,WSW,248,2.2,2.2,92,0.00,,---,0.00,VWS V14.00,2013-08-18 07:16:00,
2013-08-18 03:17:00,66.0,63.6,29.26,WSW,248,1.3,2.2,92,0.00,,---,0.00,VWS V14.00,2013-08-18 07:17:00,
2013-08-18 03:18:00,66.0,63.6,29.26,WSW,248,0.9,1.6,92,0.00,,---,0.00,VWS V14.00,2013-08-18 07:18:00,
2013-08-18 03:19:00,66.0,63.6,29.26,WSW,248,0.0,0.9,92,0.00,,---,0.00,VWS V14.00,2013-08-18 07:19:00,
2013-08-18 03:20:00,66.0,63.6,29.26,WSW,248,0.0,0.0,92,0.00,,---,0.00,VWS V14.00,2013-08-18 07:20:00,
2013-08-18 03:21:00,66.0,63.6,29.26,WSW,248,0.0,0.0,92,0.00,,---,0.00,VWS V14.00,2013-08-18 07:21:00,
2013-08-18 03:22:00,66.0,63.6,29.26,WSW,248,0.0,0.0,92,0.00,,---,0.00,VWS V14.00,2013-08-18 07:22:00,
2013-08-18 03:23:00,66.0,63.6,29.26,WSW,248,0.0,0.0,92,0.00,,---,0.00,VWS V14.00,2013-08-18 07:23:00,
2013-08-18 03:24:00,66.0,63.6,29.26,SSE,158,0.0,0.0,92,0.00,,---,0.00,VWS V14.00,2013-08-18 07:24:00,
2013-08-18 03:25:00,66.0,63.6,29.26,SW,225,0.0,0.0,92,0.00,,---,0.00,VWS V14.00,2013-08-18 07:25:00,
2013-08-18 03:26:00,66.0,63.6,29.26,SW,225,0.0,0.0,92,0.00,,---,0.00,VWS V14.00,2013-08-18 07:26:00,
2013-08-18 03:27:00,66.0,63.6,29.26,SW,225,0.0,0.9,92,0.00,,---,0.00,VWS V14.00,2013-08-18 07:27:00,
2013-08-18 03:28:00,66.0,63.6,29.26,SW,225,0.0,0.0,92,0.00,,---,0.00,VWS V14.00,2013-08-18 07:28:00,
2013-08-18 03:29:00,66.0,63.6,29.26,SW,225,0.9,0.9,92,0.00,,---,0.00,VWS V14.00,2013-08-18 07:29:00,
2013-08-18 03:30:00,66.0,63.6,29.26,SW,225,0.0,0.9,92,0.00,,---,0.00,VWS V14.00,2013-08-18 07:30:00,
2013-08-18 03:31:00,66.0,63.6,29.26,South,180,0.0,0.0,92,0.00,,---,0.00,VWS V14.00,2013-08-18 07:31:00,
2013-08-18 03:32:00,66.0,63.6,29.26,South,180,0.0,0.0,92,0.00,,---,0.00,VWS V14.00,2013-08-18 07:32:00,
2013-08-18 03:33:00,66.2,63.5,29.26,SW,225,0.0,0.0,91,0.00,,---,0.00,VWS V14.00,2013-08-18 07:33:00,
2013-08-18 03:34:00,66.2,63.5,29.26,SSE,158,0.0,0.0,91,0.00,,---,0.00,VWS V14.00,2013-08-18 07:34:00,
2013-08-18 03:35:00,66.2,63.5,29.26,SSE,158,0.0,0.0,91,0.00,,---,0.00,VWS V14.00,2013-08-18 07:35:00,
2013-08-18 03:36:00,66.2,63.5,29.26,WSW,248,1.6,1.6,91,0.00,,---,0.00,VWS V14.00,2013-08-18 07:36:00,
2013-08-18 03:37:00,66.0,63.6,29.26,WSW,248,0.0,1.6,92,0.00,,---,0.00,VWS V14.00,2013-08-18 07:37:00,
2013-08-18 03:38:00,66.0,63.6,29.26,SW,225,0.0,1.6,92,0.00,,---,0.00,VWS V14.00,2013-08-18 07:38:00,
2013-08-18 03:39:00,66.2,63.5,29.26,WSW,248,0.0,0.0,91,0.00,,---,0.00,VWS V14.00,2013-08-18 07:39:00,
2013-08-18 03:40:00,66.2,63.5,29.26,WSW,248,2.0,2.0,91,0.00,,---,0.00,VWS V14.00,2013-08-18 07:40:00,
2013-08-18 03:41:00,66.2,63.5,29.26,WSW,248,2.2,2.7,91,0.00,,---,0.00,VWS V14.00,2013-08-18 07:41:00,
2013-08-18 03:42:00,66.0,63.6,29.26,SW,225,0.0,2.5,92,0.00,,---,0.00,VWS V14.00,2013-08-18 07:42:00,
2013-08-18 03:43:00,66.0,63.6,29.26,SW,225,0.0,0.0,92,0.00,,---,0.00,VWS V14.00,2013-08-18 07:43:00,
2013-08-18 03:44:00,66.2,63.5,29.23,SSE,158,1.1,1.6,91,0.00,,---,0.00,VWS V14.00,2013-08-18 07:44:00,
2013-08-18 03:45:00,66.2,63.5,29.23,SW,225,1.3,1.3,91,0.00,,---,0.00,VWS V14.00,2013-08-18 07:45:00,
2013-08-18 03:46:00,66.2,63.5,29.23,WSW,248,0.0,1.3,91,0.00,,---,0.00,VWS V14.00,2013-08-18 07:46:00,
2013-08-18 03:47:00,66.2,63.5,29.23,SSW,202,1.1,1.1,91,0.00,,---,0.00,VWS V14.00,2013-08-18 07:47:00,
2013-08-18 03:48:00,66.2,63.5,29.23,SSW,202,0.0,1.1,91,0.00,,---,0.00,VWS V14.00,2013-08-18 07:48:00,
2013-08-18 03:49:00,66.2,63.5,29.23,SSW,202,0.0,0.0,91,0.00,,---,0.00,VWS V14.00,2013-08-18 07:49:00,
2013-08-18 03:50:00,66.2,63.5,29.23,SSW,202,0.9,0.9,91,0.00,,---,0.00,VWS V14.00,2013-08-18 07:50:00,
2013-08-18 03:51:00,66.2,63.5,29.23,SW,225,1.3,1.3,91,0.00,,---,0.00,VWS V14.00,2013-08-18 07:51:00,
2013-08-18 03:52:00,66.2,63.5,29.23,SW,225,1.6,1.6,91,0.00,,---,0.00,VWS V14.00,2013-08-18 07:52:00,
2013-08-18 03:53:00,66.2,63.5,29.23,SW,225,1.6,1.6,91,0.00,,---,0.00,VWS V14.00,2013-08-18 07:53:00,
2013-08-18 03:54:00,66.2,63.5,29.23,SW,225,1.6,1.6,91,0.00,,---,0.00,VWS V14.00,2013-08-18 07:54:00,
2013-08-18 03:55:00,66.2,63.5,29.23,WSW,248,0.0,2.2,91,0.00,,---,0.00,VWS V14.00,2013-08-18 07:55:00,
2013-08-18 03:56:00,66.2,63.5,29.23,WSW,248,0.0,0.0,91,0.00,,---,0.00,VWS V14.00,2013-08-18 07:56:00,
2013-08-18 03:57:00,66.2,63.5,29.23,WSW,248,0.0,0.0,91,0.00,,---,0.00,VWS V14.00,2013-08-18 07:57:00,
2013-08-18 03:58:00,66.2,63.5,29.23,WSW,248,1.6,1.6,91,0.00,,---,0.00,VWS V14.00,2013-08-18 07:58:00,
2013-08-18 03:59:00,66.2,63.5,29.26,WSW,248,2.2,2.2,91,0.00,,---,0.00,VWS V14.00,2013-08-18 07:59:00,
2013-08-18 04:00:00,66.2,63.5,29.26,WSW,248,0.0,2.2,91,0.00,,---,0.00,VWS V14.00,2013-08-18 08:00:00,
2013-08-18 04:01:00,66.2,63.5,29.26,WSW,248,1.1,1.6,91,0.00,,---,0.00,VWS V14.00,2013-08-18 08:01:00,
2013-08-18 04:02:00,66.2,63.5,29.26,WSW,248,3.1,3.1,91,0.00,,---,0.00,VWS V14.00,2013-08-18 08:02:00,
2013-08-18 04:03:00,66.2,63.5,29.26,SSW,202,1.3,3.1,91,0.00,,---,0.00,VWS V14.00,2013-08-18 08:03:00,
2013-08-18 04:04:00,66.2,63.5,29.26,SSW,202,1.3,1.3,91,0.00,,---,0.00,VWS V14.00,2013-08-18 08:04:00,
2013-08-18 04:05:00,66.2,63.5,29.26,SW,225,2.5,2.5,91,0.00,,---,0.00,VWS V14.00,2013-08-18 08:05:00,
2013-08-18 04:06:00,66.2,63.5,29.26,SW,225,0.0,2.5,91,0.00,,---,0.00,VWS V14.00,2013-08-18 08:06:00,
2013-08-18 04:07:00,66.2,63.5,29.26,SW,225,0.0,1.1,91,0.00,,---,0.00,VWS V14.00,2013-08-18 08:07:00,
2013-08-18 04:08:00,66.2,63.5,29.26,SW,225,0.0,0.0,91,0.00,,---,0.00,VWS V14.00,2013-08-18 08:08:00,
2013-08-18 04:09:00,66.2,63.5,29.26,WSW,248,0.0,0.0,91,0.00,,---,0.00,VWS V14.00,2013-08-18 08:09:00,
2013-08-18 04:10:00,66.2,63.5,29.26,WSW,248,2.0,2.5,91,0.00,,---,0.00,VWS V14.00,2013-08-18 08:10:00,
2013-08-18 04:11:00,66.2,63.5,29.26,SW,225,1.1,2.0,91,0.00,,---,0.00,VWS V14.00,2013-08-18 08:11:00,
2013-08-18 04:12:00,66.2,63.5,29.26,SSW,202,1.6,1.6,91,0.00,,---,0.00,VWS V14.00,2013-08-18 08:12:00,
2013-08-18 04:13:00,66.2,63.5,29.26,SW,225,2.7,3.1,91,0.00,,---,0.00,VWS V14.00,2013-08-18 08:13:00,
2013-08-18 04:14:00,66.2,63.5,29.26,WSW,248,2.7,2.7,91,0.00,,---,0.00,VWS V14.00,2013-08-18 08:14:00,
2013-08-18 04:15:00,66.2,63.5,29.26,SW,225,2.0,2.7,91,0.00,,---,0.00,VWS V14.00,2013-08-18 08:15:00,
2013-08-18 04:16:00,66.2,63.5,29.26,SW,225,2.0,2.0,91,0.00,,---,0.00,VWS V14.00,2013-08-18 08:16:00,
2013-08-18 04:17:00,66.2,63.5,29.26,SSW,202,1.3,2.0,91,0.00,,---,0.00,VWS V14.00,2013-08-18 08:17:00,
2013-08-18 04:18:00,66.2,63.5,29.26,WSW,248,2.7,3.1,91,0.00,,---,0.00,VWS V14.00,2013-08-18 08:18:00,
2013-08-18 04:19:00,66.2,63.5,29.26,WSW,248,2.2,2.7,91,0.00,,---,0.00,VWS V14.00,2013-08-18 08:19:00,
2013-08-18 04:20:00,66.2,63.5,29.26,WSW,248,3.8,3.8,91,0.00,,---,0.00,VWS V14.00,2013-08-18 08:20:00,
2013-08-18 04:21:00,66.2,63.5,29.26,WSW,248,2.7,3.8,91,0.00,,---,0.00,VWS V14.00,2013-08-18 08:21:00,
2013-08-18 04:22:00,66.2,63.5,29.26,SW,225,3.4,3.4,91,0.00,,---,0.00,VWS V14.00,2013-08-18 08:22:00,
2013-08-18 04:23:00,66.2,63.5,29.26,SW,225,3.4,3.4,91,0.00,,---,0.00,VWS V14.00,2013-08-18 08:23:00,
2013-08-18 04:24:00,66.2,63.5,29.26,SW,225,3.4,3.4,91,0.00,,---,0.00,VWS V14.00,2013-08-18 08:24:00,
2013-08-18 04:25:00,66.2,63.5,29.26,West,270,4.3,4.3,91,0.00,,---,0.00,VWS V14.00,2013-08-18 08:25:00,
2013-08-18 04:26:00,66.2,63.5,29.26,WSW,248,3.6,4.3,91,0.00,,---,0.00,VWS V14.00,2013-08-18 08:26:00,
2013-08-18 04:27:00,66.2,63.5,29.26,WSW,248,3.8,4.0,91,0.00,,---,0.00,VWS V14.00,2013-08-18 08:27:00,
2013-08-18 04:28:00,66.2,63.5,29.26,WSW,248,3.6,3.8,91,0.00,,---,0.00,VWS V14.00,2013-08-18 08:28:00,
2013-08-18 04:29:00,66.2,63.5,29.26,WSW,248,3.6,3.6,91,0.00,,---,0.00,VWS V14.00,2013-08-18 08:29:00,
2013-08-18 04:30:00,66.2,63.5,29.26,WSW,248,2.5,3.6,91,0.00,,---,0.00,VWS V14.00,2013-08-18 08:30:00,
2013-08-18 04:31:00,66.2,63.5,29.26,WSW,248,2.5,2.5,91,0.00,,---,0.00,VWS V14.00,2013-08-18 08:31:00,
2013-08-18 04:32:00,66.2,63.5,29.26,WSW,248,2.5,2.5,91,0.00,,---,0.00,VWS V14.00,2013-08-18 08:32:00,
2013-08-18 04:33:00,66.2,63.5,29.26,WSW,248,2.5,2.5,91,0.00,,---,0.00,VWS V14.00,2013-08-18 08:33:00,
2013-08-18 04:34:00,66.2,63.5,29.26,WSW,248,2.5,2.5,91,0.00,,---,0.00,VWS V14.00,2013-08-18 08:34:00,
2013-08-18 04:35:00,66.2,63.5,29.26,WSW,248,2.0,2.5,91,0.00,,---,0.00,VWS V14.00,2013-08-18 08:35:00,
2013-08-18 04:36:00,66.2,63.5,29.26,WSW,248,2.0,2.0,91,0.00,,---,0.00,VWS V14.00,2013-08-18 08:36:00,
2013-08-18 04:37:00,66.2,63.5,29.26,WSW,248,2.0,2.0,91,0.00,,---,0.00,VWS V14.00,2013-08-18 08:37:00,
2013-08-18 04:38:00,66.0,63.6,29.26,WSW,248,2.0,2.0,92,0.00,,---,0.00,VWS V14.00,2013-08-18 08:38:00,
2013-08-18 04:39:00,66.0,63.6,29.26,WSW,248,2.0,2.0,92,0.00,,---,0.00,VWS V14.00,2013-08-18 08:39:00,
2013-08-18 04:40:00,66.0,63.6,29.26,WSW,248,2.0,2.0,92,0.00,,---,0.00,VWS V14.00,2013-08-18 08:40:00,
2013-08-18 04:41:00,66.0,63.6,29.26,WSW,248,2.0,2.0,92,0.00,,---,0.00,VWS V14.00,2013-08-18 08:41:00,
2013-08-18 04:42:00,66.0,63.6,29.26,WSW,248,2.0,2.0,92,0.00,,---,0.00,VWS V14.00,2013-08-18 08:42:00,
2013-08-18 04:43:00,66.2,63.5,29.26,WSW,248,2.0,2.0,91,0.00,,---,0.00,VWS V14.00,2013-08-18 08:43:00,
2013-08-18 04:44:00,66.2,63.5,29.26,WSW,248,2.0,2.0,91,0.00,,---,0.00,VWS V14.00,2013-08-18 08:44:00,
2013-08-18 04:45:00,66.2,63.5,29.26,WSW,248,2.0,2.0,91,0.00,,---,0.00,VWS V14.00,2013-08-18 08:45:00,
2013-08-18 04:46:00,66.2,63.5,29.26,WSW,248,1.1,2.0,91,0.00,,---,0.00,VWS V14.00,2013-08-18 08:46:00,
2013-08-18 04:47:00,66.2,63.5,29.26,WSW,248,1.1,1.1,91,0.00,,---,0.00,VWS V14.00,2013-08-18 08:47:00,
2013-08-18 04:48:00,66.2,63.5,29.26,WSW,248,1.1,1.1,91,0.00,,---,0.00,VWS V14.00,2013-08-18 08:48:00,
2013-08-18 04:49:00,66.2,63.5,29.26,WSW,248,3.6,3.6,91,0.00,,---,0.00,VWS V14.00,2013-08-18 08:49:00,
2013-08-18 04:50:00,66.0,63.6,29.26,WSW,248,4.0,4.0,92,0.00,,---,0.00,VWS V14.00,2013-08-18 08:50:00,
2013-08-18 04:51:00,66.0,63.6,29.26,WSW,248,3.4,4.0,92,0.00,,---,0.00,VWS V14.00,2013-08-18 08:51:00,
2013-08-18 04:52:00,66.2,63.5,29.26,WSW,248,3.4,3.4,91,0.00,,---,0.00,VWS V14.00,2013-08-18 08:52:00,
2013-08-18 04:53:00,66.2,63.5,29.26,WSW,248,3.1,3.4,91,0.00,,---,0.00,VWS V14.00,2013-08-18 08:53:00,
2013-08-18 04:54:00,66.2,63.5,29.26,WSW,248,3.4,3.4,91,0.00,,---,0.00,VWS V14.00,2013-08-18 08:54:00,
2013-08-18 04:55:00,66.2,63.5,29.26,WSW,248,3.4,3.4,91,0.00,,---,0.00,VWS V14.00,2013-08-18 08:55:00,
2013-08-18 04:56:00,66.2,63.5,29.26,WSW,248,2.0,3.4,91,0.00,,---,0.00,VWS V14.00,2013-08-18 08:56:00,
2013-08-18 04:57:00,66.2,63.5,29.26,WSW,248,2.0,2.0,91,0.00,,---,0.00,VWS V14.00,2013-08-18 08:57:00,
2013-08-18 04:58:00,66.2,63.5,29.26,WSW,248,2.0,2.0,91,0.00,,---,0.00,VWS V14.00,2013-08-18 08:58:00,
2013-08-18 04:59:00,66.2,63.5,29.26,WSW,248,2.5,2.5,91,0.00,,---,0.00,VWS V14.00,2013-08-18 08:59:00,
2013-08-18 05:00:00,66.2,63.5,29.26,WSW,248,2.5,2.5,91,0.00,,---,0.00,VWS V14.00,2013-08-18 09:00:00,
2013-08-18 05:01:00,66.2,63.5,29.26,WSW,248,2.5,2.5,91,0.00,,---,0.00,VWS V14.00,2013-08-18 09:01:00,
2013-08-18 05:02:00,66.2,63.5,29.26,WSW,248,2.5,2.5,91,0.00,,---,0.00,VWS V14.00,2013-08-18 09:02:00,
2013-08-18 05:03:00,66.2,63.5,29.26,WSW,248,2.5,2.5,91,0.00,,---,0.00,VWS V14.00,2013-08-18 09:03:00,
2013-08-18 05:04:00,66.2,63.5,29.26,WSW,248,2.5,2.5,91,0.00,,---,0.00,VWS V14.00,2013-08-18 09:04:00,
2013-08-18 05:05:00,66.2,63.5,29.26,WSW,248,2.5,2.5,91,0.00,,---,0.00,VWS V14.00,2013-08-18 09:05:00,
2013-08-18 05:06:00,66.0,63.6,29.26,WSW,248,2.5,2.5,92,0.00,,---,0.00,VWS V14.00,2013-08-18 09:06:00,
2013-08-18 05:07:00,66.0,63.6,29.26,WSW,248,2.5,3.1,92,0.00,,---,0.00,VWS V14.00,2013-08-18 09:07:00,
2013-08-18 05:08:00,66.2,63.5,29.26,WSW,248,1.6,2.5,91,0.00,,---,0.00,VWS V14.00,2013-08-18 09:08:00,
2013-08-18 05:09:00,66.2,63.5,29.26,WSW,248,3.1,3.6,91,0.00,,---,0.00,VWS V14.00,2013-08-18 09:09:00,
2013-08-18 05:10:00,66.2,63.5,29.26,WSW,248,3.1,3.1,91,0.00,,---,0.00,VWS V14.00,2013-08-18 09:10:00,
2013-08-18 05:11:00,66.0,63.6,29.26,WNW,292,2.7,3.1,92,0.00,,---,0.00,VWS V14.00,2013-08-18 09:11:00,
2013-08-18 05:12:00,66.0,63.6,29.26,West,270,1.3,2.7,92,0.00,,---,0.00,VWS V14.00,2013-08-18 09:12:00,
2013-08-18 05:13:00,66.0,63.6,29.26,West,270,1.3,1.3,92,0.00,,---,0.00,VWS V14.00,2013-08-18 09:13:00,
2013-08-18 05:14:00,66.2,63.5,29.26,WSW,248,1.6,1.6,91,0.00,,---,0.00,VWS V14.00,2013-08-18 09:14:00,
2013-08-18 05:15:00,66.2,63.5,29.26,WSW,248,5.6,5.6,91,0.00,,---,0.00,VWS V14.00,2013-08-18 09:15:00,
2013-08-18 05:16:00,66.2,63.5,29.26,WSW,248,3.6,5.6,91,0.00,,---,0.00,VWS V14.00,2013-08-18 09:16:00,
2013-08-18 05:17:00,66.2,63.5,29.26,WSW,248,4.7,4.7,91,0.00,,---,0.00,VWS V14.00,2013-08-18 09:17:00,
2013-08-18 05:18:00,66.2,63.5,29.26,WSW,248,2.7,4.7,91,0.00,,---,0.00,VWS V14.00,2013-08-18 09:18:00,
2013-08-18 05:19:00,66.2,63.5,29.26,WSW,248,3.8,3.8,91,0.00,,---,0.00,VWS V14.00,2013-08-18 09:19:00,
2013-08-18 05:20:00,66.2,63.5,29.26,WSW,248,4.0,4.0,91,0.00,,---,0.00,VWS V14.00,2013-08-18 09:20:00,
2013-08-18 05:21:00,66.2,63.5,29.26,WSW,248,3.4,4.0,91,0.00,,---,0.00,VWS V14.00,2013-08-18 09:21:00,
2013-08-18 05:22:00,66.2,63.5,29.26,SW,225,5.4,5.4,91,0.00,,---,0.00,VWS V14.00,2013-08-18 09:22:00,
2013-08-18 05:23:00,66.2,63.5,29.26,WSW,248,3.6,5.4,91,0.00,,---,0.00,VWS V14.00,2013-08-18 09:23:00,
2013-08-18 05:24:00,66.2,63.5,29.26,WSW,248,3.8,4.7,91,0.00,,---,0.00,VWS V14.00,2013-08-18 09:24:00,
2013-08-18 05:25:00,66.2,63.5,29.26,WSW,248,3.1,3.8,91,0.00,,---,0.00,VWS V14.00,2013-08-18 09:25:00,
2013-08-18 05:26:00,66.2,63.5,29.26,WSW,248,4.9,4.9,91,0.00,,---,0.00,VWS V14.00,2013-08-18 09:26:00,
2013-08-18 05:27:00,66.2,63.5,29.26,WSW,248,3.8,5.4,91,0.00,,---,0.00,VWS V14.00,2013-08-18 09:27:00,
2013-08-18 05:28:00,66.2,63.5,29.26,WSW,248,3.8,3.8,91,0.00,,---,0.00,VWS V14.00,2013-08-18 09:28:00,
2013-08-18 05:29:00,66.2,63.5,29.26,West,270,4.3,4.3,91,0.00,,---,0.00,VWS V14.00,2013-08-18 09:29:00,
2013-08-18 05:30:00,66.2,63.5,29.26,WSW,248,2.0,4.3,91,0.00,,---,0.00,VWS V14.00,2013-08-18 09:30:00,
2013-08-18 05:31:00,66.2,63.5,29.26,SW,225,3.4,3.4,91,0.00,,---,0.00,VWS V14.00,2013-08-18 09:31:00,
2013-08-18 05:32:00,66.2,63.5,29.26,West,270,2.9,3.4,91,0.00,,---,0.00,VWS V14.00,2013-08-18 09:32:00,
2013-08-18 05:33:00,66.2,63.5,29.26,West,270,3.6,3.6,91,0.00,,---,0.00,VWS V14.00,2013-08-18 09:33:00,
2013-08-18 05:34:00,66.2,63.5,29.26,WSW,248,4.9,4.9,91,0.00,,---,0.00,VWS V14.00,2013-08-18 09:34:00,
2013-08-18 05:35:00,66.2,63.5,29.26,West,270,4.0,4.9,91,0.00,,---,0.00,VWS V14.00,2013-08-18 09:35:00,
2013-08-18 05:36:00,66.2,63.5,29.26,WSW,248,4.3,4.3,91,0.00,,---,0.00,VWS V14.00,2013-08-18 09:36:00,
2013-08-18 05:37:00,66.2,63.5,29.26,WSW,248,5.8,5.8,91,0.00,,---,0.00,VWS V14.00,2013-08-18 09:37:00,
2013-08-18 05:38:00,66.2,63.5,29.26,WSW,248,2.5,5.8,91,0.00,,---,0.00,VWS V14.00,2013-08-18 09:38:00,
2013-08-18 05:39:00,66.2,63.5,29.26,WSW,248,2.9,3.6,91,0.00,,---,0.00,VWS V14.00,2013-08-18 09:39:00,
2013-08-18 05:40:00,66.2,63.5,29.26,WSW,248,3.8,4.0,91,0.00,,---,0.00,VWS V14.00,2013-08-18 09:40:00,
2013-08-18 05:41:00,66.2,63.5,29.26,West,270,4.7,6.0,91,0.00,,---,0.00,VWS V14.00,2013-08-18 09:41:00,
2013-08-18 05:42:00,66.2,63.5,29.26,West,270,1.6,4.7,91,0.00,,---,0.00,VWS V14.00,2013-08-18 09:42:00,
2013-08-18 05:43:00,66.2,63.5,29.26,WSW,248,3.1,3.1,91,0.00,,---,0.00,VWS V14.00,2013-08-18 09:43:00,
2013-08-18 05:44:00,66.2,63.5,29.29,WSW,248,2.7,3.1,91,0.00,,---,0.00,VWS V14.00,2013-08-18 09:44:00,
2013-08-18 05:45:00,66.2,63.5,29.29,WSW,248,1.1,2.7,91,0.00,,---,0.00,VWS V14.00,2013-08-18 09:45:00,
2013-08-18 05:46:00,66.2,63.5,29.29,WSW,248,4.0,4.0,91,0.00,,---,0.00,VWS V14.00,2013-08-18 09:46:00,
2013-08-18 05:47:00,66.2,63.5,29.29,WSW,248,3.1,4.0,91,0.00,,---,0.00,VWS V14.00,2013-08-18 09:47:00,
2013-08-18 05:48:00,66.2,63.5,29.29,WSW,248,2.9,3.1,91,0.00,,---,0.00,VWS V14.00,2013-08-18 09:48:00,
2013-08-18 05:49:00,66.2,63.5,29.29,WSW,248,2.9,2.9,91,0.00,,---,0.00,VWS V14.00,2013-08-18 09:49:00,
2013-08-18 05:50:00,66.2,63.5,29.29,WSW,248,3.6,3.6,91,0.00,,---,0.00,VWS V14.00,2013-08-18 09:50:00,
2013-08-18 05:51:00,66.2,63.5,29.29,WSW,248,4.3,4.3,91,0.00,,---,0.00,VWS V14.00,2013-08-18 09:51:00,
2013-08-18 05:52:00,66.2,63.5,29.29,WNW,292,1.1,4.3,91,0.00,,---,0.00,VWS V14.00,2013-08-18 09:52:00,
2013-08-18 05:53:00,66.2,63.5,29.29,WSW,248,3.1,3.1,91,0.00,,---,0.00,VWS V14.00,2013-08-18 09:53:00,
2013-08-18 05:54:00,66.2,63.5,29.29,SW,225,2.5,3.1,91,0.00,,---,0.00,VWS V14.00,2013-08-18 09:54:00,
2013-08-18 05:55:00,66.2,63.5,29.29,WSW,248,3.1,3.1,91,0.00,,---,0.00,VWS V14.00,2013-08-18 09:55:00,
2013-08-18 05:56:00,66.2,63.5,29.29,WNW,292,3.1,5.4,91,0.00,,---,0.00,VWS V14.00,2013-08-18 09:56:00,
2013-08-18 05:57:00,66.2,63.5,29.29,WNW,292,2.7,3.1,91,0.00,,---,0.00,VWS V14.00,2013-08-18 09:57:00,
2013-08-18 05:58:00,66.2,63.5,29.29,WNW,292,3.4,3.4,91,0.00,,---,0.00,VWS V14.00,2013-08-18 09:58:00,
2013-08-18 05:59:00,66.2,63.5,29.29,WSW,248,2.0,3.4,91,0.00,,---,0.00,VWS V14.00,2013-08-18 09:59:00,
2013-08-18 06:00:00,66.2,63.5,29.29,WNW,292,0.9,2.0,91,0.00,,---,0.00,VWS V14.00,2013-08-18 10:00:00,
2013-08-18 06:01:00,66.2,63.5,29.29,WSW,248,2.5,6.0,91,0.00,,---,0.00,VWS V14.00,2013-08-18 10:01:00,
2013-08-18 06:02:00,66.2,63.5,29.29,West,270,2.2,2.5,91,0.00,,---,0.00,VWS V14.00,2013-08-18 10:02:00,
2013-08-18 06:03:00,66.2,63.5,29.29,West,270,2.2,2.2,91,0.00,,---,0.00,VWS V14.00,2013-08-18 10:03:00,
2013-08-18 06:04:00,66.2,63.5,29.29,SW,225,2.5,2.5,91,0.00,,---,0.00,VWS V14.00,2013-08-18 10:04:00,
2013-08-18 06:05:00,66.2,63.5,29.29,WSW,248,0.0,2.5,91,0.00,,---,0.00,VWS V14.00,2013-08-18 10:05:00,
2013-08-18 06:06:00,66.2,63.5,29.29,WSW,248,2.0,2.7,91,0.00,,---,0.00,VWS V14.00,2013-08-18 10:06:00,
2013-08-18 06:07:00,66.2,63.5,29.29,WSW,248,0.0,2.0,91,0.00,,---,0.00,VWS V14.00,2013-08-18 10:07:00,
2013-08-18 06:08:00,66.2,63.5,29.29,WSW,248,2.7,2.7,91,0.00,,---,0.00,VWS V14.00,2013-08-18 10:08:00,
2013-08-18 06:09:00,66.2,63.5,29.29,WNW,292,3.6,3.6,91,0.00,,---,0.00,VWS V14.00,2013-08-18 10:09:00,
2013-08-18 06:10:00,66.2,63.5,29.29,WSW,248,1.3,3.6,91,0.00,,---,0.00,VWS V14.00,2013-08-18 10:10:00,
2013-08-18 06:11:00,66.2,63.5,29.29,WSW,248,4.0,4.0,91,0.00,,---,0.00,VWS V14.00,2013-08-18 10:11:00,
2013-08-18 06:12:00,66.2,63.5,29.29,WSW,248,4.0,4.3,91,0.00,,---,0.00,VWS V14.00,2013-08-18 10:12:00,
2013-08-18 06:13:00,66.2,63.5,29.29,WSW,248,2.7,4.0,91,0.00,,---,0.00,VWS V14.00,2013-08-18 10:13:00,
2013-08-18 06:14:00,66.2,63.5,29.32,WSW,248,3.6,4.3,91,0.00,,---,0.00,VWS V14.00,2013-08-18 10:14:00,
2013-08-18 06:15:00,66.2,63.5,29.32,WSW,248,4.3,4.7,91,0.00,,---,0.00,VWS V14.00,2013-08-18 10:15:00,
2013-08-18 06:16:00,66.2,63.5,29.32,WSW,248,6.0,6.0,91,0.00,,---,0.00,VWS V14.00,2013-08-18 10:16:00,
2013-08-18 06:17:00,66.2,63.5,29.32,WSW,248,3.4,6.0,91,0.00,,---,0.00,VWS V14.00,2013-08-18 10:17:00,
2013-08-18 06:18:00,66.2,63.5,29.32,WSW,248,6.3,6.3,91,0.00,,---,0.00,VWS V14.00,2013-08-18 10:18:00,
2013-08-18 06:19:00,66.2,63.5,29.32,SW,225,3.4,6.3,91,0.00,,---,0.00,VWS V14.00,2013-08-18 10:19:00,
2013-08-18 06:20:00,66.2,63.5,29.32,WSW,248,5.4,5.4,91,0.00,,---,0.00,VWS V14.00,2013-08-18 10:20:00,
2013-08-18 06:21:00,66.2,63.5,29.32,WSW,248,3.8,5.4,91,0.00,,---,0.00,VWS V14.00,2013-08-18 10:21:00,
2013-08-18 06:22:00,66.2,63.5,29.32,South,180,3.4,6.5,91,0.00,,---,0.00,VWS V14.00,2013-08-18 10:22:00,
2013-08-18 06:23:00,66.2,63.5,29.32,WSW,248,4.0,4.0,91,0.00,,---,0.00,VWS V14.00,2013-08-18 10:23:00,
2013-08-18 06:24:00,66.2,63.5,29.32,WSW,248,3.4,4.0,91,0.00,,---,0.00,VWS V14.00,2013-08-18 10:24:00,
2013-08-18 06:25:00,66.2,63.5,29.32,WNW,292,3.6,4.9,91,0.00,,---,0.00,VWS V14.00,2013-08-18 10:25:00,
2013-08-18 06:26:00,66.2,63.5,29.32,WNW,292,0.0,3.6,91,0.00,,---,0.00,VWS V14.00,2013-08-18 10:26:00,
2013-08-18 06:27:00,66.2,63.5,29.32,WNW,292,2.7,2.7,91,0.00,,---,0.00,VWS V14.00,2013-08-18 10:27:00,
2013-08-18 06:28:00,66.2,63.5,29.32,WNW,292,3.1,3.4,91,0.00,,---,0.00,VWS V14.00,2013-08-18 10:28:00,
2013-08-18 06:29:00,66.2,63.5,29.32,West,270,3.4,3.4,91,0.00,,---,0.00,VWS V14.00,2013-08-18 10:29:00,
2013-08-18 06:30:00,66.2,63.5,29.32,West,270,1.6,3.4,91,0.00,,---,0.00,VWS V14.00,2013-08-18 10:30:00,
2013-08-18 06:31:00,66.2,63.5,29.32,SSW,202,2.0,2.5,91,0.00,,---,0.00,VWS V14.00,2013-08-18 10:31:00,
2013-08-18 06:32:00,66.2,63.5,29.32,West,270,2.5,2.5,91,0.00,,---,0.00,VWS V14.00,2013-08-18 10:32:00,
2013-08-18 06:33:00,66.2,63.5,29.32,WSW,248,0.0,2.7,91,0.00,,---,0.00,VWS V14.00,2013-08-18 10:33:00,
2013-08-18 06:34:00,66.2,63.5,29.32,WSW,248,4.3,4.3,91,0.00,,---,0.00,VWS V14.00,2013-08-18 10:34:00,
2013-08-18 06:35:00,66.0,63.6,29.32,WSW,248,4.3,5.6,92,0.00,,---,0.00,VWS V14.00,2013-08-18 10:35:00,
2013-08-18 06:36:00,66.0,63.6,29.32,West,270,4.9,4.9,92,0.00,,---,0.00,VWS V14.00,2013-08-18 10:36:00,
2013-08-18 06:37:00,66.0,63.6,29.32,West,270,4.9,4.9,92,0.00,,---,0.00,VWS V14.00,2013-08-18 10:37:00,
2013-08-18 06:38:00,66.0,63.6,29.32,WSW,248,0.0,4.9,92,0.00,,---,0.00,VWS V14.00,2013-08-18 10:38:00,
2013-08-18 06:39:00,66.0,63.6,29.32,WNW,292,2.9,4.0,92,0.00,,---,0.00,VWS V14.00,2013-08-18 10:39:00,
2013-08-18 06:40:00,66.0,63.6,29.32,West,270,4.0,4.0,92,0.00,,---,0.00,VWS V14.00,2013-08-18 10:40:00,
2013-08-18 06:41:00,66.0,63.6,29.32,WSW,248,2.5,5.4,92,0.00,,---,0.00,VWS V14.00,2013-08-18 10:41:00,
2013-08-18 06:42:00,66.0,63.6,29.32,WSW,248,2.7,2.7,92,0.00,,---,0.00,VWS V14.00,2013-08-18 10:42:00,
2013-08-18 06:43:00,66.0,63.6,29.32,West,270,4.0,4.0,92,0.00,,---,0.00,VWS V14.00,2013-08-18 10:43:00,
2013-08-18 06:44:00,66.0,63.6,29.32,WSW,248,5.4,5.8,92,0.00,,---,0.00,VWS V14.00,2013-08-18 10:44:00,
2013-08-18 06:45:00,66.0,63.6,29.32,West,270,4.9,5.4,92,0.00,,---,0.00,VWS V14.00,2013-08-18 10:45:00,
2013-08-18 06:46:00,66.0,63.6,29.32,West,270,5.6,5.6,92,0.00,,---,0.00,VWS V14.00,2013-08-18 10:46:00,
2013-08-18 06:47:00,66.0,63.6,29.32,WNW,292,2.9,6.3,92,0.00,,---,0.00,VWS V14.00,2013-08-18 10:47:00,
2013-08-18 06:48:00,66.0,63.6,29.32,WNW,292,2.9,4.0,92,0.00,,---,0.00,VWS V14.00,2013-08-18 10:48:00,
2013-08-18 06:49:00,66.0,63.6,29.32,SW,225,3.4,3.4,92,0.00,,---,0.00,VWS V14.00,2013-08-18 10:49:00,
2013-08-18 06:50:00,66.0,63.6,29.32,WSW,248,2.9,3.4,92,0.00,,---,0.00,VWS V14.00,2013-08-18 10:50:00,
2013-08-18 06:51:00,66.0,63.6,29.32,West,270,3.6,4.3,92,0.00,,---,0.00,VWS V14.00,2013-08-18 10:51:00,
2013-08-18 06:52:00,66.0,63.6,29.32,West,270,2.0,3.6,92,0.00,,---,0.00,VWS V14.00,2013-08-18 10:52:00,
2013-08-18 06:53:00,66.0,63.6,29.32,WSW,248,2.2,3.1,92,0.00,,---,0.00,VWS V14.00,2013-08-18 10:53:00,
2013-08-18 06:54:00,66.2,63.5,29.32,WSW,248,1.1,2.2,91,0.00,,---,0.00,VWS V14.00,2013-08-18 10:54:00,
2013-08-18 06:55:00,66.2,63.5,29.32,WSW,248,3.1,3.1,91,0.00,,---,0.00,VWS V14.00,2013-08-18 10:55:00,
2013-08-18 06:56:00,66.2,63.5,29.32,WNW,292,4.9,5.6,91,0.00,,---,0.00,VWS V14.00,2013-08-18 10:56:00,
2013-08-18 06:57:00,66.2,63.5,29.32,WSW,248,2.7,4.9,91,0.00,,---,0.00,VWS V14.00,2013-08-18 10:57:00,
2013-08-18 06:58:00,66.2,63.5,29.32,SSW,202,4.0,4.0,91,0.00,,---,0.00,VWS V14.00,2013-08-18 10:58:00,
2013-08-18 06:59:00,66.2,63.5,29.32,NW,315,1.6,4.3,91,0.00,,---,0.00,VWS V14.00,2013-08-18 10:59:00,
2013-08-18 07:00:00,66.2,63.5,29.32,WNW,292,3.1,3.1,91,0.00,,---,0.00,VWS V14.00,2013-08-18 11:00:00,
2013-08-18 07:01:00,66.2,63.5,29.32,WSW,248,3.6,5.6,91,0.00,,---,0.00,VWS V14.00,2013-08-18 11:01:00,
2013-08-18 07:02:00,66.2,63.5,29.32,WSW,248,2.0,4.3,91,0.00,,---,0.00,VWS V14.00,2013-08-18 11:02:00,
2013-08-18 07:03:00,66.2,63.5,29.32,WNW,292,2.5,2.5,91,0.00,,---,0.00,VWS V14.00,2013-08-18 11:03:00,
2013-08-18 07:04:00,66.2,63.5,29.32,WNW,292,1.3,3.6,91,0.00,,---,0.00,VWS V14.00,2013-08-18 11:04:00,
2013-08-18 07:05:00,66.2,63.5,29.32,WNW,292,2.5,2.5,91,0.00,,---,0.00,VWS V14.00,2013-08-18 11:05:00,
2013-08-18 07:06:00,66.2,63.5,29.32,WNW,292,2.0,2.5,91,0.00,,---,0.00,VWS V14.00,2013-08-18 11:06:00,
2013-08-18 07:07:00,66.4,63.7,29.32,WNW,292,3.1,3.1,91,0.00,,---,0.00,VWS V14.00,2013-08-18 11:07:00,
2013-08-18 07:08:00,66.4,63.7,29.32,WNW,292,3.4,5.8,91,0.00,,---,0.00,VWS V14.00,2013-08-18 11:08:00,
2013-08-18 07:09:00,66.4,63.7,29.32,NW,315,3.1,3.8,91,0.00,,---,0.00,VWS V14.00,2013-08-18 11:09:00,
2013-08-18 07:10:00,66.4,63.7,29.32,WSW,248,3.6,3.6,91,0.00,,---,0.00,VWS V14.00,2013-08-18 11:10:00,
2013-08-18 07:11:00,66.4,63.7,29.32,West,270,4.0,4.0,91,0.00,,---,0.00,VWS V14.00,2013-08-18 11:11:00,
2013-08-18 07:12:00,66.4,63.7,29.32,NW,315,2.9,4.0,91,0.00,,---,0.00,VWS V14.00,2013-08-18 11:12:00,
2013-08-18 07:13:00,66.4,63.7,29.32,NNW,338,2.5,2.9,91,0.00,,---,0.00,VWS V14.00,2013-08-18 11:13:00,
2013-08-18 07:14:00,66.4,63.7,29.32,West,270,4.7,4.7,91,0.00,,---,0.00,VWS V14.00,2013-08-18 11:14:00,
2013-08-18 07:15:00,66.4,63.7,29.32,WSW,248,2.5,4.7,91,0.00,,---,0.00,VWS V14.00,2013-08-18 11:15:00,
2013-08-18 07:16:00,66.4,63.7,29.32,West,270,4.3,4.3,91,0.00,,---,0.00,VWS V14.00,2013-08-18 11:16:00,
2013-08-18 07:17:00,66.4,63.7,29.32,NW,315,2.7,4.3,91,0.00,,---,0.00,VWS V14.00,2013-08-18 11:17:00,
2013-08-18 07:18:00,66.4,63.7,29.32,WNW,292,4.3,4.3,91,0.00,,---,0.00,VWS V14.00,2013-08-18 11:18:00,
2013-08-18 07:19:00,66.4,63.7,29.32,WSW,248,4.9,4.9,91,0.00,,---,0.00,VWS V14.00,2013-08-18 11:19:00,
2013-08-18 07:20:00,66.4,63.7,29.32,WSW,248,4.0,4.9,91,0.00,,---,0.00,VWS V14.00,2013-08-18 11:20:00,
2013-08-18 07:21:00,66.4,63.7,29.32,WSW,248,2.7,5.4,91,0.00,,---,0.00,VWS V14.00,2013-08-18 11:21:00,
2013-08-18 07:22:00,66.4,63.7,29.32,SSW,202,2.0,3.6,91,0.00,,---,0.00,VWS V14.00,2013-08-18 11:22:00,
2013-08-18 07:23:00,66.4,63.7,29.32,WSW,248,4.7,4.7,91,0.00,,---,0.00,VWS V14.00,2013-08-18 11:23:00,
2013-08-18 07:24:00,66.4,63.7,29.32,WNW,292,3.6,4.7,91,0.00,,---,0.00,VWS V14.00,2013-08-18 11:24:00,
2013-08-18 07:25:00,66.4,63.7,29.32,WSW,248,1.6,3.6,91,0.00,,---,0.00,VWS V14.00,2013-08-18 11:25:00,
2013-08-18 07:26:00,66.4,63.7,29.32,WSW,248,3.6,3.6,91,0.00,,---,0.00,VWS V14.00,2013-08-18 11:26:00,
2013-08-18 07:27:00,66.4,63.7,29.32,SW,225,2.5,4.0,91,0.00,,---,0.00,VWS V14.00,2013-08-18 11:27:00,
2013-08-18 07:28:00,66.6,63.9,29.32,WSW,248,4.0,4.0,91,0.00,,---,0.00,VWS V14.00,2013-08-18 11:28:00,
2013-08-18 07:29:00,66.6,63.9,29.32,WSW,248,1.6,4.7,91,0.00,,---,0.00,VWS V14.00,2013-08-18 11:29:00,
2013-08-18 07:30:00,66.6,63.9,29.32,WSW,248,0.9,2.7,91,0.00,,---,0.00,VWS V14.00,2013-08-18 11:30:00,
2013-08-18 07:31:00,66.6,63.9,29.32,WNW,292,2.5,4.0,91,0.00,,---,0.00,VWS V14.00,2013-08-18 11:31:00,
2013-08-18 07:32:00,66.6,63.9,29.32,WNW,292,3.6,3.6,91,0.00,,---,0.00,VWS V14.00,2013-08-18 11:32:00,
2013-08-18 07:33:00,66.7,64.0,29.32,NNW,338,3.4,3.6,91,0.00,,---,0.00,VWS V14.00,2013-08-18 11:33:00,
2013-08-18 07:34:00,66.7,64.0,29.32,WSW,248,3.4,3.8,91,0.00,,---,0.00,VWS V14.00,2013-08-18 11:34:00,
2013-08-18 07:35:00,66.7,64.0,29.32,WSW,248,2.9,6.0,91,0.00,,---,0.00,VWS V14.00,2013-08-18 11:35:00,
2013-08-18 07:36:00,66.7,64.0,29.32,NNW,338,2.2,2.9,91,0.00,,---,0.00,VWS V14.00,2013-08-18 11:36:00,
2013-08-18 07:37:00,66.7,64.0,29.32,NW,315,3.8,3.8,91,0.00,,---,0.00,VWS V14.00,2013-08-18 11:37:00,
2013-08-18 07:38:00,66.7,64.0,29.32,West,270,2.9,3.8,91,0.00,,---,0.00,VWS V14.00,2013-08-18 11:38:00,
2013-08-18 07:39:00,66.9,64.2,29.32,WNW,292,3.8,3.8,91,0.00,,---,0.00,VWS V14.00,2013-08-18 11:39:00,
2013-08-18 07:40:00,66.9,64.2,29.32,NW,315,2.2,3.8,91,0.00,,---,0.00,VWS V14.00,2013-08-18 11:40:00,
2013-08-18 07:41:00,66.9,64.2,29.32,NW,315,2.5,2.5,91,0.00,,---,0.00,VWS V14.00,2013-08-18 11:41:00,
2013-08-18 07:42:00,66.9,64.2,29.32,WNW,292,2.5,2.5,91,0.00,,---,0.00,VWS V14.00,2013-08-18 11:42:00,
2013-08-18 07:43:00,67.1,64.4,29.32,WSW,248,2.9,2.9,91,0.00,,---,0.00,VWS V14.00,2013-08-18 11:43:00,
2013-08-18 07:44:00,66.9,64.2,29.32,West,270,4.9,6.3,91,0.00,,---,0.00,VWS V14.00,2013-08-18 11:44:00,
2013-08-18 07:45:00,66.9,64.2,29.32,WNW,292,3.4,4.9,91,0.00,,---,0.00,VWS V14.00,2013-08-18 11:45:00,
2013-08-18 07:46:00,66.9,64.2,29.32,NNW,338,3.6,3.6,91,0.00,,---,0.00,VWS V14.00,2013-08-18 11:46:00,
2013-08-18 07:47:00,67.1,64.4,29.32,WNW,292,2.5,3.6,91,0.00,,---,0.00,VWS V14.00,2013-08-18 11:47:00,
2013-08-18 07:48:00,67.1,64.4,29.32,WSW,248,2.7,2.9,91,0.00,,---,0.00,VWS V14.00,2013-08-18 11:48:00,
2013-08-18 07:49:00,67.1,64.4,29.32,WSW,248,3.1,3.1,91,0.00,,---,0.00,VWS V14.00,2013-08-18 11:49:00,
2013-08-18 07:50:00,67.1,64.4,29.32,WNW,292,1.6,3.1,91,0.00,,---,0.00,VWS V14.00,2013-08-18 11:50:00,
2013-08-18 07:51:00,67.1,64.4,29.32,SW,225,1.3,2.0,91,0.00,,---,0.00,VWS V14.00,2013-08-18 11:51:00,
2013-08-18 07:52:00,67.3,64.6,29.32,WSW,248,2.5,3.4,91,0.00,,---,0.00,VWS V14.00,2013-08-18 11:52:00,
2013-08-18 07:53:00,67.3,64.6,29.32,WNW,292,3.4,3.4,91,0.00,,---,0.00,VWS V14.00,2013-08-18 11:53:00,
2013-08-18 07:54:00,67.3,64.6,29.32,SW,225,0.9,4.3,91,0.00,,---,0.00,VWS V14.00,2013-08-18 11:54:00,
2013-08-18 07:55:00,67.5,64.8,29.32,WNW,292,2.5,4.0,91,0.00,,---,0.00,VWS V14.00,2013-08-18 11:55:00,
2013-08-18 07:56:00,67.5,64.8,29.32,WNW,292,0.0,2.5,91,0.00,,---,0.00,VWS V14.00,2013-08-18 11:56:00,
2013-08-18 07:57:00,67.5,65.1,29.32,WSW,248,3.1,4.7,92,0.00,,---,0.00,VWS V14.00,2013-08-18 11:57:00,
2013-08-18 07:58:00,67.5,65.1,29.32,West,270,1.1,3.1,92,0.00,,---,0.00,VWS V14.00,2013-08-18 11:58:00,
2013-08-18 07:59:00,67.5,65.1,29.32,WNW,292,0.0,1.1,92,0.00,,---,0.00,VWS V14.00,2013-08-18 11:59:00,
2013-08-18 08:00:00,67.6,65.2,29.32,WNW,292,3.1,3.4,92,0.00,,---,0.00,VWS V14.00,2013-08-18 12:00:00,
2013-08-18 08:01:00,67.6,65.2,29.32,WSW,248,2.2,3.1,92,0.00,,---,0.00,VWS V14.00,2013-08-18 12:01:00,
2013-08-18 08:02:00,67.6,65.2,29.32,NNW,338,2.9,2.9,92,0.00,,---,0.00,VWS V14.00,2013-08-18 12:02:00,
2013-08-18 08:03:00,67.6,65.2,29.32,West,270,0.9,2.9,92,0.00,,---,0.00,VWS V14.00,2013-08-18 12:03:00,
2013-08-18 08:04:00,67.6,65.2,29.32,West,270,3.8,3.8,92,0.00,,---,0.00,VWS V14.00,2013-08-18 12:04:00,
2013-08-18 08:05:00,67.6,65.2,29.32,North,0,2.7,3.8,92,0.00,,---,0.00,VWS V14.00,2013-08-18 12:05:00,
2013-08-18 08:06:00,67.6,65.2,29.32,NNW,338,2.7,2.9,92,0.00,,---,0.00,VWS V14.00,2013-08-18 12:06:00,
2013-08-18 08:07:00,67.8,65.4,29.32,WNW,292,3.8,4.0,92,0.00,,---,0.00,VWS V14.00,2013-08-18 12:07:00,
2013-08-18 08:08:00,67.6,65.2,29.32,NNW,338,2.7,4.0,92,0.00,,---,0.00,VWS V14.00,2013-08-18 12:08:00,
2013-08-18 08:09:00,67.8,65.4,29.32,NW,315,0.9,2.7,92,0.00,,---,0.00,VWS V14.00,2013-08-18 12:09:00,
2013-08-18 08:10:00,67.8,65.4,29.32,WNW,292,2.5,2.7,92,0.00,,---,0.00,VWS V14.00,2013-08-18 12:10:00,
2013-08-18 08:11:00,68.0,65.3,29.32,WNW,292,2.5,3.6,91,0.00,,---,0.00,VWS V14.00,2013-08-18 12:11:00,
2013-08-18 08:12:00,68.0,65.3,29.32,WNW,292,4.0,4.0,91,0.00,,---,0.00,VWS V14.00,2013-08-18 12:12:00,
2013-08-18 08:13:00,68.0,65.3,29.32,NW,315,1.3,4.0,91,0.00,,---,0.00,VWS V14.00,2013-08-18 12:13:00,
2013-08-18 08:14:00,68.0,65.3,29.29,WNW,292,2.0,2.7,91,0.00,,---,0.00,VWS V14.00,2013-08-18 12:14:00,
2013-08-18 08:15:00,68.2,65.5,29.29,West,270,3.1,3.6,91,0.00,,---,0.00,VWS V14.00,2013-08-18 12:15:00,
2013-08-18 08:16:00,68.2,65.5,29.29,NNW,338,2.5,3.1,91,0.00,,---,0.00,VWS V14.00,2013-08-18 12:16:00,
2013-08-18 08:17:00,68.0,65.3,29.29,NNW,338,4.9,4.9,91,0.00,,---,0.00,VWS V14.00,2013-08-18 12:17:00,
2013-08-18 08:18:00,68.2,65.5,29.29,WNW,292,3.4,4.9,91,0.00,,---,0.00,VWS V14.00,2013-08-18 12:18:00,
2013-08-18 08:19:00,68.2,65.5,29.29,WSW,248,1.3,3.4,91,0.00,,---,0.00,VWS V14.00,2013-08-18 12:19:00,
2013-08-18 08:20:00,68.0,65.3,29.29,WSW,248,3.4,6.3,91,0.00,,---,0.00,VWS V14.00,2013-08-18 12:20:00,
2013-08-18 08:21:00,68.0,65.3,29.29,NW,315,2.2,3.8,91,0.00,,---,0.00,VWS V14.00,2013-08-18 12:21:00,
2013-08-18 08:22:00,68.2,65.5,29.29,WNW,292,3.6,3.6,91,0.00,,---,0.00,VWS V14.00,2013-08-18 12:22:00,
2013-08-18 08:23:00,68.2,65.5,29.29,WNW,292,2.7,3.6,91,0.00,,---,0.00,VWS V14.00,2013-08-18 12:23:00,
2013-08-18 08:24:00,68.2,65.5,29.29,NW,315,2.2,2.7,91,0.00,,---,0.00,VWS V14.00,2013-08-18 12:24:00,
2013-08-18 08:25:00,68.2,65.5,29.29,NNW,338,5.6,5.8,91,0.00,,---,0.00,VWS V14.00,2013-08-18 12:25:00,
2013-08-18 08:26:00,68.0,65.3,29.29,NNW,338,3.1,5.6,91,0.00,,---,0.00,VWS V14.00,2013-08-18 12:26:00,
2013-08-18 08:27:00,68.0,65.0,29.29,NW,315,3.1,3.6,90,0.00,,---,0.00,VWS V14.00,2013-08-18 12:27:00,
2013-08-18 08:28:00,68.0,65.0,29.29,NNW,338,4.3,4.3,90,0.00,,---,0.00,VWS V14.00,2013-08-18 12:28:00,
2013-08-18 08:29:00,68.0,65.0,29.29,WNW,292,3.6,6.5,90,0.00,,---,0.00,VWS V14.00,2013-08-18 12:29:00,
2013-08-18 08:30:00,68.0,65.0,29.29,North,0,3.6,3.6,90,0.00,,---,0.00,VWS V14.00,2013-08-18 12:30:00,
2013-08-18 08:31:00,68.0,64.6,29.29,NNW,338,2.9,3.6,89,0.00,,---,0.00,VWS V14.00,2013-08-18 12:31:00,
2013-08-18 08:32:00,68.0,64.3,29.29,WNW,292,5.6,6.0,88,0.00,,---,0.00,VWS V14.00,2013-08-18 12:32:00,
2013-08-18 08:33:00,68.2,64.5,29.29,WNW,292,2.7,5.6,88,0.00,,---,0.00,VWS V14.00,2013-08-18 12:33:00,
2013-08-18 08:34:00,68.2,64.2,29.29,WNW,292,2.5,4.3,87,0.00,,---,0.00,VWS V14.00,2013-08-18 12:34:00,
2013-08-18 08:35:00,68.2,64.2,29.29,NNW,338,5.6,5.6,87,0.00,,---,0.00,VWS V14.00,2013-08-18 12:35:00,
2013-08-18 08:36:00,68.2,64.2,29.29,WNW,292,3.4,5.6,87,0.00,,---,0.00,VWS V14.00,2013-08-18 12:36:00,
2013-08-18 08:37:00,68.0,63.7,29.29,WNW,292,4.3,4.3,86,0.00,,---,0.00,VWS V14.00,2013-08-18 12:37:00,
2013-08-18 08:38:00,68.0,63.7,29.29,WSW,248,2.5,4.9,86,0.00,,---,0.00,VWS V14.00,2013-08-18 12:38:00,
2013-08-18 08:39:00,68.2,63.8,29.29,NW,315,2.0,2.5,86,0.00,,---,0.00,VWS V14.00,2013-08-18 12:39:00,
2013-08-18 08:40:00,68.4,64.0,29.29,NW,315,3.6,3.6,86,0.00,,---,0.00,VWS V14.00,2013-08-18 12:40:00,
2013-08-18 08:41:00,68.5,64.2,29.29,WSW,248,1.1,3.6,86,0.00,,---,0.00,VWS V14.00,2013-08-18 12:41:00,
2013-08-18 08:42:00,68.5,64.2,29.29,NW,315,1.3,3.8,86,0.00,,---,0.00,VWS V14.00,2013-08-18 12:42:00,
2013-08-18 08:43:00,68.5,64.2,29.29,West,270,3.1,3.4,86,0.00,,---,0.00,VWS V14.00,2013-08-18 12:43:00,
2013-08-18 08:44:00,68.5,64.2,29.32,WSW,248,0.9,3.8,86,0.00,,---,0.00,VWS V14.00,2013-08-18 12:44:00,
2013-08-18 08:45:00,68.7,64.4,29.32,WNW,292,2.5,2.5,86,0.00,,---,0.00,VWS V14.00,2013-08-18 12:45:00,
2013-08-18 08:46:00,68.9,64.9,29.32,WNW,292,2.0,2.5,87,0.00,,---,0.00,VWS V14.00,2013-08-18 12:46:00,
2013-08-18 08:47:00,68.9,64.9,29.32,WNW,292,3.1,4.0,87,0.00,,---,0.00,VWS V14.00,2013-08-18 12:47:00,
2013-08-18 08:48:00,69.1,65.1,29.32,WNW,292,2.0,3.4,87,0.00,,---,0.00,VWS V14.00,2013-08-18 12:48:00,
2013-08-18 08:49:00,69.3,65.2,29.32,NW,315,2.5,2.7,87,0.00,,---,0.00,VWS V14.00,2013-08-18 12:49:00,
2013-08-18 08:50:00,69.3,65.2,29.32,WNW,292,0.9,2.5,87,0.00,,---,0.00,VWS V14.00,2013-08-18 12:50:00,
2013-08-18 08:51:00,69.4,65.4,29.32,NW,315,1.3,2.9,87,0.00,,---,0.00,VWS V14.00,2013-08-18 12:51:00,
2013-08-18 08:52:00,69.6,65.6,29.32,NNE,22,1.3,1.6,87,0.00,,---,0.00,VWS V14.00,2013-08-18 12:52:00,
2013-08-18 08:53:00,69.8,65.8,29.32,South,180,0.0,2.0,87,0.00,,---,0.00,VWS V14.00,2013-08-18 12:53:00,
2013-08-18 08:54:00,70.0,65.9,29.32,WSW,248,1.6,1.6,87,0.00,,---,0.00,VWS V14.00,2013-08-18 12:54:00,
2013-08-18 08:55:00,69.8,65.1,29.32,WSW,248,4.7,5.6,85,0.00,,---,0.00,VWS V14.00,2013-08-18 12:55:00,
2013-08-18 08:56:00,69.8,64.8,29.32,WSW,248,4.0,5.8,84,0.00,,---,0.00,VWS V14.00,2013-08-18 12:56:00,
2013-08-18 08:57:00,69.8,64.1,29.32,WSW,248,3.4,4.3,82,0.00,,---,0.00,VWS V14.00,2013-08-18 12:57:00,
2013-08-18 08:58:00,70.0,63.9,29.32,WSW,248,2.5,3.8,81,0.00,,---,0.00,VWS V14.00,2013-08-18 12:58:00,
2013-08-18 08:59:00,70.3,64.2,29.32,SW,225,2.2,2.7,81,0.00,,---,0.00,VWS V14.00,2013-08-18 12:59:00,
2013-08-18 09:00:00,70.3,64.2,29.32,WNW,292,1.6,2.9,81,0.00,,---,0.00,VWS V14.00,2013-08-18 13:00:00,
2013-08-18 09:01:00,70.5,64.4,29.32,WSW,248,3.8,3.8,81,0.00,,---,0.00,VWS V14.00,2013-08-18 13:01:00,
2013-08-18 09:02:00,70.5,64.1,29.32,WSW,248,3.8,3.8,80,0.00,,---,0.00,VWS V14.00,2013-08-18 13:02:00,
2013-08-18 09:03:00,70.7,64.2,29.32,West,270,3.1,3.8,80,0.00,,---,0.00,VWS V14.00,2013-08-18 13:03:00,
2013-08-18 09:04:00,70.7,64.2,29.32,WSW,248,3.1,3.1,80,0.00,,---,0.00,VWS V14.00,2013-08-18 13:04:00,
2013-08-18 09:05:00,70.7,64.2,29.32,WSW,248,3.1,3.4,80,0.00,,---,0.00,VWS V14.00,2013-08-18 13:05:00,
2013-08-18 09:06:00,71.1,64.2,29.32,WSW,248,3.8,4.9,79,0.00,,---,0.00,VWS V14.00,2013-08-18 13:06:00,
2013-08-18 09:07:00,70.7,62.4,29.32,WNW,292,7.2,8.1,75,0.00,,---,0.00,VWS V14.00,2013-08-18 13:07:00,
2013-08-18 09:08:00,70.9,62.6,29.32,NW,315,2.7,7.2,75,0.00,,---,0.00,VWS V14.00,2013-08-18 13:08:00,
2013-08-18 09:09:00,70.9,61.8,29.32,WNW,292,3.1,5.6,73,0.00,,---,0.00,VWS V14.00,2013-08-18 13:09:00,
2013-08-18 09:10:00,71.1,62.0,29.32,WNW,292,2.5,3.1,73,0.00,,---,0.00,VWS V14.00,2013-08-18 13:10:00,
2013-08-18 09:11:00,70.9,61.0,29.32,WNW,292,5.4,5.4,71,0.00,,---,0.00,VWS V14.00,2013-08-18 13:11:00,
2013-08-18 09:12:00,70.9,61.4,29.32,NW,315,1.6,5.4,72,0.00,,---,0.00,VWS V14.00,2013-08-18 13:12:00,
2013-08-18 09:13:00,70.9,61.8,29.32,WSW,248,3.8,3.8,73,0.00,,---,0.00,VWS V14.00,2013-08-18 13:13:00,
2013-08-18 09:14:00,70.9,61.8,29.32,WNW,292,2.0,4.3,73,0.00,,---,0.00,VWS V14.00,2013-08-18 13:14:00,
2013-08-18 09:15:00,71.1,62.7,29.32,WNW,292,3.1,3.1,75,0.00,,---,0.00,VWS V14.00,2013-08-18 13:15:00,
2013-08-18 09:16:00,71.1,62.7,29.32,West,270,2.5,3.1,75,0.00,,---,0.00,VWS V14.00,2013-08-18 13:16:00,
2013-08-18 09:17:00,71.1,62.7,29.32,WNW,292,2.5,2.9,75,0.00,,---,0.00,VWS V14.00,2013-08-18 13:17:00,
2013-08-18 09:18:00,71.1,63.1,29.32,WNW,292,2.9,2.9,76,0.00,,---,0.00,VWS V14.00,2013-08-18 13:18:00,
2013-08-18 09:19:00,71.2,62.9,29.32,WNW,292,2.5,4.3,75,0.00,,---,0.00,VWS V14.00,2013-08-18 13:19:00,
2013-08-18 09:20:00,71.1,61.6,29.32,WNW,292,3.4,3.4,72,0.00,,---,0.00,VWS V14.00,2013-08-18 13:20:00,
2013-08-18 09:21:00,71.1,61.2,29.32,WSW,248,4.3,4.3,71,0.00,,---,0.00,VWS V14.00,2013-08-18 13:21:00,
2013-08-18 09:22:00,71.1,61.2,29.32,WNW,292,6.0,6.0,71,0.00,,---,0.00,VWS V14.00,2013-08-18 13:22:00,
2013-08-18 09:23:00,70.7,59.6,29.32,WNW,292,6.0,6.0,68,0.00,,---,0.00,VWS V14.00,2013-08-18 13:23:00,
2013-08-18 09:24:00,70.7,59.2,29.32,WNW,292,5.6,6.0,67,0.00,,---,0.00,VWS V14.00,2013-08-18 13:24:00,
2013-08-18 09:25:00,70.5,59.5,29.32,West,270,4.3,5.6,68,0.00,,---,0.00,VWS V14.00,2013-08-18 13:25:00,
2013-08-18 09:26:00,70.7,60.5,29.32,West,270,1.3,4.3,70,0.00,,---,0.00,VWS V14.00,2013-08-18 13:26:00,
2013-08-18 09:27:00,70.7,60.8,29.32,NNW,338,2.7,2.7,71,0.00,,---,0.00,VWS V14.00,2013-08-18 13:27:00,
2013-08-18 09:28:00,70.7,60.8,29.32,West,270,3.6,3.6,71,0.00,,---,0.00,VWS V14.00,2013-08-18 13:28:00,
2013-08-18 09:29:00,70.7,60.8,29.35,NNW,338,2.5,3.6,71,0.00,,---,0.00,VWS V14.00,2013-08-18 13:29:00,
2013-08-18 09:30:00,70.7,60.8,29.35,West,270,2.7,2.7,71,0.00,,---,0.00,VWS V14.00,2013-08-18 13:30:00,
2013-08-18 09:31:00,70.7,60.8,29.35,WSW,248,4.0,4.0,71,0.00,,---,0.00,VWS V14.00,2013-08-18 13:31:00,
2013-08-18 09:32:00,70.5,59.9,29.35,WSW,248,6.5,6.5,69,0.00,,---,0.00,VWS V14.00,2013-08-18 13:32:00,
2013-08-18 09:33:00,70.9,60.6,29.35,NNW,338,2.2,6.5,70,0.00,,---,0.00,VWS V14.00,2013-08-18 13:33:00,
2013-08-18 09:34:00,71.1,60.8,29.35,WSW,248,2.5,3.1,70,0.00,,---,0.00,VWS V14.00,2013-08-18 13:34:00,
2013-08-18 09:35:00,71.2,61.4,29.35,WSW,248,3.6,3.6,71,0.00,,---,0.00,VWS V14.00,2013-08-18 13:35:00,
2013-08-18 09:36:00,71.4,61.9,29.35,WSW,248,5.8,5.8,72,0.00,,---,0.00,VWS V14.00,2013-08-18 13:36:00,
2013-08-18 09:37:00,71.1,60.4,29.35,WSW,248,4.7,7.2,69,0.00,,---,0.00,VWS V14.00,2013-08-18 13:37:00,
2013-08-18 09:38:00,71.1,60.0,29.35,WSW,248,2.5,4.7,68,0.00,,---,0.00,VWS V14.00,2013-08-18 13:38:00,
2013-08-18 09:39:00,71.2,60.6,29.35,WSW,248,3.4,4.3,69,0.00,,---,0.00,VWS V14.00,2013-08-18 13:39:00,
2013-08-18 09:40:00,71.4,61.1,29.35,WSW,248,1.3,3.4,70,0.00,,---,0.00,VWS V14.00,2013-08-18 13:40:00,
2013-08-18 09:41:00,71.4,60.7,29.35,SW,225,4.9,4.9,69,0.00,,---,0.00,VWS V14.00,2013-08-18 13:41:00,
2013-08-18 09:42:00,71.4,60.7,29.35,WNW,292,2.5,4.9,69,0.00,,---,0.00,VWS V14.00,2013-08-18 13:42:00,
2013-08-18 09:43:00,71.4,60.7,29.35,WSW,248,1.6,2.5,69,0.00,,---,0.00,VWS V14.00,2013-08-18 13:43:00,
2013-08-18 09:44:00,71.4,60.7,29.35,SW,225,2.7,2.9,69,0.00,,---,0.00,VWS V14.00,2013-08-18 13:44:00,
2013-08-18 09:45:00,71.6,60.9,29.35,NNW,338,2.9,2.9,69,0.00,,---,0.00,VWS V14.00,2013-08-18 13:45:00,
2013-08-18 09:46:00,71.8,61.5,29.35,NW,315,3.4,3.4,70,0.00,,---,0.00,VWS V14.00,2013-08-18 13:46:00,
2013-08-18 09:47:00,71.6,60.1,29.35,WNW,292,2.5,3.4,67,0.00,,---,0.00,VWS V14.00,2013-08-18 13:47:00,
2013-08-18 09:48:00,71.6,59.7,29.35,WSW,248,3.1,4.0,66,0.00,,---,0.00,VWS V14.00,2013-08-18 13:48:00,
2013-08-18 09:49:00,71.6,60.1,29.35,WSW,248,1.3,3.4,67,0.00,,---,0.00,VWS V14.00,2013-08-18 13:49:00,
2013-08-18 09:50:00,71.4,59.0,29.35,West,270,3.1,5.4,65,0.00,,---,0.00,VWS V14.00,2013-08-18 13:50:00,
2013-08-18 09:51:00,71.4,59.0,29.35,NW,315,4.9,4.9,65,0.00,,---,0.00,VWS V14.00,2013-08-18 13:51:00,
2013-08-18 09:52:00,71.4,59.9,29.35,NW,315,2.9,4.9,67,0.00,,---,0.00,VWS V14.00,2013-08-18 13:52:00,
2013-08-18 09:53:00,71.4,60.3,29.35,SW,225,2.5,3.4,68,0.00,,---,0.00,VWS V14.00,2013-08-18 13:53:00,
2013-08-18 09:54:00,71.4,60.3,29.35,West,270,3.1,3.1,68,0.00,,---,0.00,VWS V14.00,2013-08-18 13:54:00,
2013-08-18 09:55:00,71.4,60.3,29.35,WSW,248,4.0,4.0,68,0.00,,---,0.00,VWS V14.00,2013-08-18 13:55:00,
2013-08-18 09:56:00,71.4,60.3,29.35,WNW,292,2.7,4.0,68,0.00,,---,0.00,VWS V14.00,2013-08-18 13:56:00,
2013-08-18 09:57:00,71.4,60.3,29.35,NW,315,3.4,3.4,68,0.00,,---,0.00,VWS V14.00,2013-08-18 13:57:00,
2013-08-18 09:58:00,71.6,60.9,29.35,WNW,292,1.3,3.4,69,0.00,,---,0.00,VWS V14.00,2013-08-18 13:58:00,
2013-08-18 09:59:00,71.4,60.3,29.35,WNW,292,1.3,1.3,68,0.00,,---,0.00,VWS V14.00,2013-08-18 13:59:00,
2013-08-18 10:00:00,71.6,60.1,29.35,NNW,338,3.8,3.8,67,0.00,,---,0.00,VWS V14.00,2013-08-18 14:00:00,
2013-08-18 10:01:00,71.4,59.5,29.35,NW,315,3.4,3.8,66,0.00,,---,0.00,VWS V14.00,2013-08-18 14:01:00,
2013-08-18 10:02:00,71.4,59.5,29.35,WNW,292,3.6,3.6,66,0.00,,---,0.00,VWS V14.00,2013-08-18 14:02:00,
2013-08-18 10:03:00,71.8,60.7,29.35,WNW,292,3.6,3.6,68,0.00,,---,0.00,VWS V14.00,2013-08-18 14:03:00,
2013-08-18 10:04:00,71.8,61.1,29.35,WSW,248,1.1,3.6,69,0.00,,---,0.00,VWS V14.00,2013-08-18 14:04:00,
2013-08-18 10:05:00,71.8,61.5,29.35,West,270,1.6,2.9,70,0.00,,---,0.00,VWS V14.00,2013-08-18 14:05:00,
2013-08-18 10:06:00,72.1,61.8,29.35,ENE,68,1.1,1.6,70,0.00,,---,0.00,VWS V14.00,2013-08-18 14:06:00,
2013-08-18 10:07:00,72.1,61.8,29.35,SW,225,0.0,1.1,70,0.00,,---,0.00,VWS V14.00,2013-08-18 14:07:00,
2013-08-18 10:08:00,72.7,63.1,29.35,West,270,2.5,2.5,72,0.00,,---,0.00,VWS V14.00,2013-08-18 14:08:00,
2013-08-18 10:09:00,72.5,62.6,29.35,NNW,338,3.8,4.7,71,0.00,,---,0.00,VWS V14.00,2013-08-18 14:09:00,
2013-08-18 10:10:00,72.7,61.5,29.35,WNW,292,5.4,5.4,68,0.00,,---,0.00,VWS V14.00,2013-08-18 14:10:00,
2013-08-18 10:11:00,72.7,61.5,29.35,WNW,292,2.0,5.4,68,0.00,,---,0.00,VWS V14.00,2013-08-18 14:11:00,
2013-08-18 10:12:00,72.7,61.1,29.35,WSW,248,2.5,2.5,67,0.00,,---,0.00,VWS V14.00,2013-08-18 14:12:00,
2013-08-18 10:13:00,72.7,60.2,29.35,SW,225,2.9,3.1,65,0.00,,---,0.00,VWS V14.00,2013-08-18 14:13:00,
2013-08-18 10:14:00,72.9,60.8,29.35,WNW,292,1.6,3.4,66,0.00,,---,0.00,VWS V14.00,2013-08-18 14:14:00,
2013-08-18 10:15:00,73.0,61.5,29.35,NW,315,4.9,4.9,67,0.00,,---,0.00,VWS V14.00,2013-08-18 14:15:00,
2013-08-18 10:16:00,73.0,60.2,29.35,NNW,338,3.6,4.9,64,0.00,,---,0.00,VWS V14.00,2013-08-18 14:16:00,
2013-08-18 10:17:00,73.2,59.4,29.35,SW,225,3.4,3.6,62,0.00,,---,0.00,VWS V14.00,2013-08-18 14:17:00,
2013-08-18 10:18:00,73.0,59.7,29.35,West,270,3.1,3.4,63,0.00,,---,0.00,VWS V14.00,2013-08-18 14:18:00,
2013-08-18 10:19:00,73.0,59.7,29.35,WNW,292,2.0,3.1,63,0.00,,---,0.00,VWS V14.00,2013-08-18 14:19:00,
2013-08-18 10:20:00,73.2,60.8,29.35,WNW,292,2.0,2.0,65,0.00,,---,0.00,VWS V14.00,2013-08-18 14:20:00,
2013-08-18 10:21:00,73.2,60.3,29.35,WSW,248,2.9,2.9,64,0.00,,---,0.00,VWS V14.00,2013-08-18 14:21:00,
2013-08-18 10:22:00,73.2,59.4,29.35,SW,225,3.8,3.8,62,0.00,,---,0.00,VWS V14.00,2013-08-18 14:22:00,
2013-08-18 10:23:00,73.2,59.9,29.35,SW,225,3.8,3.8,63,0.00,,---,0.00,VWS V14.00,2013-08-18 14:23:00,
2013-08-18 10:24:00,73.2,59.9,29.35,WSW,248,2.7,3.8,63,0.00,,---,0.00,VWS V14.00,2013-08-18 14:24:00,
2013-08-18 10:25:00,73.2,58.0,29.35,WSW,248,2.7,3.6,59,0.00,,---,0.00,VWS V14.00,2013-08-18 14:25:00,
2013-08-18 10:26:00,73.2,58.0,29.35,WSW,248,3.8,3.8,59,0.00,,---,0.00,VWS V14.00,2013-08-18 14:26:00,
2013-08-18 10:27:00,73.0,56.9,29.35,WSW,248,3.4,3.8,57,0.00,,---,0.00,VWS V14.00,2013-08-18 14:27:00,
2013-08-18 10:28:00,73.0,56.9,29.35,West,270,3.4,3.8,57,0.00,,---,0.00,VWS V14.00,2013-08-18 14:28:00,
2013-08-18 10:29:00,73.2,58.0,29.35,West,270,2.7,4.0,59,0.00,,---,0.00,VWS V14.00,2013-08-18 14:29:00,
2013-08-18 10:30:00,73.2,59.0,29.35,WNW,292,2.5,4.3,61,0.00,,---,0.00,VWS V14.00,2013-08-18 14:30:00,
2013-08-18 10:31:00,73.4,59.6,29.35,WNW,292,2.5,2.5,62,0.00,,---,0.00,VWS V14.00,2013-08-18 14:31:00,
2013-08-18 10:32:00,73.4,59.6,29.35,WNW,292,2.2,2.9,62,0.00,,---,0.00,VWS V14.00,2013-08-18 14:32:00,
2013-08-18 10:33:00,73.6,58.8,29.35,West,270,3.1,4.9,60,0.00,,---,0.00,VWS V14.00,2013-08-18 14:33:00,
2013-08-18 10:34:00,73.6,57.4,29.35,West,270,3.1,4.0,57,0.00,,---,0.00,VWS V14.00,2013-08-18 14:34:00,
2013-08-18 10:35:00,73.6,57.4,29.35,West,270,3.1,3.1,57,0.00,,---,0.00,VWS V14.00,2013-08-18 14:35:00,
2013-08-18 10:36:00,73.6,57.4,29.35,WNW,292,3.8,4.3,57,0.00,,---,0.00,VWS V14.00,2013-08-18 14:36:00,
2013-08-18 10:37:00,73.6,57.4,29.35,WSW,248,1.1,3.8,57,0.00,,---,0.00,VWS V14.00,2013-08-18 14:37:00,
2013-08-18 10:38:00,73.8,58.5,29.35,WSW,248,4.3,4.9,59,0.00,,---,0.00,VWS V14.00,2013-08-18 14:38:00,
2013-08-18 10:39:00,73.8,58.1,29.35,WSW,248,4.3,4.3,58,0.00,,---,0.00,VWS V14.00,2013-08-18 14:39:00,
2013-08-18 10:40:00,73.6,56.4,29.35,WSW,248,4.3,4.3,55,0.00,,---,0.00,VWS V14.00,2013-08-18 14:40:00,
2013-08-18 10:41:00,73.4,56.3,29.35,West,270,7.2,7.2,55,0.00,,---,0.00,VWS V14.00,2013-08-18 14:41:00,
2013-08-18 10:42:00,73.4,56.8,29.35,WNW,292,3.1,7.2,56,0.00,,---,0.00,VWS V14.00,2013-08-18 14:42:00,
2013-08-18 10:43:00,73.6,57.4,29.35,WNW,292,3.1,3.1,57,0.00,,---,0.00,VWS V14.00,2013-08-18 14:43:00,
2013-08-18 10:44:00,73.6,57.4,29.35,WNW,292,4.3,4.3,57,0.00,,---,0.00,VWS V14.00,2013-08-18 14:44:00,
2013-08-18 10:45:00,73.4,57.3,29.35,SW,225,3.6,5.8,57,0.00,,---,0.00,VWS V14.00,2013-08-18 14:45:00,
2013-08-18 10:46:00,73.6,57.9,29.35,WSW,248,3.8,3.8,58,0.00,,---,0.00,VWS V14.00,2013-08-18 14:46:00,
2013-08-18 10:47:00,73.6,57.9,29.35,WNW,292,3.8,3.8,58,0.00,,---,0.00,VWS V14.00,2013-08-18 14:47:00,
2013-08-18 10:48:00,73.9,57.8,29.35,SSW,202,2.2,5.8,57,0.00,,---,0.00,VWS V14.00,2013-08-18 14:48:00,
2013-08-18 10:49:00,73.9,57.8,29.35,NW,315,3.1,3.1,57,0.00,,---,0.00,VWS V14.00,2013-08-18 14:49:00,
2013-08-18 10:50:00,73.9,57.8,29.35,NW,315,3.4,3.8,57,0.00,,---,0.00,VWS V14.00,2013-08-18 14:50:00,
2013-08-18 10:51:00,74.7,58.4,29.35,WSW,248,1.6,3.4,57,0.00,,---,0.00,VWS V14.00,2013-08-18 14:51:00,
2013-08-18 10:52:00,74.7,58.4,29.35,WNW,292,4.0,4.0,57,0.00,,---,0.00,VWS V14.00,2013-08-18 14:52:00,
2013-08-18 10:53:00,74.7,58.4,29.35,NNE,22,1.6,4.0,57,0.00,,---,0.00,VWS V14.00,2013-08-18 14:53:00,
2013-08-18 10:54:00,74.8,57.6,29.35,WNW,292,2.9,2.9,55,0.00,,---,0.00,VWS V14.00,2013-08-18 14:54:00,
2013-08-18 10:55:00,74.8,57.6,29.35,NNW,338,4.3,4.3,55,0.00,,---,0.00,VWS V14.00,2013-08-18 14:55:00,
2013-08-18 10:56:00,74.7,55.3,29.35,NNW,338,4.3,4.3,51,0.00,,---,0.00,VWS V14.00,2013-08-18 14:56:00,
2013-08-18 10:57:00,74.3,55.6,29.35,WSW,248,6.5,6.5,52,0.00,,---,0.00,VWS V14.00,2013-08-18 14:57:00,
2013-08-18 10:58:00,74.1,55.9,29.35,NNW,338,5.8,6.5,53,0.00,,---,0.00,VWS V14.00,2013-08-18 14:58:00,
2013-08-18 10:59:00,74.1,55.9,29.35,NE,45,4.3,5.8,53,0.00,,---,0.00,VWS V14.00,2013-08-18 14:59:00,
2013-08-18 11:00:00,74.3,56.6,29.35,NW,315,2.5,4.3,54,0.00,,---,0.00,VWS V14.00,2013-08-18 15:00:00,
2013-08-18 11:01:00,74.5,57.3,29.35,NW,315,4.9,4.9,55,0.00,,---,0.00,VWS V14.00,2013-08-18 15:01:00,
2013-08-18 11:02:00,74.5,57.3,29.35,North,0,3.8,6.3,55,0.00,,---,0.00,VWS V14.00,2013-08-18 15:02:00,
2013-08-18 11:03:00,74.5,56.2,29.35,WSW,248,2.9,3.8,53,0.00,,---,0.00,VWS V14.00,2013-08-18 15:03:00,
2013-08-18 11:04:00,74.7,57.9,29.35,WNW,292,4.0,5.4,56,0.00,,---,0.00,VWS V14.00,2013-08-18 15:04:00,
2013-08-18 11:05:00,74.7,57.9,29.35,SSW,202,2.9,4.0,56,0.00,,---,0.00,VWS V14.00,2013-08-18 15:05:00,
2013-08-18 11:06:00,74.8,58.1,29.35,WNW,292,3.1,4.0,56,0.00,,---,0.00,VWS V14.00,2013-08-18 15:06:00,
2013-08-18 11:07:00,75.2,57.9,29.35,SW,225,3.1,3.1,55,0.00,,---,0.00,VWS V14.00,2013-08-18 15:07:00,
2013-08-18 11:08:00,75.2,57.4,29.35,NW,315,2.5,3.8,54,0.00,,---,0.00,VWS V14.00,2013-08-18 15:08:00,
2013-08-18 11:09:00,75.2,57.4,29.35,NW,315,2.7,2.7,54,0.00,,---,0.00,VWS V14.00,2013-08-18 15:09:00,
2013-08-18 11:10:00,75.6,58.3,29.35,NNW,338,2.7,2.7,55,0.00,,---,0.00,VWS V14.00,2013-08-18 15:10:00,
2013-08-18 11:11:00,75.6,55.6,29.35,NW,315,4.3,4.3,50,0.00,,---,0.00,VWS V14.00,2013-08-18 15:11:00,
2013-08-18 11:12:00,75.6,55.6,29.35,West,270,2.0,4.3,50,0.00,,---,0.00,VWS V14.00,2013-08-18 15:12:00,
2013-08-18 11:13:00,75.7,56.9,29.35,WNW,292,2.5,3.1,52,0.00,,---,0.00,VWS V14.00,2013-08-18 15:13:00,
2013-08-18 11:14:00,75.9,57.0,29.35,WNW,292,2.7,2.7,52,0.00,,---,0.00,VWS V14.00,2013-08-18 15:14:00,
2013-08-18 11:15:00,76.1,56.7,29.35,WSW,248,3.8,4.3,51,0.00,,---,0.00,VWS V14.00,2013-08-18 15:15:00,
2013-08-18 11:16:00,76.3,57.4,29.35,WSW,248,4.3,5.6,52,0.00,,---,0.00,VWS V14.00,2013-08-18 15:16:00,
2013-08-18 11:17:00,76.3,57.4,29.35,WSW,248,4.3,4.3,52,0.00,,---,0.00,VWS V14.00,2013-08-18 15:17:00,
2013-08-18 11:18:00,76.3,57.4,29.35,WSW,248,2.5,4.3,52,0.00,,---,0.00,VWS V14.00,2013-08-18 15:18:00,
2013-08-18 11:19:00,75.7,55.8,29.35,WSW,248,2.2,2.5,50,0.00,,---,0.00,VWS V14.00,2013-08-18 15:19:00,
2013-08-18 11:20:00,75.7,55.2,29.35,WNW,292,3.8,4.3,49,0.00,,---,0.00,VWS V14.00,2013-08-18 15:20:00,
2013-08-18 11:21:00,75.7,55.2,29.35,WNW,292,3.8,3.8,49,0.00,,---,0.00,VWS V14.00,2013-08-18 15:21:00,
2013-08-18 11:22:00,75.7,55.2,29.35,WNW,292,3.6,3.8,49,0.00,,---,0.00,VWS V14.00,2013-08-18 15:22:00,
2013-08-18 11:23:00,75.4,56.5,29.35,WNW,292,4.0,4.0,52,0.00,,---,0.00,VWS V14.00,2013-08-18 15:23:00,
2013-08-18 11:24:00,75.4,56.5,29.35,WNW,292,2.7,4.0,52,0.00,,---,0.00,VWS V14.00,2013-08-18 15:24:00,
2013-08-18 11:25:00,75.4,56.5,29.35,WNW,292,2.7,2.7,52,0.00,,---,0.00,VWS V14.00,2013-08-18 15:25:00,
2013-08-18 11:26:00,75.4,56.5,29.35,NNW,338,3.4,3.4,52,0.00,,---,0.00,VWS V14.00,2013-08-18 15:26:00,
2013-08-18 11:27:00,75.6,57.2,29.35,WNW,292,3.6,3.6,53,0.00,,---,0.00,VWS V14.00,2013-08-18 15:27:00,
2013-08-18 11:28:00,75.7,57.4,29.35,WSW,248,1.1,3.6,53,0.00,,---,0.00,VWS V14.00,2013-08-18 15:28:00,
2013-08-18 11:29:00,75.9,57.0,29.35,West,270,2.5,2.5,52,0.00,,---,0.00,VWS V14.00,2013-08-18 15:29:00,
2013-08-18 11:30:00,75.9,55.4,29.35,NW,315,2.5,3.8,49,0.00,,---,0.00,VWS V14.00,2013-08-18 15:30:00,
2013-08-18 11:31:00,76.5,57.5,29.35,WNW,292,2.5,3.8,52,0.00,,---,0.00,VWS V14.00,2013-08-18 15:31:00,
2013-08-18 11:32:00,76.5,57.5,29.35,WSW,248,3.1,3.1,52,0.00,,---,0.00,VWS V14.00,2013-08-18 15:32:00,
2013-08-18 11:33:00,76.5,57.5,29.35,SW,225,2.7,3.1,52,0.00,,---,0.00,VWS V14.00,2013-08-18 15:33:00,
2013-08-18 11:34:00,77.2,56.0,29.35,SW,225,3.8,3.8,48,0.00,,---,0.00,VWS V14.00,2013-08-18 15:34:00,
2013-08-18 11:35:00,77.2,56.6,29.35,WNW,292,4.0,5.8,49,0.00,,---,0.00,VWS V14.00,2013-08-18 15:35:00,
2013-08-18 11:36:00,77.2,55.4,29.35,WNW,292,4.0,4.0,47,0.00,,---,0.00,VWS V14.00,2013-08-18 15:36:00,
2013-08-18 11:37:00,76.6,53.7,29.35,WSW,248,7.2,7.2,45,0.00,,---,0.00,VWS V14.00,2013-08-18 15:37:00,
2013-08-18 11:38:00,76.6,53.7,29.35,WSW,248,7.2,7.2,45,0.00,,---,0.00,VWS V14.00,2013-08-18 15:38:00,
2013-08-18 11:39:00,76.6,53.7,29.35,West,270,6.3,7.2,45,0.00,,---,0.00,VWS V14.00,2013-08-18 15:39:00,
2013-08-18 11:40:00,76.6,53.7,29.35,NW,315,7.2,7.2,45,0.00,,---,0.00,VWS V14.00,2013-08-18 15:40:00,
2013-08-18 11:41:00,75.7,55.2,29.35,WNW,292,2.2,7.2,49,0.00,,---,0.00,VWS V14.00,2013-08-18 15:41:00,
2013-08-18 11:42:00,75.7,55.2,29.35,WNW,292,2.2,2.2,49,0.00,,---,0.00,VWS V14.00,2013-08-18 15:42:00,
2013-08-18 11:43:00,75.7,55.2,29.35,WNW,292,3.1,3.1,49,0.00,,---,0.00,VWS V14.00,2013-08-18 15:43:00,
2013-08-18 11:44:00,76.1,56.1,29.35,WNW,292,3.1,3.1,50,0.00,,---,0.00,VWS V14.00,2013-08-18 15:44:00,
2013-08-18 11:45:00,75.9,54.8,29.35,SW,225,3.6,3.6,48,0.00,,---,0.00,VWS V14.00,2013-08-18 15:45:00,
2013-08-18 11:46:00,75.9,54.8,29.35,WSW,248,3.1,3.6,48,0.00,,---,0.00,VWS V14.00,2013-08-18 15:46:00,
2013-08-18 11:47:00,76.1,56.1,29.35,West,270,4.9,4.9,50,0.00,,---,0.00,VWS V14.00,2013-08-18 15:47:00,
2013-08-18 11:48:00,76.1,55.0,29.35,WSW,248,4.0,6.3,48,0.00,,---,0.00,VWS V14.00,2013-08-18 15:48:00,
2013-08-18 11:49:00,76.3,54.6,29.35,WSW,248,2.9,4.3,47,0.00,,---,0.00,VWS V14.00,2013-08-18 15:49:00,
2013-08-18 11:50:00,77.4,57.3,29.35,WNW,292,1.6,2.9,50,0.00,,---,0.00,VWS V14.00,2013-08-18 15:50:00,
2013-08-18 11:51:00,77.7,55.9,29.35,WNW,292,2.7,3.8,47,0.00,,---,0.00,VWS V14.00,2013-08-18 15:51:00,
2013-08-18 11:52:00,77.7,55.9,29.35,South,180,1.3,2.7,47,0.00,,---,0.00,VWS V14.00,2013-08-18 15:52:00,
2013-08-18 11:53:00,78.6,56.7,29.35,South,180,1.3,1.3,47,0.00,,---,0.00,VWS V14.00,2013-08-18 15:53:00,
2013-08-18 11:54:00,78.1,53.2,29.35,WSW,248,6.3,6.3,42,0.00,,---,0.00,VWS V14.00,2013-08-18 15:54:00,
2013-08-18 11:55:00,78.1,53.2,29.35,SW,225,2.9,6.3,42,0.00,,---,0.00,VWS V14.00,2013-08-18 15:55:00,
2013-08-18 11:56:00,77.4,53.8,29.35,SW,225,2.9,2.9,44,0.00,,---,0.00,VWS V14.00,2013-08-18 15:56:00,
2013-08-18 11:57:00,77.2,53.6,29.35,SW,225,2.9,2.9,44,0.00,,---,0.00,VWS V14.00,2013-08-18 15:57:00,
2013-08-18 11:58:00,77.2,53.6,29.35,SW,225,2.9,2.9,44,0.00,,---,0.00,VWS V14.00,2013-08-18 15:58:00,
2013-08-18 11:59:00,76.8,54.5,29.35,WSW,248,3.6,3.6,46,0.00,,---,0.00,VWS V14.00,2013-08-18 15:59:00,
2013-08-18 12:00:00,76.8,54.5,29.35,West,270,5.4,6.3,46,0.00,,---,0.00,VWS V14.00,2013-08-18 16:00:00,
2013-08-18 12:01:00,76.8,54.5,29.35,West,270,5.4,5.4,46,0.00,,---,0.00,VWS V14.00,2013-08-18 16:01:00,
2013-08-18 12:02:00,76.5,53.6,29.35,WSW,248,4.3,6.0,45,0.00,,---,0.00,VWS V14.00,2013-08-18 16:02:00,
2013-08-18 12:03:00,76.6,54.3,29.35,NW,315,2.5,4.3,46,0.00,,---,0.00,VWS V14.00,2013-08-18 16:03:00,
2013-08-18 12:04:00,77.4,54.4,29.35,NNW,338,2.7,3.6,45,0.00,,---,0.00,VWS V14.00,2013-08-18 16:04:00,
2013-08-18 12:05:00,77.5,52.7,29.35,SW,225,7.2,7.2,42,0.00,,---,0.00,VWS V14.00,2013-08-18 16:05:00,
2013-08-18 12:06:00,77.7,54.1,29.35,WSW,248,6.5,7.2,44,0.00,,---,0.00,VWS V14.00,2013-08-18 16:06:00,
2013-08-18 12:07:00,77.5,53.9,29.35,West,270,5.6,7.8,44,0.00,,---,0.00,VWS V14.00,2013-08-18 16:07:00,
2013-08-18 12:08:00,77.7,54.7,29.35,WNW,292,3.8,5.6,45,0.00,,---,0.00,VWS V14.00,2013-08-18 16:08:00,
2013-08-18 12:09:00,77.9,54.9,29.35,WNW,292,4.0,4.0,45,0.00,,---,0.00,VWS V14.00,2013-08-18 16:09:00,
2013-08-18 12:10:00,77.9,54.9,29.35,NW,315,3.8,6.5,45,0.00,,---,0.00,VWS V14.00,2013-08-18 16:10:00,
2013-08-18 12:11:00,77.9,53.6,29.35,NW,315,2.5,4.7,43,0.00,,---,0.00,VWS V14.00,2013-08-18 16:11:00,
2013-08-18 12:12:00,77.9,54.3,29.35,West,270,5.6,5.6,44,0.00,,---,0.00,VWS V14.00,2013-08-18 16:12:00,
2013-08-18 12:13:00,77.7,54.1,29.35,WNW,292,4.3,5.6,44,0.00,,---,0.00,VWS V14.00,2013-08-18 16:13:00,
2013-08-18 12:14:00,77.7,54.1,29.32,WSW,248,5.8,8.5,44,0.00,,---,0.00,VWS V14.00,2013-08-18 16:14:00,
2013-08-18 12:15:00,77.9,54.9,29.32,WSW,248,2.9,6.3,45,0.00,,---,0.00,VWS V14.00,2013-08-18 16:15:00,
2013-08-18 12:16:00,77.9,54.9,29.32,WSW,248,2.9,6.3,45,0.00,,---,0.00,VWS V14.00,2013-08-18 16:16:00,
2013-08-18 12:17:00,78.3,54.6,29.32,NW,315,3.1,7.6,44,0.00,,---,0.00,VWS V14.00,2013-08-18 16:17:00,
2013-08-18 12:18:00,78.3,55.2,29.32,NNW,338,2.0,3.1,45,0.00,,---,0.00,VWS V14.00,2013-08-18 16:18:00,
2013-08-18 12:19:00,78.6,54.3,29.32,WNW,292,4.3,4.3,43,0.00,,---,0.00,VWS V14.00,2013-08-18 16:19:00,
2013-08-18 12:20:00,78.1,52.5,29.32,WSW,248,6.5,6.5,41,0.00,,---,0.00,VWS V14.00,2013-08-18 16:20:00,
2013-08-18 12:21:00,77.7,52.2,29.32,WSW,248,5.8,6.9,41,0.00,,---,0.00,VWS V14.00,2013-08-18 16:21:00,
2013-08-18 12:22:00,77.4,52.5,29.32,WSW,248,5.6,5.8,42,0.00,,---,0.00,VWS V14.00,2013-08-18 16:22:00,
2013-08-18 12:23:00,77.4,52.5,29.32,WSW,248,5.4,6.0,42,0.00,,---,0.00,VWS V14.00,2013-08-18 16:23:00,
2013-08-18 12:24:00,77.4,52.5,29.32,WSW,248,5.8,10.1,42,0.00,,---,0.00,VWS V14.00,2013-08-18 16:24:00,
2013-08-18 12:25:00,77.5,53.3,29.32,WSW,248,7.6,7.6,43,0.00,,---,0.00,VWS V14.00,2013-08-18 16:25:00,
2013-08-18 12:26:00,77.7,54.1,29.32,WNW,292,2.9,7.6,44,0.00,,---,0.00,VWS V14.00,2013-08-18 16:26:00,
2013-08-18 12:27:00,77.9,54.9,29.32,WSW,248,4.3,4.3,45,0.00,,---,0.00,VWS V14.00,2013-08-18 16:27:00,
2013-08-18 12:28:00,77.7,53.5,29.32,NW,315,5.4,5.6,43,0.00,,---,0.00,VWS V14.00,2013-08-18 16:28:00,
2013-08-18 12:29:00,77.9,53.0,29.32,WNW,292,6.0,6.3,42,0.00,,---,0.00,VWS V14.00,2013-08-18 16:29:00,
2013-08-18 12:30:00,78.1,53.8,29.32,WNW,292,4.0,6.0,43,0.00,,---,0.00,VWS V14.00,2013-08-18 16:30:00,
2013-08-18 12:31:00,77.9,53.6,29.32,WNW,292,4.0,4.0,43,0.00,,---,0.00,VWS V14.00,2013-08-18 16:31:00,
2013-08-18 12:32:00,77.9,54.3,29.32,WNW,292,4.0,4.0,44,0.00,,---,0.00,VWS V14.00,2013-08-18 16:32:00,
2013-08-18 12:33:00,78.1,55.0,29.32,WNW,292,3.8,4.0,45,0.00,,---,0.00,VWS V14.00,2013-08-18 16:33:00,
2013-08-18 12:34:00,78.1,53.2,29.32,NNW,338,3.8,4.0,42,0.00,,---,0.00,VWS V14.00,2013-08-18 16:34:00,
2013-08-18 12:35:00,77.9,53.0,29.32,WNW,292,3.4,3.8,42,0.00,,---,0.00,VWS V14.00,2013-08-18 16:35:00,
2013-08-18 12:36:00,77.9,53.0,29.32,WNW,292,2.0,3.4,42,0.00,,---,0.00,VWS V14.00,2013-08-18 16:36:00,
2013-08-18 12:37:00,78.3,54.6,29.32,West,270,3.1,3.1,44,0.00,,---,0.00,VWS V14.00,2013-08-18 16:37:00,
2013-08-18 12:38:00,78.3,54.0,29.32,WSW,248,4.7,4.7,43,0.00,,---,0.00,VWS V14.00,2013-08-18 16:38:00,
2013-08-18 12:39:00,78.4,54.1,29.32,WSW,248,2.9,4.7,43,0.00,,---,0.00,VWS V14.00,2013-08-18 16:39:00,
2013-08-18 12:40:00,78.8,55.1,29.32,West,270,2.7,4.0,44,0.00,,---,0.00,VWS V14.00,2013-08-18 16:40:00,
2013-08-18 12:41:00,78.8,54.4,29.32,SSE,158,2.9,4.7,43,0.00,,---,0.00,VWS V14.00,2013-08-18 16:41:00,
2013-08-18 12:42:00,79.2,53.5,29.32,ENE,68,3.1,3.8,41,0.00,,---,0.00,VWS V14.00,2013-08-18 16:42:00,
2013-08-18 12:43:00,79.3,54.3,29.32,SSW,202,1.3,3.1,42,0.00,,---,0.00,VWS V14.00,2013-08-18 16:43:00,
2013-08-18 12:44:00,79.5,55.1,29.32,SSE,158,0.0,2.9,43,0.00,,---,0.00,VWS V14.00,2013-08-18 16:44:00,
2013-08-18 12:45:00,79.5,55.1,29.32,SSE,158,1.6,1.6,43,0.00,,---,0.00,VWS V14.00,2013-08-18 16:45:00,
2013-08-18 12:46:00,79.7,55.2,29.32,SSE,158,1.3,1.6,43,0.00,,---,0.00,VWS V14.00,2013-08-18 16:46:00,
2013-08-18 12:47:00,79.7,55.2,29.32,SW,225,1.3,2.5,43,0.00,,---,0.00,VWS V14.00,2013-08-18 16:47:00,
2013-08-18 12:48:00,79.7,55.2,29.32,NNW,338,3.4,3.4,43,0.00,,---,0.00,VWS V14.00,2013-08-18 16:48:00,
2013-08-18 12:49:00,79.2,51.4,29.32,NW,315,5.6,5.6,38,0.00,,---,0.00,VWS V14.00,2013-08-18 16:49:00,
2013-08-18 12:50:00,78.8,51.8,29.32,NW,315,5.6,5.6,39,0.00,,---,0.00,VWS V14.00,2013-08-18 16:50:00,
2013-08-18 12:51:00,78.6,51.6,29.32,NW,315,5.6,5.6,39,0.00,,---,0.00,VWS V14.00,2013-08-18 16:51:00,
2013-08-18 12:52:00,78.3,52.0,29.32,NW,315,5.6,5.6,40,0.00,,---,0.00,VWS V14.00,2013-08-18 16:52:00,
2013-08-18 12:53:00,78.1,51.8,29.32,West,270,3.4,5.6,40,0.00,,---,0.00,VWS V14.00,2013-08-18 16:53:00,
2013-08-18 12:54:00,78.3,53.3,29.32,WNW,292,0.0,3.4,42,0.00,,---,0.00,VWS V14.00,2013-08-18 16:54:00,
2013-08-18 12:55:00,78.8,53.8,29.32,North,0,1.6,2.5,42,0.00,,---,0.00,VWS V14.00,2013-08-18 16:55:00,
2013-08-18 12:56:00,78.8,52.5,29.32,WNW,292,2.9,3.8,40,0.00,,---,0.00,VWS V14.00,2013-08-18 16:56:00,
2013-08-18 12:57:00,79.7,53.9,29.32,WNW,292,2.5,2.9,41,0.00,,---,0.00,VWS V14.00,2013-08-18 16:57:00,
2013-08-18 12:58:00,79.9,54.1,29.32,West,270,0.0,2.5,41,0.00,,---,0.00,VWS V14.00,2013-08-18 16:58:00,
2013-08-18 12:59:00,80.4,55.2,29.32,WNW,292,1.1,1.3,42,0.00,,---,0.00,VWS V14.00,2013-08-18 16:59:00,
2013-08-18 13:00:00,80.4,54.6,29.32,WSW,248,3.4,4.7,41,0.00,,---,0.00,VWS V14.00,2013-08-18 17:00:00,
2013-08-18 13:01:00,80.6,54.8,29.32,WSW,248,1.1,3.4,41,0.00,,---,0.00,VWS V14.00,2013-08-18 17:01:00,
2013-08-18 13:02:00,81.1,56.5,29.32,West,270,2.5,2.5,43,0.00,,---,0.00,VWS V14.00,2013-08-18 17:02:00,
2013-08-18 13:03:00,81.1,56.5,29.32,WSW,248,1.6,2.5,43,0.00,,---,0.00,VWS V14.00,2013-08-18 17:03:00,
2013-08-18 13:04:00,81.5,54.9,29.32,WSW,248,1.6,1.6,40,0.00,,---,0.00,VWS V14.00,2013-08-18 17:04:00,
2013-08-18 13:05:00,81.9,53.8,29.32,ENE,68,2.9,2.9,38,0.00,,---,0.00,VWS V14.00,2013-08-18 17:05:00,
2013-08-18 13:06:00,81.7,54.3,29.32,ENE,68,2.2,2.9,39,0.00,,---,0.00,VWS V14.00,2013-08-18 17:06:00,
2013-08-18 13:07:00,80.8,49.8,29.32,ENE,68,2.2,2.2,34,0.00,,---,0.00,VWS V14.00,2013-08-18 17:07:00,
2013-08-18 13:08:00,80.4,51.0,29.32,ENE,68,2.2,2.2,36,0.00,,---,0.00,VWS V14.00,2013-08-18 17:08:00,
2013-08-18 13:09:00,80.4,53.2,29.32,NNW,338,4.3,4.3,39,0.00,,---,0.00,VWS V14.00,2013-08-18 17:09:00,
2013-08-18 13:10:00,80.8,51.4,29.32,NW,315,5.6,5.6,36,0.00,,---,0.00,VWS V14.00,2013-08-18 17:10:00,
2013-08-18 13:11:00,81.0,52.3,29.32,SSW,202,0.9,5.6,37,0.00,,---,0.00,VWS V14.00,2013-08-18 17:11:00,
2013-08-18 13:12:00,81.3,52.6,29.32,SSW,202,1.3,1.3,37,0.00,,---,0.00,VWS V14.00,2013-08-18 17:12:00,
2013-08-18 13:13:00,81.3,52.6,29.32,WSW,248,2.5,4.7,37,0.00,,---,0.00,VWS V14.00,2013-08-18 17:13:00,
2013-08-18 13:14:00,82.0,55.4,29.29,SSW,202,2.7,2.7,40,0.00,,---,0.00,VWS V14.00,2013-08-18 17:14:00,
2013-08-18 13:15:00,82.2,55.5,29.29,SSW,202,2.7,2.7,40,0.00,,---,0.00,VWS V14.00,2013-08-18 17:15:00,
2013-08-18 13:16:00,82.0,54.7,29.29,WSW,248,3.1,3.1,39,0.00,,---,0.00,VWS V14.00,2013-08-18 17:16:00,
2013-08-18 13:17:00,82.0,54.0,29.29,WSW,248,3.1,3.1,38,0.00,,---,0.00,VWS V14.00,2013-08-18 17:17:00,
2013-08-18 13:18:00,82.0,51.7,29.29,WSW,248,3.1,3.1,35,0.00,,---,0.00,VWS V14.00,2013-08-18 17:18:00,
2013-08-18 13:19:00,82.0,51.7,29.29,NNW,338,4.0,4.0,35,0.00,,---,0.00,VWS V14.00,2013-08-18 17:19:00,
2013-08-18 13:20:00,82.4,51.2,29.29,WNW,292,2.9,4.0,34,0.00,,---,0.00,VWS V14.00,2013-08-18 17:20:00,
2013-08-18 13:21:00,82.0,51.7,29.29,WNW,292,2.9,2.9,35,0.00,,---,0.00,VWS V14.00,2013-08-18 17:21:00,
2013-08-18 13:22:00,82.0,51.7,29.29,South,180,2.0,2.9,35,0.00,,---,0.00,VWS V14.00,2013-08-18 17:22:00,
2013-08-18 13:23:00,81.9,51.5,29.29,South,180,2.0,2.0,35,0.00,,---,0.00,VWS V14.00,2013-08-18 17:23:00,
2013-08-18 13:24:00,81.9,52.3,29.29,WNW,292,0.9,2.0,36,0.00,,---,0.00,VWS V14.00,2013-08-18 17:24:00,
2013-08-18 13:25:00,81.9,52.3,29.29,WSW,248,1.3,1.3,36,0.00,,---,0.00,VWS V14.00,2013-08-18 17:25:00,
2013-08-18 13:26:00,81.9,52.3,29.29,WSW,248,1.3,1.3,36,0.00,,---,0.00,VWS V14.00,2013-08-18 17:26:00,
2013-08-18 13:27:00,81.1,50.9,29.29,NNE,22,2.0,2.0,35,0.00,,---,0.00,VWS V14.00,2013-08-18 17:27:00,
2013-08-18 13:28:00,81.1,50.9,29.29,NNE,22,2.0,2.0,35,0.00,,---,0.00,VWS V14.00,2013-08-18 17:28:00,
2013-08-18 13:29:00,81.1,50.9,29.32,NNE,22,2.0,2.0,35,0.00,,---,0.00,VWS V14.00,2013-08-18 17:29:00,
2013-08-18 13:30:00,81.1,50.1,29.32,WSW,248,5.6,6.5,34,0.00,,---,0.00,VWS V14.00,2013-08-18 17:30:00,
2013-08-18 13:31:00,81.1,50.1,29.32,NNW,338,3.8,5.6,34,0.00,,---,0.00,VWS V14.00,2013-08-18 17:31:00,
2013-08-18 13:32:00,81.3,50.3,29.32,NNW,338,2.9,4.0,34,0.00,,---,0.00,VWS V14.00,2013-08-18 17:32:00,
2013-08-18 13:33:00,81.1,50.1,29.32,NNW,338,4.9,4.9,34,0.00,,---,0.00,VWS V14.00,2013-08-18 17:33:00,
2013-08-18 13:34:00,81.3,51.1,29.32,NW,315,3.8,4.9,35,0.00,,---,0.00,VWS V14.00,2013-08-18 17:34:00,
2013-08-18 13:35:00,81.9,50.8,29.32,North,0,2.5,4.3,34,0.00,,---,0.00,VWS V14.00,2013-08-18 17:35:00,
2013-08-18 13:36:00,82.4,51.2,29.32,SW,225,2.7,4.9,34,0.00,,---,0.00,VWS V14.00,2013-08-18 17:36:00,
2013-08-18 13:37:00,82.8,51.6,29.32,WNW,292,1.6,2.7,34,0.00,,---,0.00,VWS V14.00,2013-08-18 17:37:00,
2013-08-18 13:38:00,82.6,50.6,29.32,NNW,338,3.4,3.4,33,0.00,,---,0.00,VWS V14.00,2013-08-18 17:38:00,
2013-08-18 13:39:00,82.4,50.4,29.32,NNW,338,3.4,3.4,33,0.00,,---,0.00,VWS V14.00,2013-08-18 17:39:00,
2013-08-18 13:40:00,82.2,51.1,29.32,NNW,338,3.1,3.4,34,0.00,,---,0.00,VWS V14.00,2013-08-18 17:40:00,
2013-08-18 13:41:00,82.0,50.9,29.32,NNW,338,3.1,3.1,34,0.00,,---,0.00,VWS V14.00,2013-08-18 17:41:00,
2013-08-18 13:42:00,81.7,51.4,29.32,NNW,338,3.1,3.1,35,0.00,,---,0.00,VWS V14.00,2013-08-18 17:42:00,
2013-08-18 13:43:00,81.3,51.1,29.32,NNW,338,3.1,3.1,35,0.00,,---,0.00,VWS V14.00,2013-08-18 17:43:00,
2013-08-18 13:44:00,81.0,50.8,29.32,NW,315,5.4,5.4,35,0.00,,---,0.00,VWS V14.00,2013-08-18 17:44:00,
2013-08-18 13:45:00,81.0,50.8,29.32,WNW,292,4.5,5.4,35,0.00,,---,0.00,VWS V14.00,2013-08-18 17:45:00,
2013-08-18 13:46:00,81.1,50.9,29.32,WNW,292,3.6,5.4,35,0.00,,---,0.00,VWS V14.00,2013-08-18 17:46:00,
2013-08-18 13:47:00,81.5,52.7,29.32,NE,45,3.8,4.0,37,0.00,,---,0.00,VWS V14.00,2013-08-18 17:47:00,
2013-08-18 13:48:00,81.7,52.2,29.32,NNW,338,3.4,3.8,36,0.00,,---,0.00,VWS V14.00,2013-08-18 17:48:00,
2013-08-18 13:49:00,81.7,52.2,29.32,NNW,338,3.6,3.6,36,0.00,,---,0.00,VWS V14.00,2013-08-18 17:49:00,
2013-08-18 13:50:00,82.2,51.9,29.32,NNW,338,3.4,3.6,35,0.00,,---,0.00,VWS V14.00,2013-08-18 17:50:00,
2013-08-18 13:51:00,83.1,53.4,29.32,NE,45,1.6,3.4,36,0.00,,---,0.00,VWS V14.00,2013-08-18 17:51:00,
2013-08-18 13:52:00,82.6,51.4,29.32,NE,45,3.8,3.8,34,0.00,,---,0.00,VWS V14.00,2013-08-18 17:52:00,
2013-08-18 13:53:00,82.6,51.4,29.32,NNE,22,2.7,4.0,34,0.00,,---,0.00,VWS V14.00,2013-08-18 17:53:00,
2013-08-18 13:54:00,82.8,51.6,29.32,NNE,22,2.7,2.7,34,0.00,,---,0.00,VWS V14.00,2013-08-18 17:54:00,
2013-08-18 13:55:00,82.8,52.3,29.32,NW,315,3.1,3.1,35,0.00,,---,0.00,VWS V14.00,2013-08-18 17:55:00,
2013-08-18 13:56:00,82.8,52.3,29.32,WNW,292,0.9,3.1,35,0.00,,---,0.00,VWS V14.00,2013-08-18 17:56:00,
2013-08-18 13:57:00,82.6,52.2,29.32,NNW,338,3.1,6.3,35,0.00,,---,0.00,VWS V14.00,2013-08-18 17:57:00,
2013-08-18 13:58:00,82.2,51.1,29.32,WNW,292,3.4,3.4,34,0.00,,---,0.00,VWS V14.00,2013-08-18 17:58:00,
2013-08-18 13:59:00,82.2,49.5,29.32,NNW,338,6.3,6.5,32,0.00,,---,0.00,VWS V14.00,2013-08-18 17:59:00,
2013-08-18 14:00:00,82.2,50.3,29.32,WNW,292,3.1,6.3,33,0.00,,---,0.00,VWS V14.00,2013-08-18 18:00:00,
2013-08-18 14:01:00,82.2,50.3,29.32,West,270,2.9,3.1,33,0.00,,---,0.00,VWS V14.00,2013-08-18 18:01:00,
2013-08-18 14:02:00,82.2,50.3,29.32,NNW,338,2.9,2.9,33,0.00,,---,0.00,VWS V14.00,2013-08-18 18:02:00,
2013-08-18 14:03:00,82.4,51.2,29.32,NNW,338,4.3,4.3,34,0.00,,---,0.00,VWS V14.00,2013-08-18 18:03:00,
2013-08-18 14:04:00,82.0,50.1,29.32,NNW,338,4.3,4.3,33,0.00,,---,0.00,VWS V14.00,2013-08-18 18:04:00,
2013-08-18 14:05:00,81.7,50.6,29.32,North,0,4.3,4.3,34,0.00,,---,0.00,VWS V14.00,2013-08-18 18:05:00,
2013-08-18 14:06:00,81.7,51.4,29.32,West,270,4.0,4.3,35,0.00,,---,0.00,VWS V14.00,2013-08-18 18:06:00,
2013-08-18 14:07:00,81.9,52.3,29.32,WNW,292,2.9,4.0,36,0.00,,---,0.00,VWS V14.00,2013-08-18 18:07:00,
2013-08-18 14:08:00,81.9,51.5,29.32,NNW,338,3.1,4.7,35,0.00,,---,0.00,VWS V14.00,2013-08-18 18:08:00,
2013-08-18 14:09:00,81.9,51.5,29.32,NNE,22,3.4,4.9,35,0.00,,---,0.00,VWS V14.00,2013-08-18 18:09:00,
2013-08-18 14:10:00,82.0,51.7,29.32,WNW,292,3.6,3.8,35,0.00,,---,0.00,VWS V14.00,2013-08-18 18:10:00,
2013-08-18 14:11:00,82.2,51.9,29.32,SE,135,3.1,4.0,35,0.00,,---,0.00,VWS V14.00,2013-08-18 18:11:00,
2013-08-18 14:12:00,82.2,51.9,29.32,NE,45,3.1,3.8,35,0.00,,---,0.00,VWS V14.00,2013-08-18 18:12:00,
2013-08-18 14:13:00,82.0,50.9,29.32,NNW,338,6.9,6.9,34,0.00,,---,0.00,VWS V14.00,2013-08-18 18:13:00,
2013-08-18 14:14:00,81.9,50.8,29.32,NNE,22,3.4,6.9,34,0.00,,---,0.00,VWS V14.00,2013-08-18 18:14:00,
2013-08-18 14:15:00,81.7,50.6,29.32,North,0,2.9,6.0,34,0.00,,---,0.00,VWS V14.00,2013-08-18 18:15:00,
2013-08-18 14:16:00,81.7,50.6,29.32,NNE,22,2.9,4.3,34,0.00,,---,0.00,VWS V14.00,2013-08-18 18:16:00,
2013-08-18 14:17:00,81.7,50.6,29.32,NNW,338,2.7,3.4,34,0.00,,---,0.00,VWS V14.00,2013-08-18 18:17:00,
2013-08-18 14:18:00,82.0,51.7,29.32,North,0,3.8,4.9,35,0.00,,---,0.00,VWS V14.00,2013-08-18 18:18:00,
2013-08-18 14:19:00,81.9,50.8,29.32,NW,315,4.9,4.9,34,0.00,,---,0.00,VWS V14.00,2013-08-18 18:19:00,
2013-08-18 14:20:00,81.7,50.6,29.32,North,0,2.9,4.9,34,0.00,,---,0.00,VWS V14.00,2013-08-18 18:20:00,
2013-08-18 14:21:00,81.5,51.2,29.32,North,0,2.9,2.9,35,0.00,,---,0.00,VWS V14.00,2013-08-18 18:21:00,
2013-08-18 14:22:00,81.5,51.2,29.32,North,0,2.9,2.9,35,0.00,,---,0.00,VWS V14.00,2013-08-18 18:22:00,
2013-08-18 14:23:00,80.8,50.6,29.32,North,0,2.9,2.9,35,0.00,,---,0.00,VWS V14.00,2013-08-18 18:23:00,
2013-08-18 14:24:00,80.8,50.6,29.32,NE,45,2.7,4.0,35,0.00,,---,0.00,VWS V14.00,2013-08-18 18:24:00,
2013-08-18 14:25:00,80.8,50.6,29.32,NE,45,2.7,2.7,35,0.00,,---,0.00,VWS V14.00,2013-08-18 18:25:00,
2013-08-18 14:26:00,80.8,51.4,29.32,NNE,22,2.7,2.7,36,0.00,,---,0.00,VWS V14.00,2013-08-18 18:26:00,
2013-08-18 14:27:00,80.8,51.4,29.32,NNW,338,3.1,3.1,36,0.00,,---,0.00,VWS V14.00,2013-08-18 18:27:00,
2013-08-18 14:28:00,81.1,52.4,29.32,NNW,338,3.1,3.1,37,0.00,,---,0.00,VWS V14.00,2013-08-18 18:28:00,
2013-08-18 14:29:00,81.1,52.4,29.32,NNW,338,3.1,3.1,37,0.00,,---,0.00,VWS V14.00,2013-08-18 18:29:00,
2013-08-18 14:30:00,81.1,52.4,29.32,NNW,338,3.1,3.1,37,0.00,,---,0.00,VWS V14.00,2013-08-18 18:30:00,
2013-08-18 14:31:00,81.3,53.3,29.32,NNW,338,3.1,3.1,38,0.00,,---,0.00,VWS V14.00,2013-08-18 18:31:00,
2013-08-18 14:32:00,81.3,52.6,29.32,NNW,338,3.1,3.1,37,0.00,,---,0.00,VWS V14.00,2013-08-18 18:32:00,
2013-08-18 14:33:00,81.3,51.8,29.32,NNE,22,5.6,5.6,36,0.00,,---,0.00,VWS V14.00,2013-08-18 18:33:00,
2013-08-18 14:34:00,81.3,51.1,29.32,NNE,22,5.6,5.6,35,0.00,,---,0.00,VWS V14.00,2013-08-18 18:34:00,
2013-08-18 14:35:00,81.0,51.5,29.32,NNE,22,5.6,5.6,36,0.00,,---,0.00,VWS V14.00,2013-08-18 18:35:00,
2013-08-18 14:36:00,81.0,51.5,29.32,WNW,292,3.6,5.6,36,0.00,,---,0.00,VWS V14.00,2013-08-18 18:36:00,
2013-08-18 14:37:00,80.8,51.4,29.32,NNW,338,3.6,4.3,36,0.00,,---,0.00,VWS V14.00,2013-08-18 18:37:00,
2013-08-18 14:38:00,81.0,51.5,29.32,NW,315,5.8,5.8,36,0.00,,---,0.00,VWS V14.00,2013-08-18 18:38:00,
2013-08-18 14:39:00,81.1,50.9,29.32,NW,315,3.1,6.3,35,0.00,,---,0.00,VWS V14.00,2013-08-18 18:39:00,
2013-08-18 14:40:00,81.5,52.0,29.32,North,0,3.1,4.0,36,0.00,,---,0.00,VWS V14.00,2013-08-18 18:40:00,
2013-08-18 14:41:00,82.2,52.6,29.32,ESE,112,3.1,3.1,36,0.00,,---,0.00,VWS V14.00,2013-08-18 18:41:00,
2013-08-18 14:42:00,82.8,55.3,29.32,ENE,68,2.0,3.1,39,0.00,,---,0.00,VWS V14.00,2013-08-18 18:42:00,
2013-08-18 14:43:00,83.3,52.8,29.32,ENE,68,2.9,3.4,35,0.00,,---,0.00,VWS V14.00,2013-08-18 18:43:00,
2013-08-18 14:44:00,83.8,53.3,29.32,SW,225,2.7,3.1,35,0.00,,---,0.00,VWS V14.00,2013-08-18 18:44:00,
2013-08-18 14:45:00,84.2,53.6,29.32,SSE,158,1.1,2.7,35,0.00,,---,0.00,VWS V14.00,2013-08-18 18:45:00,
2013-08-18 14:46:00,84.2,53.6,29.32,NE,45,2.2,3.8,35,0.00,,---,0.00,VWS V14.00,2013-08-18 18:46:00,
2013-08-18 14:47:00,84.2,53.6,29.32,ESE,112,2.0,3.6,35,0.00,,---,0.00,VWS V14.00,2013-08-18 18:47:00,
2013-08-18 14:48:00,85.3,55.3,29.32,WNW,292,2.5,2.5,36,0.00,,---,0.00,VWS V14.00,2013-08-18 18:48:00,
2013-08-18 14:49:00,85.3,55.3,29.32,NNW,338,2.2,4.5,36,0.00,,---,0.00,VWS V14.00,2013-08-18 18:49:00,
2013-08-18 14:50:00,85.3,53.8,29.32,East,90,1.6,3.1,34,0.00,,---,0.00,VWS V14.00,2013-08-18 18:50:00,
2013-08-18 14:51:00,86.2,59.0,29.32,SSE,158,0.9,2.7,40,0.00,,---,0.00,VWS V14.00,2013-08-18 18:51:00,
2013-08-18 14:52:00,86.0,54.4,29.32,NNE,22,2.9,2.9,34,0.00,,---,0.00,VWS V14.00,2013-08-18 18:52:00,
2013-08-18 14:53:00,86.2,52.9,29.32,NNE,22,3.1,3.8,32,0.00,,---,0.00,VWS V14.00,2013-08-18 18:53:00,
2013-08-18 14:54:00,85.6,50.7,29.32,NE,45,4.9,5.8,30,0.00,,---,0.00,VWS V14.00,2013-08-18 18:54:00,
2013-08-18 14:55:00,85.8,50.8,29.32,ENE,68,2.5,4.9,30,0.00,,---,0.00,VWS V14.00,2013-08-18 18:55:00,
2013-08-18 14:56:00,86.0,51.0,29.32,ESE,112,3.1,3.8,30,0.00,,---,0.00,VWS V14.00,2013-08-18 18:56:00,
2013-08-18 14:57:00,85.5,50.5,29.32,NE,45,3.8,3.8,30,0.00,,---,0.00,VWS V14.00,2013-08-18 18:57:00,
2013-08-18 14:58:00,85.3,50.4,29.32,North,0,3.6,4.3,30,0.00,,---,0.00,VWS V14.00,2013-08-18 18:58:00,
2013-08-18 14:59:00,85.3,50.4,29.32,ENE,68,4.3,4.3,30,0.00,,---,0.00,VWS V14.00,2013-08-18 18:59:00,
2013-08-18 15:00:00,85.5,50.5,29.32,NW,315,3.4,4.3,30,0.00,,---,0.00,VWS V14.00,2013-08-18 19:00:00,
2013-08-18 15:01:00,85.6,50.7,29.32,ENE,68,2.5,3.6,30,0.00,,---,0.00,VWS V14.00,2013-08-18 19:01:00,
2013-08-18 15:02:00,85.5,51.4,29.32,ENE,68,4.7,4.7,31,0.00,,---,0.00,VWS V14.00,2013-08-18 19:02:00,
2013-08-18 15:03:00,86.0,51.9,29.32,NE,45,1.6,4.7,31,0.00,,---,0.00,VWS V14.00,2013-08-18 19:03:00,
2013-08-18 15:04:00,86.2,52.9,29.32,ESE,112,4.0,4.0,32,0.00,,---,0.00,VWS V14.00,2013-08-18 19:04:00,
2013-08-18 15:05:00,85.6,51.6,29.32,East,90,2.5,4.3,31,0.00,,---,0.00,VWS V14.00,2013-08-18 19:05:00,
2013-08-18 15:06:00,85.6,50.7,29.32,NNE,22,2.2,4.7,30,0.00,,---,0.00,VWS V14.00,2013-08-18 19:06:00,
2013-08-18 15:07:00,85.6,50.7,29.32,SE,135,3.1,3.1,30,0.00,,---,0.00,VWS V14.00,2013-08-18 19:07:00,
2013-08-18 15:08:00,85.8,51.7,29.32,NNE,22,2.7,3.6,31,0.00,,---,0.00,VWS V14.00,2013-08-18 19:08:00,
2013-08-18 15:09:00,86.0,51.0,29.32,SSW,202,2.0,3.8,30,0.00,,---,0.00,VWS V14.00,2013-08-18 19:09:00,
2013-08-18 15:10:00,86.2,51.1,29.32,North,0,3.6,4.3,30,0.00,,---,0.00,VWS V14.00,2013-08-18 19:10:00,
2013-08-18 15:11:00,86.7,51.6,29.32,WNW,292,2.0,3.6,30,0.00,,---,0.00,VWS V14.00,2013-08-18 19:11:00,
2013-08-18 15:12:00,87.1,52.8,29.32,East,90,2.5,2.5,31,0.00,,---,0.00,VWS V14.00,2013-08-18 19:12:00,
2013-08-18 15:13:00,86.5,50.5,29.32,NNW,338,2.7,2.7,29,0.00,,---,0.00,VWS V14.00,2013-08-18 19:13:00,
2013-08-18 15:14:00,86.0,50.1,29.29,NNW,338,2.7,2.7,29,0.00,,---,0.00,VWS V14.00,2013-08-18 19:14:00,
2013-08-18 15:15:00,86.0,50.1,29.29,NNE,22,2.9,4.3,29,0.00,,---,0.00,VWS V14.00,2013-08-18 19:15:00,
2013-08-18 15:16:00,85.6,50.7,29.29,NNW,338,3.6,4.9,30,0.00,,---,0.00,VWS V14.00,2013-08-18 19:16:00,
2013-08-18 15:17:00,85.6,50.7,29.29,North,0,3.4,4.3,30,0.00,,---,0.00,VWS V14.00,2013-08-18 19:17:00,
2013-08-18 15:18:00,85.6,50.7,29.29,ENE,68,3.8,7.6,30,0.00,,---,0.00,VWS V14.00,2013-08-18 19:18:00,
2013-08-18 15:19:00,85.6,50.7,29.29,NNE,22,4.9,7.6,30,0.00,,---,0.00,VWS V14.00,2013-08-18 19:19:00,
2013-08-18 15:20:00,85.6,50.7,29.29,NNW,338,3.4,4.9,30,0.00,,---,0.00,VWS V14.00,2013-08-18 19:20:00,
2013-08-18 15:21:00,86.0,51.0,29.29,WSW,248,2.0,4.9,30,0.00,,---,0.00,VWS V14.00,2013-08-18 19:21:00,
2013-08-18 15:22:00,85.8,50.8,29.29,WNW,292,2.0,2.0,30,0.00,,---,0.00,VWS V14.00,2013-08-18 19:22:00,
2013-08-18 15:23:00,85.8,50.8,29.29,NW,315,6.3,6.3,30,0.00,,---,0.00,VWS V14.00,2013-08-18 19:23:00,
2013-08-18 15:24:00,85.8,50.8,29.29,NW,315,4.3,6.3,30,0.00,,---,0.00,VWS V14.00,2013-08-18 19:24:00,
2013-08-18 15:25:00,84.7,49.9,29.29,NW,315,4.3,4.3,30,0.00,,---,0.00,VWS V14.00,2013-08-18 19:25:00,
2013-08-18 15:26:00,84.6,49.8,29.29,NNE,22,6.5,6.5,30,0.00,,---,0.00,VWS V14.00,2013-08-18 19:26:00,
2013-08-18 15:27:00,84.2,49.4,29.29,NNW,338,5.4,6.5,30,0.00,,---,0.00,VWS V14.00,2013-08-18 19:27:00,
2013-08-18 15:28:00,84.9,50.1,29.29,NNW,338,1.3,5.4,30,0.00,,---,0.00,VWS V14.00,2013-08-18 19:28:00,
2013-08-18 15:29:00,84.6,49.8,29.29,NNW,338,3.6,3.6,30,0.00,,---,0.00,VWS V14.00,2013-08-18 19:29:00,
2013-08-18 15:30:00,84.6,49.8,29.29,North,0,2.2,3.6,30,0.00,,---,0.00,VWS V14.00,2013-08-18 19:30:00,
2013-08-18 15:31:00,85.3,51.2,29.29,SE,135,0.9,2.2,31,0.00,,---,0.00,VWS V14.00,2013-08-18 19:31:00,
2013-08-18 15:32:00,85.5,51.4,29.29,ENE,68,1.6,1.6,31,0.00,,---,0.00,VWS V14.00,2013-08-18 19:32:00,
2013-08-18 15:33:00,85.5,51.4,29.29,NE,45,2.0,2.7,31,0.00,,---,0.00,VWS V14.00,2013-08-18 19:33:00,
2013-08-18 15:34:00,85.6,50.7,29.29,WNW,292,0.9,2.2,30,0.00,,---,0.00,VWS V14.00,2013-08-18 19:34:00,
2013-08-18 15:35:00,85.6,50.7,29.29,NNE,22,2.7,2.7,30,0.00,,---,0.00,VWS V14.00,2013-08-18 19:35:00,
2013-08-18 15:36:00,85.8,50.8,29.29,ENE,68,3.6,3.6,30,0.00,,---,0.00,VWS V14.00,2013-08-18 19:36:00,
2013-08-18 15:37:00,86.2,51.1,29.29,NNE,22,2.9,4.3,30,0.00,,---,0.00,VWS V14.00,2013-08-18 19:37:00,
2013-08-18 15:38:00,86.2,50.2,29.29,NNE,22,4.0,4.3,29,0.00,,---,0.00,VWS V14.00,2013-08-18 19:38:00,
2013-08-18 15:39:00,86.4,51.3,29.29,NNE,22,3.6,4.0,30,0.00,,---,0.00,VWS V14.00,2013-08-18 19:39:00,
2013-08-18 15:40:00,86.4,51.3,29.29,NE,45,4.3,4.3,30,0.00,,---,0.00,VWS V14.00,2013-08-18 19:40:00,
2013-08-18 15:41:00,86.0,50.1,29.29,NNW,338,2.7,4.3,29,0.00,,---,0.00,VWS V14.00,2013-08-18 19:41:00,
2013-08-18 15:42:00,86.0,50.1,29.29,NE,45,3.6,3.6,29,0.00,,---,0.00,VWS V14.00,2013-08-18 19:42:00,
2013-08-18 15:43:00,85.5,49.6,29.29,ESE,112,3.1,4.0,29,0.00,,---,0.00,VWS V14.00,2013-08-18 19:43:00,
2013-08-18 15:44:00,85.3,49.5,29.29,NNE,22,4.0,4.0,29,0.00,,---,0.00,VWS V14.00,2013-08-18 19:44:00,
2013-08-18 15:45:00,85.3,49.5,29.29,NNE,22,3.1,4.0,29,0.00,,---,0.00,VWS V14.00,2013-08-18 19:45:00,
2013-08-18 15:46:00,85.1,50.2,29.29,NW,315,2.7,3.1,30,0.00,,---,0.00,VWS V14.00,2013-08-18 19:46:00,
2013-08-18 15:47:00,84.9,50.1,29.29,WNW,292,3.6,3.6,30,0.00,,---,0.00,VWS V14.00,2013-08-18 19:47:00,
2013-08-18 15:48:00,84.6,49.8,29.29,NW,315,6.0,6.0,30,0.00,,---,0.00,VWS V14.00,2013-08-18 19:48:00,
2013-08-18 15:49:00,84.6,48.8,29.29,NW,315,6.0,6.0,29,0.00,,---,0.00,VWS V14.00,2013-08-18 19:49:00,
2013-08-18 15:50:00,84.4,49.6,29.29,NW,315,6.0,6.0,30,0.00,,---,0.00,VWS V14.00,2013-08-18 19:50:00,
2013-08-18 15:51:00,84.0,49.3,29.29,NNW,338,4.0,6.0,30,0.00,,---,0.00,VWS V14.00,2013-08-18 19:51:00,
2013-08-18 15:52:00,84.2,49.4,29.29,WNW,292,4.3,4.9,30,0.00,,---,0.00,VWS V14.00,2013-08-18 19:52:00,
2013-08-18 15:53:00,84.2,49.4,29.29,NW,315,2.9,4.3,30,0.00,,---,0.00,VWS V14.00,2013-08-18 19:53:00,
2013-08-18 15:54:00,84.7,49.9,29.29,NW,315,4.9,4.9,30,0.00,,---,0.00,VWS V14.00,2013-08-18 19:54:00,
2013-08-18 15:55:00,84.9,50.1,29.29,NW,315,4.9,4.9,30,0.00,,---,0.00,VWS V14.00,2013-08-18 19:55:00,
2013-08-18 15:56:00,85.3,50.4,29.29,NW,315,4.9,4.9,30,0.00,,---,0.00,VWS V14.00,2013-08-18 19:56:00,
2013-08-18 15:57:00,85.3,50.4,29.29,North,0,3.1,4.9,30,0.00,,---,0.00,VWS V14.00,2013-08-18 19:57:00,
2013-08-18 15:58:00,85.1,50.2,29.29,NNW,338,3.8,3.8,30,0.00,,---,0.00,VWS V14.00,2013-08-18 19:58:00,
2013-08-18 15:59:00,85.1,50.2,29.29,NNW,338,3.8,3.8,30,0.00,,---,0.00,VWS V14.00,2013-08-18 19:59:00,
2013-08-18 16:00:00,85.1,51.1,29.29,ENE,68,2.2,3.8,31,0.00,,---,0.00,VWS V14.00,2013-08-18 20:00:00,
2013-08-18 16:01:00,85.1,51.1,29.29,NE,45,2.7,2.7,31,0.00,,---,0.00,VWS V14.00,2013-08-18 20:01:00,
2013-08-18 16:02:00,85.5,51.4,29.29,WNW,292,3.1,3.1,31,0.00,,---,0.00,VWS V14.00,2013-08-18 20:02:00,
2013-08-18 16:03:00,85.5,51.4,29.29,SW,225,2.5,4.3,31,0.00,,---,0.00,VWS V14.00,2013-08-18 20:03:00,
2013-08-18 16:04:00,85.5,51.4,29.29,NW,315,1.6,2.5,31,0.00,,---,0.00,VWS V14.00,2013-08-18 20:04:00,
2013-08-18 16:05:00,85.5,53.1,29.29,WSW,248,0.9,1.6,33,0.00,,---,0.00,VWS V14.00,2013-08-18 20:05:00,
2013-08-18 16:06:00,85.5,50.5,29.29,NNE,22,2.5,2.5,30,0.00,,---,0.00,VWS V14.00,2013-08-18 20:06:00,
2013-08-18 16:07:00,85.5,50.5,29.29,ESE,112,2.0,2.5,30,0.00,,---,0.00,VWS V14.00,2013-08-18 20:07:00,
2013-08-18 16:08:00,85.5,50.5,29.29,SE,135,2.0,2.0,30,0.00,,---,0.00,VWS V14.00,2013-08-18 20:08:00,
2013-08-18 16:09:00,85.5,50.5,29.29,East,90,3.1,3.1,30,0.00,,---,0.00,VWS V14.00,2013-08-18 20:09:00,
2013-08-18 16:10:00,85.5,50.5,29.29,East,90,3.1,3.1,30,0.00,,---,0.00,VWS V14.00,2013-08-18 20:10:00,
2013-08-18 16:11:00,84.4,48.7,29.29,East,90,3.1,3.1,29,0.00,,---,0.00,VWS V14.00,2013-08-18 20:11:00,
2013-08-18 16:12:00,83.8,49.1,29.29,NW,315,6.0,6.0,30,0.00,,---,0.00,VWS V14.00,2013-08-18 20:12:00,
2013-08-18 16:13:00,83.8,49.1,29.29,NW,315,6.0,6.0,30,0.00,,---,0.00,VWS V14.00,2013-08-18 20:13:00,
2013-08-18 16:14:00,82.8,49.1,29.29,WNW,292,4.3,6.3,31,0.00,,---,0.00,VWS V14.00,2013-08-18 20:14:00,
2013-08-18 16:15:00,82.6,48.9,29.29,WNW,292,4.3,4.3,31,0.00,,---,0.00,VWS V14.00,2013-08-18 20:15:00,
2013-08-18 16:16:00,82.6,48.9,29.29,WNW,292,4.3,4.3,31,0.00,,---,0.00,VWS V14.00,2013-08-18 20:16:00,
2013-08-18 16:17:00,82.2,49.5,29.29,North,0,2.5,4.3,32,0.00,,---,0.00,VWS V14.00,2013-08-18 20:17:00,
2013-08-18 16:18:00,82.4,48.8,29.29,NNE,22,5.6,5.6,31,0.00,,---,0.00,VWS V14.00,2013-08-18 20:18:00,
2013-08-18 16:19:00,82.6,48.9,29.29,NNE,22,5.6,5.6,31,0.00,,---,0.00,VWS V14.00,2013-08-18 20:19:00,
2013-08-18 16:20:00,82.6,48.9,29.29,NNE,22,5.6,5.6,31,0.00,,---,0.00,VWS V14.00,2013-08-18 20:20:00,
2013-08-18 16:21:00,83.5,50.5,29.29,WNW,292,1.6,5.6,32,0.00,,---,0.00,VWS V14.00,2013-08-18 20:21:00,
2013-08-18 16:22:00,83.8,50.9,29.29,WNW,292,1.6,1.6,32,0.00,,---,0.00,VWS V14.00,2013-08-18 20:22:00,
2013-08-18 16:23:00,84.4,51.3,29.29,West,270,3.1,4.0,32,0.00,,---,0.00,VWS V14.00,2013-08-18 20:23:00,
2013-08-18 16:24:00,84.6,51.5,29.29,WNW,292,4.0,4.0,32,0.00,,---,0.00,VWS V14.00,2013-08-18 20:24:00,
2013-08-18 16:25:00,84.9,50.9,29.29,WNW,292,2.7,4.0,31,0.00,,---,0.00,VWS V14.00,2013-08-18 20:25:00,
2013-08-18 16:26:00,84.9,50.9,29.29,WNW,292,2.7,2.7,31,0.00,,---,0.00,VWS V14.00,2013-08-18 20:26:00,
2013-08-18 16:27:00,84.9,50.9,29.29,WNW,292,2.7,2.7,31,0.00,,---,0.00,VWS V14.00,2013-08-18 20:27:00,
2013-08-18 16:28:00,84.9,50.9,29.29,NW,315,3.4,3.4,31,0.00,,---,0.00,VWS V14.00,2013-08-18 20:28:00,
2013-08-18 16:29:00,84.2,50.3,29.29,West,270,2.2,3.4,31,0.00,,---,0.00,VWS V14.00,2013-08-18 20:29:00,
2013-08-18 16:30:00,84.2,50.3,29.29,NW,315,2.9,2.9,31,0.00,,---,0.00,VWS V14.00,2013-08-18 20:30:00,
2013-08-18 16:31:00,84.2,50.3,29.29,NW,315,2.9,2.9,31,0.00,,---,0.00,VWS V14.00,2013-08-18 20:31:00,
2013-08-18 16:32:00,83.1,49.4,29.29,NNW,338,3.6,3.6,31,0.00,,---,0.00,VWS V14.00,2013-08-18 20:32:00,
2013-08-18 16:33:00,83.1,49.4,29.29,North,0,4.0,4.0,31,0.00,,---,0.00,VWS V14.00,2013-08-18 20:33:00,
2013-08-18 16:34:00,82.6,49.8,29.29,North,0,4.0,4.0,32,0.00,,---,0.00,VWS V14.00,2013-08-18 20:34:00,
2013-08-18 16:35:00,82.6,49.8,29.29,NNE,22,3.1,4.3,32,0.00,,---,0.00,VWS V14.00,2013-08-18 20:35:00,
2013-08-18 16:36:00,82.6,49.8,29.29,NE,45,4.0,4.0,32,0.00,,---,0.00,VWS V14.00,2013-08-18 20:36:00,
2013-08-18 16:37:00,82.6,49.8,29.29,NNE,22,1.6,4.0,32,0.00,,---,0.00,VWS V14.00,2013-08-18 20:37:00,
2013-08-18 16:38:00,82.0,50.9,29.29,WNW,292,3.6,3.6,34,0.00,,---,0.00,VWS V14.00,2013-08-18 20:38:00,
2013-08-18 16:39:00,82.0,50.9,29.29,NNW,338,3.1,3.6,34,0.00,,---,0.00,VWS V14.00,2013-08-18 20:39:00,
2013-08-18 16:40:00,82.0,50.9,29.29,NNW,338,3.1,3.1,34,0.00,,---,0.00,VWS V14.00,2013-08-18 20:40:00,
2013-08-18 16:41:00,82.0,50.9,29.29,NNW,338,3.1,3.1,34,0.00,,---,0.00,VWS V14.00,2013-08-18 20:41:00,
2013-08-18 16:42:00,82.0,50.9,29.29,NNW,338,3.1,3.1,34,0.00,,---,0.00,VWS V14.00,2013-08-18 20:42:00,
2013-08-18 16:43:00,82.0,50.9,29.29,North,0,2.9,3.1,34,0.00,,---,0.00,VWS V14.00,2013-08-18 20:43:00,
2013-08-18 16:44:00,81.7,50.6,29.29,NE,45,2.9,2.9,34,0.00,,---,0.00,VWS V14.00,2013-08-18 20:44:00,
2013-08-18 16:45:00,81.7,50.6,29.29,NE,45,2.9,2.9,34,0.00,,---,0.00,VWS V14.00,2013-08-18 20:45:00,
2013-08-18 16:46:00,81.7,51.4,29.29,NE,45,2.9,2.9,35,0.00,,---,0.00,VWS V14.00,2013-08-18 20:46:00,
2013-08-18 16:47:00,81.7,51.4,29.29,NE,45,2.9,2.9,35,0.00,,---,0.00,VWS V14.00,2013-08-18 20:47:00,
2013-08-18 16:48:00,81.7,51.4,29.29,NE,45,2.9,2.9,35,0.00,,---,0.00,VWS V14.00,2013-08-18 20:48:00,
2013-08-18 16:49:00,81.7,51.4,29.29,NW,315,3.8,3.8,35,0.00,,---,0.00,VWS V14.00,2013-08-18 20:49:00,
2013-08-18 16:50:00,81.7,51.4,29.29,NE,45,3.1,3.8,35,0.00,,---,0.00,VWS V14.00,2013-08-18 20:50:00,
2013-08-18 16:51:00,81.7,51.4,29.29,NNE,22,2.9,3.1,35,0.00,,---,0.00,VWS V14.00,2013-08-18 20:51:00,
2013-08-18 16:52:00,82.9,51.7,29.29,NNE,22,3.6,3.6,34,0.00,,---,0.00,VWS V14.00,2013-08-18 20:52:00,
2013-08-18 16:53:00,83.1,51.1,29.29,NNE,22,3.4,3.6,33,0.00,,---,0.00,VWS V14.00,2013-08-18 20:53:00,
2013-08-18 16:54:00,83.1,51.1,29.29,ENE,68,4.0,4.0,33,0.00,,---,0.00,VWS V14.00,2013-08-18 20:54:00,
2013-08-18 16:55:00,83.1,51.1,29.29,NW,315,2.5,4.0,33,0.00,,---,0.00,VWS V14.00,2013-08-18 20:55:00,
2013-08-18 16:56:00,83.5,51.4,29.29,NNW,338,2.9,2.9,33,0.00,,---,0.00,VWS V14.00,2013-08-18 20:56:00,
2013-08-18 16:57:00,83.3,51.2,29.29,WNW,292,2.9,2.9,33,0.00,,---,0.00,VWS V14.00,2013-08-18 20:57:00,
2013-08-18 16:58:00,83.1,50.2,29.29,WNW,292,2.9,2.9,32,0.00,,---,0.00,VWS V14.00,2013-08-18 20:58:00,
2013-08-18 16:59:00,83.1,50.2,29.29,NNE,22,3.8,3.8,32,0.00,,---,0.00,VWS V14.00,2013-08-18 20:59:00,
2013-08-18 17:00:00,83.1,50.2,29.29,NNE,22,3.8,3.8,32,0.00,,---,0.00,VWS V14.00,2013-08-18 21:00:00,
2013-08-18 17:01:00,83.1,50.2,29.29,NNE,22,1.6,3.8,32,0.00,,---,0.00,VWS V14.00,2013-08-18 21:01:00,
2013-08-18 17:02:00,82.2,50.3,29.29,NNE,22,1.6,1.6,33,0.00,,---,0.00,VWS V14.00,2013-08-18 21:02:00,
2013-08-18 17:03:00,82.2,50.3,29.29,NNE,22,1.6,1.6,33,0.00,,---,0.00,VWS V14.00,2013-08-18 21:03:00,
2013-08-18 17:04:00,82.0,50.1,29.29,NNE,22,1.6,1.6,33,0.00,,---,0.00,VWS V14.00,2013-08-18 21:04:00,
2013-08-18 17:05:00,82.0,50.1,29.29,NNE,22,1.6,1.6,33,0.00,,---,0.00,VWS V14.00,2013-08-18 21:05:00,
2013-08-18 17:06:00,81.9,50.8,29.29,West,270,3.4,3.4,34,0.00,,---,0.00,VWS V14.00,2013-08-18 21:06:00,
2013-08-18 17:07:00,81.9,50.8,29.29,West,270,3.4,3.4,34,0.00,,---,0.00,VWS V14.00,2013-08-18 21:07:00,
2013-08-18 17:08:00,81.7,50.6,29.29,West,270,3.4,3.4,34,0.00,,---,0.00,VWS V14.00,2013-08-18 21:08:00,
2013-08-18 17:09:00,81.9,50.8,29.29,West,270,3.4,3.4,34,0.00,,---,0.00,VWS V14.00,2013-08-18 21:09:00,
2013-08-18 17:10:00,81.7,51.4,29.29,West,270,3.4,3.4,35,0.00,,---,0.00,VWS V14.00,2013-08-18 21:10:00,
2013-08-18 17:11:00,81.7,50.6,29.29,West,270,3.4,3.4,34,0.00,,---,0.00,VWS V14.00,2013-08-18 21:11:00,
2013-08-18 17:12:00,81.7,51.4,29.29,West,270,3.4,3.4,35,0.00,,---,0.00,VWS V14.00,2013-08-18 21:12:00,
2013-08-18 17:13:00,81.5,51.2,29.29,West,270,3.4,3.4,35,0.00,,---,0.00,VWS V14.00,2013-08-18 21:13:00,
2013-08-18 17:14:00,81.5,51.2,29.29,West,270,3.4,3.4,35,0.00,,---,0.00,VWS V14.00,2013-08-18 21:14:00,
2013-08-18 17:15:00,81.1,50.9,29.29,West,270,3.4,3.4,35,0.00,,---,0.00,VWS V14.00,2013-08-18 21:15:00,
2013-08-18 17:16:00,81.1,50.9,29.29,West,270,3.4,3.4,35,0.00,,---,0.00,VWS V14.00,2013-08-18 21:16:00,
2013-08-18 17:17:00,81.0,50.8,29.29,West,270,3.4,3.4,35,0.00,,---,0.00,VWS V14.00,2013-08-18 21:17:00,
2013-08-18 17:18:00,81.0,51.5,29.29,West,270,3.4,3.4,36,0.00,,---,0.00,VWS V14.00,2013-08-18 21:18:00,
2013-08-18 17:19:00,81.0,51.5,29.29,West,270,3.4,3.4,36,0.00,,---,0.00,VWS V14.00,2013-08-18 21:19:00,
2013-08-18 17:20:00,81.0,51.5,29.29,West,270,3.4,3.4,36,0.00,,---,0.00,VWS V14.00,2013-08-18 21:20:00,
2013-08-18 17:21:00,81.0,53.0,29.29,West,270,3.4,3.4,38,0.00,,---,0.00,VWS V14.00,2013-08-18 21:21:00,
2013-08-18 17:22:00,81.0,53.0,29.29,West,270,3.4,3.4,38,0.00,,---,0.00,VWS V14.00,2013-08-18 21:22:00,
2013-08-18 17:23:00,81.0,53.0,29.29,West,270,3.4,3.4,38,0.00,,---,0.00,VWS V14.00,2013-08-18 21:23:00,
2013-08-18 17:24:00,81.0,53.0,29.29,West,270,3.4,3.4,38,0.00,,---,0.00,VWS V14.00,2013-08-18 21:24:00,
2013-08-18 17:25:00,81.0,53.0,29.29,West,270,3.4,3.4,38,0.00,,---,0.00,VWS V14.00,2013-08-18 21:25:00,
2013-08-18 17:26:00,81.0,53.0,29.29,West,270,3.4,3.4,38,0.00,,---,0.00,VWS V14.00,2013-08-18 21:26:00,
2013-08-18 17:27:00,80.8,52.1,29.29,West,270,3.4,3.4,37,0.00,,---,0.00,VWS V14.00,2013-08-18 21:27:00,
2013-08-18 17:28:00,80.8,52.1,29.29,West,270,3.4,3.4,37,0.00,,---,0.00,VWS V14.00,2013-08-18 21:28:00,
2013-08-18 17:29:00,81.0,52.3,29.32,West,270,3.4,3.4,37,0.00,,---,0.00,VWS V14.00,2013-08-18 21:29:00,
2013-08-18 17:30:00,81.1,51.7,29.32,West,270,3.4,3.4,36,0.00,,---,0.00,VWS V14.00,2013-08-18 21:30:00,
2013-08-18 17:31:00,81.1,51.7,29.32,West,270,3.4,3.4,36,0.00,,---,0.00,VWS V14.00,2013-08-18 21:31:00,
2013-08-18 17:32:00,81.1,51.7,29.32,West,270,3.4,3.4,36,0.00,,---,0.00,VWS V14.00,2013-08-18 21:32:00,
2013-08-18 17:33:00,81.1,51.7,29.32,West,270,3.4,3.4,36,0.00,,---,0.00,VWS V14.00,2013-08-18 21:33:00,
2013-08-18 17:34:00,81.1,51.7,29.32,West,270,3.4,3.4,36,0.00,,---,0.00,VWS V14.00,2013-08-18 21:34:00,
2013-08-18 17:35:00,81.1,51.7,29.32,West,270,3.4,3.4,36,0.00,,---,0.00,VWS V14.00,2013-08-18 21:35:00,
2013-08-18 17:36:00,81.1,51.7,29.32,West,270,3.4,3.4,36,0.00,,---,0.00,VWS V14.00,2013-08-18 21:36:00,
2013-08-18 17:37:00,80.6,51.2,29.32,West,270,3.4,3.4,36,0.00,,---,0.00,VWS V14.00,2013-08-18 21:37:00,
2013-08-18 17:38:00,80.4,51.8,29.32,West,270,3.4,3.4,37,0.00,,---,0.00,VWS V14.00,2013-08-18 21:38:00,
2013-08-18 17:39:00,80.4,51.8,29.32,West,270,3.4,3.4,37,0.00,,---,0.00,VWS V14.00,2013-08-18 21:39:00,
2013-08-18 17:40:00,80.4,51.8,29.32,West,270,3.4,3.4,37,0.00,,---,0.00,VWS V14.00,2013-08-18 21:40:00,
2013-08-18 17:41:00,80.4,51.8,29.32,West,270,3.4,3.4,37,0.00,,---,0.00,VWS V14.00,2013-08-18 21:41:00,
2013-08-18 17:42:00,80.4,51.8,29.32,West,270,3.4,3.4,37,0.00,,---,0.00,VWS V14.00,2013-08-18 21:42:00,
2013-08-18 17:43:00,79.9,52.0,29.32,West,270,3.4,3.4,38,0.00,,---,0.00,VWS V14.00,2013-08-18 21:43:00,
2013-08-18 17:44:00,79.9,52.0,29.29,West,270,3.4,3.4,38,0.00,,---,0.00,VWS V14.00,2013-08-18 21:44:00,
2013-08-18 17:45:00,79.7,53.3,29.29,West,270,3.4,3.4,40,0.00,,---,0.00,VWS V14.00,2013-08-18 21:45:00,
2013-08-18 17:46:00,79.7,53.3,29.29,West,270,3.4,3.4,40,0.00,,---,0.00,VWS V14.00,2013-08-18 21:46:00,
2013-08-18 17:47:00,79.7,53.3,29.29,West,270,3.4,3.4,40,0.00,,---,0.00,VWS V14.00,2013-08-18 21:47:00,
2013-08-18 17:48:00,79.7,53.3,29.29,West,270,3.4,3.4,40,0.00,,---,0.00,VWS V14.00,2013-08-18 21:48:00,
2013-08-18 17:49:00,79.7,53.3,29.29,West,270,3.4,3.4,40,0.00,,---,0.00,VWS V14.00,2013-08-18 21:49:00,
2013-08-18 17:50:00,79.7,53.9,29.29,West,270,3.4,3.4,41,0.00,,---,0.00,VWS V14.00,2013-08-18 21:50:00,
2013-08-18 17:51:00,79.7,53.9,29.29,West,270,3.4,3.4,41,0.00,,---,0.00,VWS V14.00,2013-08-18 21:51:00,
2013-08-18 17:52:00,79.7,53.9,29.29,West,270,3.4,3.4,41,0.00,,---,0.00,VWS V14.00,2013-08-18 21:52:00,
2013-08-18 17:53:00,79.7,53.9,29.29,West,270,3.4,3.4,41,0.00,,---,0.00,VWS V14.00,2013-08-18 21:53:00,
2013-08-18 17:54:00,79.7,53.9,29.29,West,270,3.4,3.4,41,0.00,,---,0.00,VWS V14.00,2013-08-18 21:54:00,
2013-08-18 17:55:00,79.9,54.1,29.29,West,270,3.4,3.4,41,0.00,,---,0.00,VWS V14.00,2013-08-18 21:55:00,
2013-08-18 17:56:00,79.9,54.1,29.29,West,270,3.4,3.4,41,0.00,,---,0.00,VWS V14.00,2013-08-18 21:56:00,
2013-08-18 17:57:00,79.9,54.1,29.29,West,270,3.4,3.4,41,0.00,,---,0.00,VWS V14.00,2013-08-18 21:57:00,
2013-08-18 17:58:00,79.9,54.1,29.29,West,270,3.4,3.4,41,0.00,,---,0.00,VWS V14.00,2013-08-18 21:58:00,
2013-08-18 17:59:00,79.9,54.1,29.29,West,270,3.4,3.4,41,0.00,,---,0.00,VWS V14.00,2013-08-18 21:59:00,
2013-08-18 18:00:00,79.9,54.1,29.29,West,270,3.4,3.4,41,0.00,,---,0.00,VWS V14.00,2013-08-18 22:00:00,
2013-08-18 18:01:00,79.5,53.1,29.29,West,270,3.4,3.4,40,0.00,,---,0.00,VWS V14.00,2013-08-18 22:01:00,
2013-08-18 18:02:00,79.5,53.1,29.29,West,270,3.4,3.4,40,0.00,,---,0.00,VWS V14.00,2013-08-18 22:02:00,
2013-08-18 18:03:00,79.5,53.1,29.29,West,270,3.4,3.4,40,0.00,,---,0.00,VWS V14.00,2013-08-18 22:03:00,
2013-08-18 18:04:00,79.2,53.5,29.29,West,270,3.4,3.4,41,0.00,,---,0.00,VWS V14.00,2013-08-18 22:04:00,
2013-08-18 18:05:00,79.0,53.3,29.29,West,270,3.4,3.4,41,0.00,,---,0.00,VWS V14.00,2013-08-18 22:05:00,
2013-08-18 18:06:00,79.0,53.3,29.29,West,270,3.4,3.4,41,0.00,,---,0.00,VWS V14.00,2013-08-18 22:06:00,
2013-08-18 18:07:00,78.6,53.6,29.29,ENE,68,2.7,3.4,42,0.00,,---,0.00,VWS V14.00,2013-08-18 22:07:00,
2013-08-18 18:08:00,78.6,54.3,29.29,SE,135,1.6,2.7,43,0.00,,---,0.00,VWS V14.00,2013-08-18 22:08:00,
2013-08-18 18:09:00,78.4,54.7,29.29,SE,135,2.7,2.7,44,0.00,,---,0.00,VWS V14.00,2013-08-18 22:09:00,
2013-08-18 18:10:00,78.3,54.6,29.29,ENE,68,3.4,3.4,44,0.00,,---,0.00,VWS V14.00,2013-08-18 22:10:00,
2013-08-18 18:11:00,78.3,54.6,29.29,NE,45,2.0,3.4,44,0.00,,---,0.00,VWS V14.00,2013-08-18 22:11:00,
2013-08-18 18:12:00,78.1,54.4,29.29,NE,45,4.7,4.7,44,0.00,,---,0.00,VWS V14.00,2013-08-18 22:12:00,
2013-08-18 18:13:00,77.9,54.3,29.29,NE,45,4.7,4.7,44,0.00,,---,0.00,VWS V14.00,2013-08-18 22:13:00,
2013-08-18 18:14:00,77.7,54.1,29.32,ENE,68,4.3,4.7,44,0.00,,---,0.00,VWS V14.00,2013-08-18 22:14:00,
2013-08-18 18:15:00,77.7,54.7,29.32,East,90,4.0,4.3,45,0.00,,---,0.00,VWS V14.00,2013-08-18 22:15:00,
2013-08-18 18:16:00,77.5,54.5,29.32,East,90,4.0,4.0,45,0.00,,---,0.00,VWS V14.00,2013-08-18 22:16:00,
2013-08-18 18:17:00,77.5,54.5,29.32,East,90,4.0,4.0,45,0.00,,---,0.00,VWS V14.00,2013-08-18 22:17:00,
2013-08-18 18:18:00,77.5,54.5,29.32,East,90,4.0,4.0,45,0.00,,---,0.00,VWS V14.00,2013-08-18 22:18:00,
2013-08-18 18:19:00,77.5,55.2,29.32,East,90,4.0,4.0,46,0.00,,---,0.00,VWS V14.00,2013-08-18 22:19:00,
2013-08-18 18:20:00,77.5,55.2,29.32,East,90,4.0,4.0,46,0.00,,---,0.00,VWS V14.00,2013-08-18 22:20:00,
2013-08-18 18:21:00,77.5,55.2,29.32,East,90,4.0,4.0,46,0.00,,---,0.00,VWS V14.00,2013-08-18 22:21:00,
2013-08-18 18:22:00,77.4,55.6,29.32,East,90,4.0,4.0,47,0.00,,---,0.00,VWS V14.00,2013-08-18 22:22:00,
2013-08-18 18:23:00,77.4,55.0,29.32,East,90,4.0,4.0,46,0.00,,---,0.00,VWS V14.00,2013-08-18 22:23:00,
2013-08-18 18:24:00,77.4,55.6,29.32,East,90,4.0,4.0,47,0.00,,---,0.00,VWS V14.00,2013-08-18 22:24:00,
2013-08-18 18:25:00,77.4,55.6,29.32,East,90,4.0,4.0,47,0.00,,---,0.00,VWS V14.00,2013-08-18 22:25:00,
2013-08-18 18:26:00,77.4,55.6,29.32,East,90,4.0,4.0,47,0.00,,---,0.00,VWS V14.00,2013-08-18 22:26:00,
2013-08-18 18:27:00,77.4,56.2,29.32,ENE,68,2.5,4.0,48,0.00,,---,0.00,VWS V14.00,2013-08-18 22:27:00,
2013-08-18 18:28:00,77.4,56.2,29.32,ENE,68,2.5,2.5,48,0.00,,---,0.00,VWS V14.00,2013-08-18 22:28:00,
2013-08-18 18:29:00,77.4,56.2,29.29,ENE,68,2.5,2.5,48,0.00,,---,0.00,VWS V14.00,2013-08-18 22:29:00,
2013-08-18 18:30:00,77.2,56.0,29.29,ENE,68,2.5,2.5,48,0.00,,---,0.00,VWS V14.00,2013-08-18 22:30:00,
2013-08-18 18:31:00,77.2,56.0,29.29,NE,45,4.7,4.7,48,0.00,,---,0.00,VWS V14.00,2013-08-18 22:31:00,
2013-08-18 18:32:00,77.0,55.8,29.29,NE,45,4.7,4.7,48,0.00,,---,0.00,VWS V14.00,2013-08-18 22:32:00,
2013-08-18 18:33:00,76.8,55.7,29.29,ESE,112,4.3,4.7,48,0.00,,---,0.00,VWS V14.00,2013-08-18 22:33:00,
2013-08-18 18:34:00,76.8,55.7,29.29,ENE,68,3.8,4.3,48,0.00,,---,0.00,VWS V14.00,2013-08-18 22:34:00,
2013-08-18 18:35:00,76.8,56.2,29.29,ENE,68,3.8,3.8,49,0.00,,---,0.00,VWS V14.00,2013-08-18 22:35:00,
2013-08-18 18:36:00,76.8,56.2,29.29,ENE,68,3.8,3.8,49,0.00,,---,0.00,VWS V14.00,2013-08-18 22:36:00,
2013-08-18 18:37:00,76.8,56.2,29.29,NNE,22,2.9,3.8,49,0.00,,---,0.00,VWS V14.00,2013-08-18 22:37:00,
2013-08-18 18:38:00,76.6,56.1,29.29,NNE,22,2.9,2.9,49,0.00,,---,0.00,VWS V14.00,2013-08-18 22:38:00,
2013-08-18 18:39:00,76.6,56.1,29.29,NNW,338,4.3,4.3,49,0.00,,---,0.00,VWS V14.00,2013-08-18 22:39:00,
2013-08-18 18:40:00,76.5,56.5,29.29,NNW,338,4.3,4.3,50,0.00,,---,0.00,VWS V14.00,2013-08-18 22:40:00,
2013-08-18 18:41:00,76.5,55.9,29.29,NNW,338,4.3,4.3,49,0.00,,---,0.00,VWS V14.00,2013-08-18 22:41:00,
2013-08-18 18:42:00,76.5,56.5,29.29,NNW,338,4.3,4.3,50,0.00,,---,0.00,VWS V14.00,2013-08-18 22:42:00,
2013-08-18 18:43:00,76.5,56.5,29.29,NNE,22,4.9,4.9,50,0.00,,---,0.00,VWS V14.00,2013-08-18 22:43:00,
2013-08-18 18:44:00,76.5,56.5,29.29,NNE,22,4.9,4.9,50,0.00,,---,0.00,VWS V14.00,2013-08-18 22:44:00,
2013-08-18 18:45:00,76.3,56.3,29.29,NNE,22,4.9,4.9,50,0.00,,---,0.00,VWS V14.00,2013-08-18 22:45:00,
2013-08-18 18:46:00,76.3,56.8,29.29,NE,45,3.6,4.9,51,0.00,,---,0.00,VWS V14.00,2013-08-18 22:46:00,
2013-08-18 18:47:00,76.3,56.8,29.29,SSE,158,2.2,3.6,51,0.00,,---,0.00,VWS V14.00,2013-08-18 22:47:00,
2013-08-18 18:48:00,76.1,56.7,29.29,NNE,22,3.8,3.8,51,0.00,,---,0.00,VWS V14.00,2013-08-18 22:48:00,
2013-08-18 18:49:00,75.9,56.5,29.29,NNE,22,3.8,3.8,51,0.00,,---,0.00,VWS V14.00,2013-08-18 22:49:00,
2013-08-18 18:50:00,75.9,56.5,29.29,NNE,22,3.8,3.8,51,0.00,,---,0.00,VWS V14.00,2013-08-18 22:50:00,
2013-08-18 18:51:00,75.9,57.0,29.29,NE,45,4.0,4.0,52,0.00,,---,0.00,VWS V14.00,2013-08-18 22:51:00,
2013-08-18 18:52:00,75.9,56.5,29.29,NE,45,4.0,4.0,51,0.00,,---,0.00,VWS V14.00,2013-08-18 22:52:00,
2013-08-18 18:53:00,75.7,56.9,29.29,NE,45,3.4,4.0,52,0.00,,---,0.00,VWS V14.00,2013-08-18 22:53:00,
2013-08-18 18:54:00,75.7,56.3,29.29,NE,45,3.4,3.4,51,0.00,,---,0.00,VWS V14.00,2013-08-18 22:54:00,
2013-08-18 18:55:00,75.6,56.7,29.29,NE,45,3.4,3.4,52,0.00,,---,0.00,VWS V14.00,2013-08-18 22:55:00,
2013-08-18 18:56:00,75.6,56.7,29.29,NE,45,3.4,3.4,52,0.00,,---,0.00,VWS V14.00,2013-08-18 22:56:00,
2013-08-18 18:57:00,75.6,56.7,29.29,ENE,68,3.6,3.6,52,0.00,,---,0.00,VWS V14.00,2013-08-18 22:57:00,
2013-08-18 18:58:00,75.6,56.7,29.29,NNE,22,4.0,4.0,52,0.00,,---,0.00,VWS V14.00,2013-08-18 22:58:00,
2013-08-18 18:59:00,75.2,56.9,29.29,NNE,22,4.0,4.0,53,0.00,,---,0.00,VWS V14.00,2013-08-18 22:59:00,
2013-08-18 19:00:00,75.0,57.3,29.29,ENE,68,4.0,4.0,54,0.00,,---,0.00,VWS V14.00,2013-08-18 23:00:00,
2013-08-18 19:01:00,75.0,57.8,29.29,ENE,68,4.0,4.0,55,0.00,,---,0.00,VWS V14.00,2013-08-18 23:01:00,
2013-08-18 19:02:00,75.0,57.8,29.29,ENE,68,3.4,4.0,55,0.00,,---,0.00,VWS V14.00,2013-08-18 23:02:00,
2013-08-18 19:03:00,75.0,58.3,29.29,ENE,68,3.4,3.4,56,0.00,,---,0.00,VWS V14.00,2013-08-18 23:03:00,
2013-08-18 19:04:00,74.8,58.1,29.29,NE,45,5.6,5.6,56,0.00,,---,0.00,VWS V14.00,2013-08-18 23:04:00,
2013-08-18 19:05:00,74.7,57.9,29.29,East,90,5.4,5.6,56,0.00,,---,0.00,VWS V14.00,2013-08-18 23:05:00,
2013-08-18 19:06:00,74.7,58.4,29.29,East,90,5.4,5.4,57,0.00,,---,0.00,VWS V14.00,2013-08-18 23:06:00,
2013-08-18 19:07:00,74.5,57.8,29.29,NE,45,1.6,5.4,56,0.00,,---,0.00,VWS V14.00,2013-08-18 23:07:00,
2013-08-18 19:08:00,74.5,58.3,29.29,NE,45,1.6,1.6,57,0.00,,---,0.00,VWS V14.00,2013-08-18 23:08:00,
2013-08-18 19:09:00,74.3,58.1,29.29,SSE,158,2.9,2.9,57,0.00,,---,0.00,VWS V14.00,2013-08-18 23:09:00,
2013-08-18 19:10:00,74.3,58.1,29.29,NNE,22,3.6,3.6,57,0.00,,---,0.00,VWS V14.00,2013-08-18 23:10:00,
2013-08-18 19:11:00,74.3,58.1,29.29,NNE,22,3.6,3.6,57,0.00,,---,0.00,VWS V14.00,2013-08-18 23:11:00,
2013-08-18 19:12:00,74.3,58.6,29.29,NNW,338,3.8,3.8,58,0.00,,---,0.00,VWS V14.00,2013-08-18 23:12:00,
2013-08-18 19:13:00,74.1,58.4,29.29,NNW,338,3.8,3.8,58,0.00,,---,0.00,VWS V14.00,2013-08-18 23:13:00,
2013-08-18 19:14:00,74.1,58.4,29.32,NNW,338,3.8,3.8,58,0.00,,---,0.00,VWS V14.00,2013-08-18 23:14:00,
2013-08-18 19:15:00,74.1,58.9,29.32,NNE,22,3.8,3.8,59,0.00,,---,0.00,VWS V14.00,2013-08-18 23:15:00,
2013-08-18 19:16:00,74.1,58.9,29.32,NNE,22,3.8,3.8,59,0.00,,---,0.00,VWS V14.00,2013-08-18 23:16:00,
2013-08-18 19:17:00,74.1,58.9,29.32,NNE,22,3.8,3.8,59,0.00,,---,0.00,VWS V14.00,2013-08-18 23:17:00,
2013-08-18 19:18:00,73.9,58.7,29.32,NNE,22,3.8,3.8,59,0.00,,---,0.00,VWS V14.00,2013-08-18 23:18:00,
2013-08-18 19:19:00,73.9,59.2,29.32,NNE,22,3.8,3.8,60,0.00,,---,0.00,VWS V14.00,2013-08-18 23:19:00,
2013-08-18 19:20:00,73.9,58.7,29.32,NNE,22,4.9,4.9,59,0.00,,---,0.00,VWS V14.00,2013-08-18 23:20:00,
2013-08-18 19:21:00,73.8,58.5,29.32,NE,45,3.1,4.9,59,0.00,,---,0.00,VWS V14.00,2013-08-18 23:21:00,
2013-08-18 19:22:00,73.8,59.0,29.32,NE,45,3.1,3.1,60,0.00,,---,0.00,VWS V14.00,2013-08-18 23:22:00,
2013-08-18 19:23:00,73.8,59.5,29.32,NNE,22,2.9,4.0,61,0.00,,---,0.00,VWS V14.00,2013-08-18 23:23:00,
2013-08-18 19:24:00,73.6,59.3,29.32,ESE,112,2.0,4.0,61,0.00,,---,0.00,VWS V14.00,2013-08-18 23:24:00,
2013-08-18 19:25:00,73.6,59.3,29.32,ENE,68,2.5,2.5,61,0.00,,---,0.00,VWS V14.00,2013-08-18 23:25:00,
2013-08-18 19:26:00,73.6,59.3,29.32,NNE,22,2.5,2.5,61,0.00,,---,0.00,VWS V14.00,2013-08-18 23:26:00,
2013-08-18 19:27:00,73.6,59.3,29.32,NNE,22,2.5,2.5,61,0.00,,---,0.00,VWS V14.00,2013-08-18 23:27:00,
2013-08-18 19:28:00,73.6,59.8,29.32,NNE,22,2.5,2.5,62,0.00,,---,0.00,VWS V14.00,2013-08-18 23:28:00,
2013-08-18 19:29:00,73.4,59.2,29.32,NNE,22,2.5,2.5,61,0.00,,---,0.00,VWS V14.00,2013-08-18 23:29:00,
2013-08-18 19:30:00,73.4,59.6,29.32,NNE,22,3.6,3.6,62,0.00,,---,0.00,VWS V14.00,2013-08-18 23:30:00,
2013-08-18 19:31:00,73.2,59.4,29.32,East,90,2.5,3.6,62,0.00,,---,0.00,VWS V14.00,2013-08-18 23:31:00,
2013-08-18 19:32:00,73.2,59.4,29.32,East,90,2.5,2.5,62,0.00,,---,0.00,VWS V14.00,2013-08-18 23:32:00,
2013-08-18 19:33:00,73.0,59.3,29.32,NE,45,2.7,2.7,62,0.00,,---,0.00,VWS V14.00,2013-08-18 23:33:00,
2013-08-18 19:34:00,73.0,59.7,29.32,NE,45,2.7,2.7,63,0.00,,---,0.00,VWS V14.00,2013-08-18 23:34:00,
2013-08-18 19:35:00,73.0,59.7,29.32,NE,45,2.7,2.7,63,0.00,,---,0.00,VWS V14.00,2013-08-18 23:35:00,
2013-08-18 19:36:00,73.0,59.7,29.32,NW,315,2.7,2.7,63,0.00,,---,0.00,VWS V14.00,2013-08-18 23:36:00,
2013-08-18 19:37:00,73.0,59.7,29.32,NW,315,2.7,2.7,63,0.00,,---,0.00,VWS V14.00,2013-08-18 23:37:00,
2013-08-18 19:38:00,72.9,59.5,29.32,NW,315,2.7,2.7,63,0.00,,---,0.00,VWS V14.00,2013-08-18 23:38:00,
2013-08-18 19:39:00,72.9,59.5,29.32,ESE,112,2.2,2.7,63,0.00,,---,0.00,VWS V14.00,2013-08-18 23:39:00,
2013-08-18 19:40:00,72.9,59.5,29.32,ENE,68,3.4,3.4,63,0.00,,---,0.00,VWS V14.00,2013-08-18 23:40:00,
2013-08-18 19:41:00,72.9,59.5,29.32,ENE,68,3.4,3.4,63,0.00,,---,0.00,VWS V14.00,2013-08-18 23:41:00,
2013-08-18 19:42:00,72.9,59.5,29.32,ENE,68,3.4,3.4,63,0.00,,---,0.00,VWS V14.00,2013-08-18 23:42:00,
2013-08-18 19:43:00,72.9,59.5,29.32,ENE,68,2.7,3.4,63,0.00,,---,0.00,VWS V14.00,2013-08-18 23:43:00,
2013-08-18 19:44:00,72.9,60.0,29.32,NE,45,3.6,4.3,64,0.00,,---,0.00,VWS V14.00,2013-08-18 23:44:00,
2013-08-18 19:45:00,72.7,59.8,29.32,NNE,22,4.9,4.9,64,0.00,,---,0.00,VWS V14.00,2013-08-18 23:45:00,
2013-08-18 19:46:00,72.5,59.6,29.32,NNE,22,7.2,7.2,64,0.00,,---,0.00,VWS V14.00,2013-08-18 23:46:00,
2013-08-18 19:47:00,72.5,59.6,29.32,NNE,22,7.2,7.2,64,0.00,,---,0.00,VWS V14.00,2013-08-18 23:47:00,
2013-08-18 19:48:00,72.5,59.6,29.32,NNE,22,7.2,7.2,64,0.00,,---,0.00,VWS V14.00,2013-08-18 23:48:00,
2013-08-18 19:49:00,72.5,59.6,29.32,NE,45,3.1,7.2,64,0.00,,---,0.00,VWS V14.00,2013-08-18 23:49:00,
2013-08-18 19:50:00,72.3,59.9,29.32,NE,45,3.1,3.1,65,0.00,,---,0.00,VWS V14.00,2013-08-18 23:50:00,
2013-08-18 19:51:00,72.3,59.9,29.32,NE,45,3.1,3.1,65,0.00,,---,0.00,VWS V14.00,2013-08-18 23:51:00,
2013-08-18 19:52:00,72.3,59.9,29.32,NE,45,3.1,3.1,65,0.00,,---,0.00,VWS V14.00,2013-08-18 23:52:00,
2013-08-18 19:53:00,72.3,59.9,29.32,NE,45,3.1,3.1,65,0.00,,---,0.00,VWS V14.00,2013-08-18 23:53:00,
2013-08-18 19:54:00,72.3,59.9,29.32,NE,45,3.1,3.1,65,0.00,,---,0.00,VWS V14.00,2013-08-18 23:54:00,
2013-08-18 19:55:00,72.3,59.9,29.32,NNE,22,1.6,3.1,65,0.00,,---,0.00,VWS V14.00,2013-08-18 23:55:00,
2013-08-18 19:56:00,72.3,60.3,29.32,NE,45,4.7,4.7,66,0.00,,---,0.00,VWS V14.00,2013-08-18 23:56:00,
2013-08-18 19:57:00,72.3,60.3,29.32,ENE,68,4.0,4.7,66,0.00,,---,0.00,VWS V14.00,2013-08-18 23:57:00,
2013-08-18 19:58:00,72.1,60.2,29.32,NE,45,2.5,4.0,66,0.00,,---,0.00,VWS V14.00,2013-08-18 23:58:00,
2013-08-18 19:59:00,72.1,60.2,29.32,NE,45,2.5,2.5,66,0.00,,---,0.00,VWS V14.00,2013-08-18 23:59:00,
2013-08-18 20:00:00,72.1,60.2,29.32,East,90,2.9,2.9,66,0.00,,---,0.00,VWS V14.00,2013-08-19 00:00:00,
2013-08-18 20:01:00,72.1,60.6,29.32,East,90,2.9,2.9,67,0.00,,---,0.00,VWS V14.00,2013-08-19 00:01:00,
2013-08-18 20:02:00,72.1,60.6,29.32,ENE,68,4.0,4.0,67,0.00,,---,0.00,VWS V14.00,2013-08-19 00:02:00,
2013-08-18 20:03:00,72.0,60.4,29.32,ENE,68,3.6,4.0,67,0.00,,---,0.00,VWS V14.00,2013-08-19 00:03:00,
2013-08-18 20:04:00,72.0,60.4,29.32,ENE,68,2.2,3.6,67,0.00,,---,0.00,VWS V14.00,2013-08-19 00:04:00,
2013-08-18 20:05:00,72.0,60.4,29.32,NE,45,1.1,2.2,67,0.00,,---,0.00,VWS V14.00,2013-08-19 00:05:00,
2013-08-18 20:06:00,72.0,60.4,29.32,ENE,68,2.0,2.0,67,0.00,,---,0.00,VWS V14.00,2013-08-19 00:06:00,
2013-08-18 20:07:00,72.0,60.4,29.32,ENE,68,2.0,2.0,67,0.00,,---,0.00,VWS V14.00,2013-08-19 00:07:00,
2013-08-18 20:08:00,72.0,60.8,29.32,NE,45,2.9,4.5,68,0.00,,---,0.00,VWS V14.00,2013-08-19 00:08:00,
2013-08-18 20:09:00,71.8,60.7,29.32,NE,45,2.9,2.9,68,0.00,,---,0.00,VWS V14.00,2013-08-19 00:09:00,
2013-08-18 20:10:00,72.0,60.8,29.32,ESE,112,3.1,3.1,68,0.00,,---,0.00,VWS V14.00,2013-08-19 00:10:00,
2013-08-18 20:11:00,72.0,60.8,29.32,ESE,112,3.1,3.1,68,0.00,,---,0.00,VWS V14.00,2013-08-19 00:11:00,
2013-08-18 20:12:00,72.0,60.8,29.32,NNE,22,2.7,3.1,68,0.00,,---,0.00,VWS V14.00,2013-08-19 00:12:00,
2013-08-18 20:13:00,71.8,61.1,29.32,NNE,22,3.6,3.6,69,0.00,,---,0.00,VWS V14.00,2013-08-19 00:13:00,
2013-08-18 20:14:00,71.8,61.1,29.32,ENE,68,2.9,3.6,69,0.00,,---,0.00,VWS V14.00,2013-08-19 00:14:00,
2013-08-18 20:15:00,71.8,61.1,29.29,NNW,338,2.9,2.9,69,0.00,,---,0.00,VWS V14.00,2013-08-19 00:15:00,
2013-08-18 20:16:00,71.8,61.1,29.29,NNW,338,2.9,2.9,69,0.00,,---,0.00,VWS V14.00,2013-08-19 00:16:00,
2013-08-18 20:17:00,71.8,61.1,29.29,NNW,338,2.9,2.9,69,0.00,,---,0.00,VWS V14.00,2013-08-19 00:17:00,
2013-08-18 20:18:00,71.6,60.9,29.29,ENE,68,4.0,4.0,69,0.00,,---,0.00,VWS V14.00,2013-08-19 00:18:00,
2013-08-18 20:19:00,71.6,60.9,29.29,East,90,4.0,4.0,69,0.00,,---,0.00,VWS V14.00,2013-08-19 00:19:00,
2013-08-18 20:20:00,71.6,60.9,29.29,NNE,22,3.4,4.0,69,0.00,,---,0.00,VWS V14.00,2013-08-19 00:20:00,
2013-08-18 20:21:00,71.6,60.9,29.29,NE,45,2.5,3.4,69,0.00,,---,0.00,VWS V14.00,2013-08-19 00:21:00,
2013-08-18 20:22:00,71.6,60.9,29.29,ENE,68,3.6,6.0,69,0.00,,---,0.00,VWS V14.00,2013-08-19 00:22:00,
2013-08-18 20:23:00,71.6,60.9,29.29,ENE,68,3.6,3.6,69,0.00,,---,0.00,VWS V14.00,2013-08-19 00:23:00,
2013-08-18 20:24:00,71.6,60.9,29.29,SE,135,2.9,3.6,69,0.00,,---,0.00,VWS V14.00,2013-08-19 00:24:00,
2013-08-18 20:25:00,71.4,61.1,29.29,East,90,3.6,3.6,70,0.00,,---,0.00,VWS V14.00,2013-08-19 00:25:00,
2013-08-18 20:26:00,71.4,61.1,29.29,SE,135,3.4,3.6,70,0.00,,---,0.00,VWS V14.00,2013-08-19 00:26:00,
2013-08-18 20:27:00,71.4,61.1,29.29,SE,135,3.4,3.4,70,0.00,,---,0.00,VWS V14.00,2013-08-19 00:27:00,
2013-08-18 20:28:00,71.4,61.1,29.29,North,0,5.4,5.4,70,0.00,,---,0.00,VWS V14.00,2013-08-19 00:28:00,
2013-08-18 20:29:00,71.4,61.1,29.32,NNE,22,2.7,5.4,70,0.00,,---,0.00,VWS V14.00,2013-08-19 00:29:00,
2013-08-18 20:30:00,71.4,61.5,29.32,NNE,22,2.7,2.7,71,0.00,,---,0.00,VWS V14.00,2013-08-19 00:30:00,
2013-08-18 20:31:00,71.2,61.4,29.32,NNE,22,2.7,2.7,71,0.00,,---,0.00,VWS V14.00,2013-08-19 00:31:00,
2013-08-18 20:32:00,71.2,61.0,29.32,NNE,22,2.7,2.7,70,0.00,,---,0.00,VWS V14.00,2013-08-19 00:32:00,
2013-08-18 20:33:00,71.2,61.0,29.32,NNE,22,2.7,2.7,70,0.00,,---,0.00,VWS V14.00,2013-08-19 00:33:00,
2013-08-18 20:34:00,71.2,61.4,29.32,NNE,22,2.7,2.7,71,0.00,,---,0.00,VWS V14.00,2013-08-19 00:34:00,
2013-08-18 20:35:00,71.2,61.4,29.32,NNE,22,2.7,2.7,71,0.00,,---,0.00,VWS V14.00,2013-08-19 00:35:00,
2013-08-18 20:36:00,71.2,61.4,29.32,NNE,22,2.7,2.7,71,0.00,,---,0.00,VWS V14.00,2013-08-19 00:36:00,
2013-08-18 20:37:00,71.1,61.2,29.32,ENE,68,4.0,4.0,71,0.00,,---,0.00,VWS V14.00,2013-08-19 00:37:00,
2013-08-18 20:38:00,71.1,61.2,29.32,ENE,68,2.9,4.0,71,0.00,,---,0.00,VWS V14.00,2013-08-19 00:38:00,
2013-08-18 20:39:00,71.1,61.6,29.32,NE,45,2.0,2.9,72,0.00,,---,0.00,VWS V14.00,2013-08-19 00:39:00,
2013-08-18 20:40:00,71.1,61.6,29.32,NE,45,2.7,3.8,72,0.00,,---,0.00,VWS V14.00,2013-08-19 00:40:00,
2013-08-18 20:41:00,71.1,61.6,29.32,ENE,68,3.4,4.3,72,0.00,,---,0.00,VWS V14.00,2013-08-19 00:41:00,
2013-08-18 20:42:00,71.1,61.6,29.32,East,90,2.9,4.3,72,0.00,,---,0.00,VWS V14.00,2013-08-19 00:42:00,
2013-08-18 20:43:00,71.1,61.6,29.32,ENE,68,3.1,3.1,72,0.00,,---,0.00,VWS V14.00,2013-08-19 00:43:00,
2013-08-18 20:44:00,71.1,61.6,29.32,ENE,68,3.1,3.1,72,0.00,,---,0.00,VWS V14.00,2013-08-19 00:44:00,
2013-08-18 20:45:00,71.1,61.6,29.32,ENE,68,1.3,3.1,72,0.00,,---,0.00,VWS V14.00,2013-08-19 00:45:00,
2013-08-18 20:46:00,71.1,61.6,29.32,ENE,68,3.4,3.4,72,0.00,,---,0.00,VWS V14.00,2013-08-19 00:46:00,
2013-08-18 20:47:00,71.1,61.6,29.32,ENE,68,3.4,3.4,72,0.00,,---,0.00,VWS V14.00,2013-08-19 00:47:00,
2013-08-18 20:48:00,71.1,61.6,29.32,ENE,68,3.4,3.4,72,0.00,,---,0.00,VWS V14.00,2013-08-19 00:48:00,
2013-08-18 20:49:00,71.1,61.2,29.32,ENE,68,3.4,3.4,71,0.00,,---,0.00,VWS V14.00,2013-08-19 00:49:00,
2013-08-18 20:50:00,71.1,61.2,29.32,ENE,68,3.4,3.4,71,0.00,,---,0.00,VWS V14.00,2013-08-19 00:50:00,
2013-08-18 20:51:00,71.1,61.6,29.32,ENE,68,3.4,3.4,72,0.00,,---,0.00,VWS V14.00,2013-08-19 00:51:00,
2013-08-18 20:52:00,71.1,61.2,29.32,NNE,22,6.0,6.0,71,0.00,,---,0.00,VWS V14.00,2013-08-19 00:52:00,
2013-08-18 20:53:00,70.9,61.4,29.32,NE,45,2.9,6.0,72,0.00,,---,0.00,VWS V14.00,2013-08-19 00:53:00,
2013-08-18 20:54:00,70.9,61.4,29.32,NE,45,2.9,2.9,72,0.00,,---,0.00,VWS V14.00,2013-08-19 00:54:00,
2013-08-18 20:55:00,70.9,61.4,29.32,NE,45,2.9,2.9,72,0.00,,---,0.00,VWS V14.00,2013-08-19 00:55:00,
2013-08-18 20:56:00,70.9,61.4,29.32,NE,45,2.9,2.9,72,0.00,,---,0.00,VWS V14.00,2013-08-19 00:56:00,
2013-08-18 20:57:00,70.9,61.4,29.32,WSW,248,2.7,2.9,72,0.00,,---,0.00,VWS V14.00,2013-08-19 00:57:00,
2013-08-18 20:58:00,70.9,61.4,29.32,WSW,248,2.7,2.7,72,0.00,,---,0.00,VWS V14.00,2013-08-19 00:58:00,
2013-08-18 20:59:00,70.9,61.4,29.32,SE,135,3.1,3.1,72,0.00,,---,0.00,VWS V14.00,2013-08-19 00:59:00,
2013-08-18 21:00:00,70.9,61.4,29.32,NE,45,4.0,4.0,72,0.00,,---,0.00,VWS V14.00,2013-08-19 01:00:00,
2013-08-18 21:01:00,70.9,61.4,29.32,NE,45,4.0,4.0,72,0.00,,---,0.00,VWS V14.00,2013-08-19 01:01:00,
2013-08-18 21:02:00,70.7,61.2,29.32,NE,45,4.0,4.0,72,0.00,,---,0.00,VWS V14.00,2013-08-19 01:02:00,
2013-08-18 21:03:00,70.7,61.2,29.32,SSE,158,2.0,4.0,72,0.00,,---,0.00,VWS V14.00,2013-08-19 01:03:00,
2013-08-18 21:04:00,70.7,61.2,29.32,SSE,158,2.0,2.0,72,0.00,,---,0.00,VWS V14.00,2013-08-19 01:04:00,
2013-08-18 21:05:00,70.7,61.2,29.32,SSE,158,2.0,2.0,72,0.00,,---,0.00,VWS V14.00,2013-08-19 01:05:00,
2013-08-18 21:06:00,70.7,61.2,29.32,SSE,158,2.0,2.0,72,0.00,,---,0.00,VWS V14.00,2013-08-19 01:06:00,
2013-08-18 21:07:00,70.7,61.2,29.32,SSE,158,2.0,2.0,72,0.00,,---,0.00,VWS V14.00,2013-08-19 01:07:00,
2013-08-18 21:08:00,70.7,61.2,29.32,SSE,158,2.0,2.0,72,0.00,,---,0.00,VWS V14.00,2013-08-19 01:08:00,
2013-08-18 21:09:00,70.7,61.6,29.32,SSE,158,2.0,2.0,73,0.00,,---,0.00,VWS V14.00,2013-08-19 01:09:00,
2013-08-18 21:10:00,70.7,61.6,29.32,NNE,22,3.1,3.1,73,0.00,,---,0.00,VWS V14.00,2013-08-19 01:10:00,
2013-08-18 21:11:00,70.7,61.6,29.32,NNE,22,2.7,3.1,73,0.00,,---,0.00,VWS V14.00,2013-08-19 01:11:00,
2013-08-18 21:12:00,70.7,61.6,29.32,NNE,22,2.7,2.7,73,0.00,,---,0.00,VWS V14.00,2013-08-19 01:12:00,
2013-08-18 21:13:00,70.5,61.1,29.32,NNE,22,2.7,2.7,72,0.00,,---,0.00,VWS V14.00,2013-08-19 01:13:00,
2013-08-18 21:14:00,70.5,61.1,29.32,NNE,22,2.7,2.7,72,0.00,,---,0.00,VWS V14.00,2013-08-19 01:14:00,
2013-08-18 21:15:00,70.5,61.1,29.32,NNE,22,2.7,2.7,72,0.00,,---,0.00,VWS V14.00,2013-08-19 01:15:00,
2013-08-18 21:16:00,70.5,61.1,29.32,NNE,22,2.7,2.7,72,0.00,,---,0.00,VWS V14.00,2013-08-19 01:16:00,
2013-08-18 21:17:00,70.5,61.1,29.32,NNE,22,2.0,2.7,72,0.00,,---,0.00,VWS V14.00,2013-08-19 01:17:00,
2013-08-18 21:18:00,70.7,61.2,29.32,NNE,22,2.0,2.0,72,0.00,,---,0.00,VWS V14.00,2013-08-19 01:18:00,
2013-08-18 21:19:00,70.5,61.1,29.32,NE,45,4.9,4.9,72,0.00,,---,0.00,VWS V14.00,2013-08-19 01:19:00,
2013-08-18 21:20:00,70.5,60.7,29.32,East,90,7.4,7.4,71,0.00,,---,0.00,VWS V14.00,2013-08-19 01:20:00,
2013-08-18 21:21:00,70.5,60.7,29.32,NE,45,2.5,7.4,71,0.00,,---,0.00,VWS V14.00,2013-08-19 01:21:00,
2013-08-18 21:22:00,70.5,60.7,29.32,NE,45,2.5,2.5,71,0.00,,---,0.00,VWS V14.00,2013-08-19 01:22:00,
2013-08-18 21:23:00,70.5,60.7,29.32,NE,45,2.5,2.5,71,0.00,,---,0.00,VWS V14.00,2013-08-19 01:23:00,
2013-08-18 21:24:00,70.7,60.8,29.32,NE,45,2.7,2.7,71,0.00,,---,0.00,VWS V14.00,2013-08-19 01:24:00,
2013-08-18 21:25:00,70.7,60.8,29.32,NE,45,2.7,2.7,71,0.00,,---,0.00,VWS V14.00,2013-08-19 01:25:00,
2013-08-18 21:26:00,70.7,60.8,29.32,NE,45,2.7,2.7,71,0.00,,---,0.00,VWS V14.00,2013-08-19 01:26:00,
2013-08-18 21:27:00,70.5,60.7,29.32,NE,45,2.7,2.7,71,0.00,,---,0.00,VWS V14.00,2013-08-19 01:27:00,
2013-08-18 21:28:00,70.5,60.7,29.32,NE,45,2.7,2.7,71,0.00,,---,0.00,VWS V14.00,2013-08-19 01:28:00,
2013-08-18 21:29:00,70.5,60.7,29.32,NE,45,2.7,2.7,71,0.00,,---,0.00,VWS V14.00,2013-08-19 01:29:00,
2013-08-18 21:30:00,70.5,60.7,29.32,NE,45,2.7,2.7,71,0.00,,---,0.00,VWS V14.00,2013-08-19 01:30:00,
2013-08-18 21:31:00,70.3,60.5,29.32,SE,135,3.6,3.6,71,0.00,,---,0.00,VWS V14.00,2013-08-19 01:31:00,
2013-08-18 21:32:00,70.3,60.5,29.32,NE,45,3.1,3.6,71,0.00,,---,0.00,VWS V14.00,2013-08-19 01:32:00,
2013-08-18 21:33:00,70.3,60.5,29.32,NE,45,3.1,3.1,71,0.00,,---,0.00,VWS V14.00,2013-08-19 01:33:00,
2013-08-18 21:34:00,70.5,60.7,29.32,NE,45,3.1,3.1,71,0.00,,---,0.00,VWS V14.00,2013-08-19 01:34:00,
2013-08-18 21:35:00,70.3,60.5,29.32,ENE,68,4.9,4.9,71,0.00,,---,0.00,VWS V14.00,2013-08-19 01:35:00,
2013-08-18 21:36:00,70.3,60.5,29.32,ENE,68,4.9,4.9,71,0.00,,---,0.00,VWS V14.00,2013-08-19 01:36:00,
2013-08-18 21:37:00,70.3,60.5,29.32,ENE,68,4.9,4.9,71,0.00,,---,0.00,VWS V14.00,2013-08-19 01:37:00,
2013-08-18 21:38:00,70.3,60.5,29.32,ESE,112,2.7,4.9,71,0.00,,---,0.00,VWS V14.00,2013-08-19 01:38:00,
2013-08-18 21:39:00,70.2,60.3,29.32,ESE,112,2.7,2.7,71,0.00,,---,0.00,VWS V14.00,2013-08-19 01:39:00,
2013-08-18 21:40:00,70.2,60.3,29.32,ESE,112,2.7,2.7,71,0.00,,---,0.00,VWS V14.00,2013-08-19 01:40:00,
2013-08-18 21:41:00,70.2,60.3,29.32,ESE,112,2.7,2.7,71,0.00,,---,0.00,VWS V14.00,2013-08-19 01:41:00,
2013-08-18 21:42:00,70.2,60.3,29.32,ESE,112,2.7,2.7,71,0.00,,---,0.00,VWS V14.00,2013-08-19 01:42:00,
2013-08-18 21:43:00,70.2,60.7,29.32,ESE,112,2.7,2.7,72,0.00,,---,0.00,VWS V14.00,2013-08-19 01:43:00,
2013-08-18 21:44:00,70.2,60.7,29.32,ESE,112,2.7,2.7,72,0.00,,---,0.00,VWS V14.00,2013-08-19 01:44:00,
2013-08-18 21:45:00,70.2,60.7,29.32,ESE,112,2.7,2.7,72,0.00,,---,0.00,VWS V14.00,2013-08-19 01:45:00,
2013-08-18 21:46:00,70.0,60.5,29.32,ESE,112,2.7,2.7,72,0.00,,---,0.00,VWS V14.00,2013-08-19 01:46:00,
2013-08-18 21:47:00,70.0,60.5,29.32,ESE,112,2.7,2.7,72,0.00,,---,0.00,VWS V14.00,2013-08-19 01:47:00,
2013-08-18 21:48:00,70.0,60.5,29.32,ESE,112,2.7,2.7,72,0.00,,---,0.00,VWS V14.00,2013-08-19 01:48:00,
2013-08-18 21:49:00,70.0,60.5,29.32,ESE,112,2.7,2.7,72,0.00,,---,0.00,VWS V14.00,2013-08-19 01:49:00,
2013-08-18 21:50:00,70.0,60.5,29.32,ESE,112,2.7,2.7,72,0.00,,---,0.00,VWS V14.00,2013-08-19 01:50:00,
2013-08-18 21:51:00,70.0,60.5,29.32,ESE,112,2.7,2.7,72,0.00,,---,0.00,VWS V14.00,2013-08-19 01:51:00,
2013-08-18 21:52:00,70.0,60.5,29.32,ESE,112,2.7,2.7,72,0.00,,---,0.00,VWS V14.00,2013-08-19 01:52:00,
2013-08-18 21:53:00,70.0,60.5,29.32,NE,45,2.9,3.8,72,0.00,,---,0.00,VWS V14.00,2013-08-19 01:53:00,
2013-08-18 21:54:00,69.8,60.4,29.32,NE,45,2.9,2.9,72,0.00,,---,0.00,VWS V14.00,2013-08-19 01:54:00,
2013-08-18 21:55:00,69.8,60.8,29.32,NE,45,2.9,2.9,73,0.00,,---,0.00,VWS V14.00,2013-08-19 01:55:00,
2013-08-18 21:56:00,69.8,60.8,29.32,NNE,22,4.3,4.3,73,0.00,,---,0.00,VWS V14.00,2013-08-19 01:56:00,
2013-08-18 21:57:00,69.8,60.8,29.32,NNE,22,4.3,4.3,73,0.00,,---,0.00,VWS V14.00,2013-08-19 01:57:00,
2013-08-18 21:58:00,69.8,60.8,29.32,NNE,22,4.3,4.3,73,0.00,,---,0.00,VWS V14.00,2013-08-19 01:58:00,
2013-08-18 21:59:00,69.8,60.8,29.32,NNE,22,4.3,4.3,73,0.00,,---,0.00,VWS V14.00,2013-08-19 01:59:00,
2013-08-18 22:00:00,70.0,60.9,29.32,NNE,22,4.3,4.3,73,0.00,,---,0.00,VWS V14.00,2013-08-19 02:00:00,
2013-08-18 22:01:00,69.8,60.8,29.32,NNE,22,4.3,4.3,73,0.00,,---,0.00,VWS V14.00,2013-08-19 02:01:00,
2013-08-18 22:02:00,69.8,60.8,29.32,SSE,158,2.0,4.3,73,0.00,,---,0.00,VWS V14.00,2013-08-19 02:02:00,
2013-08-18 22:03:00,69.8,60.8,29.32,NNE,22,4.0,4.0,73,0.00,,---,0.00,VWS V14.00,2013-08-19 02:03:00,
2013-08-18 22:04:00,69.8,60.8,29.32,East,90,2.5,4.0,73,0.00,,---,0.00,VWS V14.00,2013-08-19 02:04:00,
2013-08-18 22:05:00,69.8,60.8,29.32,East,90,2.5,2.5,73,0.00,,---,0.00,VWS V14.00,2013-08-19 02:05:00,
2013-08-18 22:06:00,69.8,60.8,29.32,East,90,2.5,2.5,73,0.00,,---,0.00,VWS V14.00,2013-08-19 02:06:00,
2013-08-18 22:07:00,69.8,60.8,29.32,East,90,2.5,2.5,73,0.00,,---,0.00,VWS V14.00,2013-08-19 02:07:00,
2013-08-18 22:08:00,69.8,60.8,29.32,East,90,2.5,2.5,73,0.00,,---,0.00,VWS V14.00,2013-08-19 02:08:00,
2013-08-18 22:09:00,69.8,60.8,29.32,SSE,158,2.2,2.5,73,0.00,,---,0.00,VWS V14.00,2013-08-19 02:09:00,
2013-08-18 22:10:00,69.8,60.8,29.32,SSE,158,2.2,2.2,73,0.00,,---,0.00,VWS V14.00,2013-08-19 02:10:00,
2013-08-18 22:11:00,69.8,60.4,29.32,SSE,158,2.2,2.2,72,0.00,,---,0.00,VWS V14.00,2013-08-19 02:11:00,
2013-08-18 22:12:00,69.8,60.4,29.32,SSE,158,2.2,2.2,72,0.00,,---,0.00,VWS V14.00,2013-08-19 02:12:00,
2013-08-18 22:13:00,69.8,60.4,29.32,East,90,4.0,4.0,72,0.00,,---,0.00,VWS V14.00,2013-08-19 02:13:00,
2013-08-18 22:14:00,69.6,60.6,29.32,East,90,4.0,4.0,73,0.00,,---,0.00,VWS V14.00,2013-08-19 02:14:00,
2013-08-18 22:15:00,69.6,60.6,29.32,East,90,4.0,4.0,73,0.00,,---,0.00,VWS V14.00,2013-08-19 02:15:00,
2013-08-18 22:16:00,69.6,60.6,29.32,NE,45,3.8,4.0,73,0.00,,---,0.00,VWS V14.00,2013-08-19 02:16:00,
2013-08-18 22:17:00,69.6,60.6,29.32,NE,45,3.8,3.8,73,0.00,,---,0.00,VWS V14.00,2013-08-19 02:17:00,
2013-08-18 22:18:00,69.6,60.6,29.32,NE,45,3.8,3.8,73,0.00,,---,0.00,VWS V14.00,2013-08-19 02:18:00,
2013-08-18 22:19:00,69.6,60.6,29.32,NNE,22,4.0,5.4,73,0.00,,---,0.00,VWS V14.00,2013-08-19 02:19:00,
2013-08-18 22:20:00,69.4,60.4,29.32,NNE,22,4.0,4.0,73,0.00,,---,0.00,VWS V14.00,2013-08-19 02:20:00,
2013-08-18 22:21:00,69.4,60.4,29.32,NNE,22,4.0,4.0,73,0.00,,---,0.00,VWS V14.00,2013-08-19 02:21:00,
2013-08-18 22:22:00,69.4,60.4,29.32,NNE,22,4.0,4.0,73,0.00,,---,0.00,VWS V14.00,2013-08-19 02:22:00,
2013-08-18 22:23:00,69.4,60.8,29.32,SE,135,3.4,4.0,74,0.00,,---,0.00,VWS V14.00,2013-08-19 02:23:00,
2013-08-18 22:24:00,69.4,60.8,29.32,NNE,22,2.5,3.4,74,0.00,,---,0.00,VWS V14.00,2013-08-19 02:24:00,
2013-08-18 22:25:00,69.4,60.8,29.32,NNE,22,2.5,2.5,74,0.00,,---,0.00,VWS V14.00,2013-08-19 02:25:00,
2013-08-18 22:26:00,69.4,60.8,29.32,NNE,22,2.5,2.5,74,0.00,,---,0.00,VWS V14.00,2013-08-19 02:26:00,
2013-08-18 22:27:00,69.4,60.8,29.32,NNE,22,2.5,2.5,74,0.00,,---,0.00,VWS V14.00,2013-08-19 02:27:00,
2013-08-18 22:28:00,69.4,60.8,29.32,ESE,112,5.8,5.8,74,0.00,,---,0.00,VWS V14.00,2013-08-19 02:28:00,
2013-08-18 22:29:00,69.4,60.8,29.32,ESE,112,5.8,5.8,74,0.00,,---,0.00,VWS V14.00,2013-08-19 02:29:00,
2013-08-18 22:30:00,69.4,60.8,29.32,ESE,112,5.8,5.8,74,0.00,,---,0.00,VWS V14.00,2013-08-19 02:30:00,
2013-08-18 22:31:00,69.4,60.8,29.32,ESE,112,5.8,5.8,74,0.00,,---,0.00,VWS V14.00,2013-08-19 02:31:00,
2013-08-18 22:32:00,69.4,60.8,29.32,ESE,112,5.8,5.8,74,0.00,,---,0.00,VWS V14.00,2013-08-19 02:32:00,
2013-08-18 22:33:00,69.4,60.4,29.32,ESE,112,5.8,5.8,73,0.00,,---,0.00,VWS V14.00,2013-08-19 02:33:00,
2013-08-18 22:34:00,69.4,60.4,29.32,SE,135,7.6,7.6,73,0.00,,---,0.00,VWS V14.00,2013-08-19 02:34:00,
2013-08-18 22:35:00,69.4,60.4,29.32,SE,135,7.6,7.6,73,0.00,,---,0.00,VWS V14.00,2013-08-19 02:35:00,
2013-08-18 22:36:00,69.4,60.4,29.32,SE,135,7.6,7.6,73,0.00,,---,0.00,VWS V14.00,2013-08-19 02:36:00,
2013-08-18 22:37:00,69.4,60.0,29.32,SE,135,7.6,7.6,72,0.00,,---,0.00,VWS V14.00,2013-08-19 02:37:00,
2013-08-18 22:38:00,69.4,60.0,29.32,SE,135,7.6,7.6,72,0.00,,---,0.00,VWS V14.00,2013-08-19 02:38:00,
2013-08-18 22:39:00,69.3,59.9,29.32,NNW,338,3.1,7.6,72,0.00,,---,0.00,VWS V14.00,2013-08-19 02:39:00,
2013-08-18 22:40:00,69.3,59.9,29.32,NNW,338,3.1,3.1,72,0.00,,---,0.00,VWS V14.00,2013-08-19 02:40:00,
2013-08-18 22:41:00,69.3,59.9,29.32,NNW,338,3.1,3.1,72,0.00,,---,0.00,VWS V14.00,2013-08-19 02:41:00,
2013-08-18 22:42:00,69.3,59.9,29.32,NNE,22,4.7,4.7,72,0.00,,---,0.00,VWS V14.00,2013-08-19 02:42:00,
2013-08-18 22:43:00,69.3,59.9,29.32,NNE,22,4.7,4.7,72,0.00,,---,0.00,VWS V14.00,2013-08-19 02:43:00,
2013-08-18 22:44:00,69.3,59.9,29.32,NNE,22,4.7,4.7,72,0.00,,---,0.00,VWS V14.00,2013-08-19 02:44:00,
2013-08-18 22:45:00,69.1,59.7,29.32,NNE,22,4.7,4.7,72,0.00,,---,0.00,VWS V14.00,2013-08-19 02:45:00,
2013-08-18 22:46:00,69.1,59.7,29.32,East,90,4.7,4.7,72,0.00,,---,0.00,VWS V14.00,2013-08-19 02:46:00,
2013-08-18 22:47:00,69.1,59.7,29.32,East,90,4.7,4.7,72,0.00,,---,0.00,VWS V14.00,2013-08-19 02:47:00,
2013-08-18 22:48:00,69.1,59.7,29.32,NE,45,4.7,4.7,72,0.00,,---,0.00,VWS V14.00,2013-08-19 02:48:00,
2013-08-18 22:49:00,69.1,59.7,29.32,NE,45,4.7,4.7,72,0.00,,---,0.00,VWS V14.00,2013-08-19 02:49:00,
2013-08-18 22:50:00,69.1,59.7,29.32,NE,45,4.7,4.7,72,0.00,,---,0.00,VWS V14.00,2013-08-19 02:50:00,
2013-08-18 22:51:00,69.1,59.7,29.32,NE,45,4.7,4.7,72,0.00,,---,0.00,VWS V14.00,2013-08-19 02:51:00,
2013-08-18 22:52:00,69.1,60.1,29.32,NE,45,4.7,4.7,73,0.00,,---,0.00,VWS V14.00,2013-08-19 02:52:00,
2013-08-18 22:53:00,69.1,60.1,29.32,NE,45,4.7,4.7,73,0.00,,---,0.00,VWS V14.00,2013-08-19 02:53:00,
2013-08-18 22:54:00,69.1,60.1,29.32,NE,45,4.7,4.7,73,0.00,,---,0.00,VWS V14.00,2013-08-19 02:54:00,
2013-08-18 22:55:00,69.1,60.1,29.32,NNE,22,5.6,5.6,73,0.00,,---,0.00,VWS V14.00,2013-08-19 02:55:00,
2013-08-18 22:56:00,69.1,60.1,29.32,NNE,22,5.6,5.6,73,0.00,,---,0.00,VWS V14.00,2013-08-19 02:56:00,
2013-08-18 22:57:00,68.9,59.9,29.32,NE,45,3.8,5.6,73,0.00,,---,0.00,VWS V14.00,2013-08-19 02:57:00,
2013-08-18 22:58:00,68.9,60.3,29.32,NE,45,3.8,3.8,74,0.00,,---,0.00,VWS V14.00,2013-08-19 02:58:00,
2013-08-18 22:59:00,68.9,60.3,29.32,NNE,22,2.5,3.8,74,0.00,,---,0.00,VWS V14.00,2013-08-19 02:59:00,
2013-08-18 23:00:00,68.9,60.3,29.32,NNE,22,2.5,2.5,74,0.00,,---,0.00,VWS V14.00,2013-08-19 03:00:00,
2013-08-18 23:01:00,68.9,60.3,29.32,NNE,22,2.5,2.5,74,0.00,,---,0.00,VWS V14.00,2013-08-19 03:01:00,
2013-08-18 23:02:00,68.9,60.3,29.32,NNE,22,2.5,2.5,74,0.00,,---,0.00,VWS V14.00,2013-08-19 03:02:00,
2013-08-18 23:03:00,68.9,60.3,29.32,ENE,68,3.1,3.1,74,0.00,,---,0.00,VWS V14.00,2013-08-19 03:03:00,
2013-08-18 23:04:00,68.9,60.3,29.32,NE,45,3.1,3.1,74,0.00,,---,0.00,VWS V14.00,2013-08-19 03:04:00,
2013-08-18 23:05:00,68.9,60.3,29.32,NE,45,3.1,3.1,74,0.00,,---,0.00,VWS V14.00,2013-08-19 03:05:00,
2013-08-18 23:06:00,68.9,60.3,29.32,ENE,68,4.0,4.0,74,0.00,,---,0.00,VWS V14.00,2013-08-19 03:06:00,
2013-08-18 23:07:00,68.9,60.3,29.32,NNE,22,2.0,4.0,74,0.00,,---,0.00,VWS V14.00,2013-08-19 03:07:00,
2013-08-18 23:08:00,68.9,60.3,29.32,NNE,22,2.0,2.0,74,0.00,,---,0.00,VWS V14.00,2013-08-19 03:08:00,
2013-08-18 23:09:00,68.9,60.3,29.32,NNE,22,2.0,2.0,74,0.00,,---,0.00,VWS V14.00,2013-08-19 03:09:00,
2013-08-18 23:10:00,68.9,60.3,29.32,East,90,4.0,4.0,74,0.00,,---,0.00,VWS V14.00,2013-08-19 03:10:00,
2013-08-18 23:11:00,68.9,60.3,29.32,East,90,4.0,4.0,74,0.00,,---,0.00,VWS V14.00,2013-08-19 03:11:00,
2013-08-18 23:12:00,68.9,60.3,29.32,NNE,22,3.1,4.0,74,0.00,,---,0.00,VWS V14.00,2013-08-19 03:12:00,
2013-08-18 23:13:00,68.9,60.3,29.32,ENE,68,2.9,3.1,74,0.00,,---,0.00,VWS V14.00,2013-08-19 03:13:00,
2013-08-18 23:14:00,68.9,60.3,29.32,ENE,68,2.9,2.9,74,0.00,,---,0.00,VWS V14.00,2013-08-19 03:14:00,
2013-08-18 23:15:00,68.9,59.9,29.32,ENE,68,2.9,2.9,73,0.00,,---,0.00,VWS V14.00,2013-08-19 03:15:00,
2013-08-18 23:16:00,68.9,60.3,29.32,NNE,22,5.4,5.4,74,0.00,,---,0.00,VWS V14.00,2013-08-19 03:16:00,
2013-08-18 23:17:00,68.9,59.9,29.32,NNE,22,5.4,5.4,73,0.00,,---,0.00,VWS V14.00,2013-08-19 03:17:00,
2013-08-18 23:18:00,68.7,60.1,29.32,NNE,22,5.4,5.4,74,0.00,,---,0.00,VWS V14.00,2013-08-19 03:18:00,
2013-08-18 23:19:00,68.7,60.1,29.32,NNE,22,5.4,5.4,74,0.00,,---,0.00,VWS V14.00,2013-08-19 03:19:00,
2013-08-18 23:20:00,68.7,60.1,29.32,NNE,22,5.4,5.4,74,0.00,,---,0.00,VWS V14.00,2013-08-19 03:20:00,
2013-08-18 23:21:00,68.7,60.5,29.32,NNE,22,3.4,5.4,75,0.00,,---,0.00,VWS V14.00,2013-08-19 03:21:00,
2013-08-18 23:22:00,68.7,60.5,29.32,NNE,22,5.8,5.8,75,0.00,,---,0.00,VWS V14.00,2013-08-19 03:22:00,
2013-08-18 23:23:00,68.7,60.5,29.32,NNE,22,5.8,5.8,75,0.00,,---,0.00,VWS V14.00,2013-08-19 03:23:00,
2013-08-18 23:24:00,68.7,60.5,29.32,NNE,22,5.8,5.8,75,0.00,,---,0.00,VWS V14.00,2013-08-19 03:24:00,
2013-08-18 23:25:00,68.7,60.5,29.32,NNE,22,5.8,5.8,75,0.00,,---,0.00,VWS V14.00,2013-08-19 03:25:00,
2013-08-18 23:26:00,68.7,60.5,29.32,South,180,2.7,5.8,75,0.00,,---,0.00,VWS V14.00,2013-08-19 03:26:00,
2013-08-18 23:27:00,68.7,60.9,29.32,ENE,68,3.6,3.6,76,0.00,,---,0.00,VWS V14.00,2013-08-19 03:27:00,
2013-08-18 23:28:00,68.7,60.9,29.32,ENE,68,3.6,3.6,76,0.00,,---,0.00,VWS V14.00,2013-08-19 03:28:00,
2013-08-18 23:29:00,68.7,60.9,29.32,ENE,68,3.6,3.6,76,0.00,,---,0.00,VWS V14.00,2013-08-19 03:29:00,
2013-08-18 23:30:00,68.7,60.9,29.32,ENE,68,3.6,3.6,76,0.00,,---,0.00,VWS V14.00,2013-08-19 03:30:00,
2013-08-18 23:31:00,68.7,60.9,29.32,ENE,68,3.6,3.6,76,0.00,,---,0.00,VWS V14.00,2013-08-19 03:31:00,
2013-08-18 23:32:00,68.7,60.9,29.32,ENE,68,3.6,3.6,76,0.00,,---,0.00,VWS V14.00,2013-08-19 03:32:00,
2013-08-18 23:33:00,68.7,60.9,29.32,ENE,68,3.4,3.6,76,0.00,,---,0.00,VWS V14.00,2013-08-19 03:33:00,
2013-08-18 23:34:00,68.7,60.9,29.32,ENE,68,3.4,3.4,76,0.00,,---,0.00,VWS V14.00,2013-08-19 03:34:00,
2013-08-18 23:35:00,68.7,61.2,29.32,SE,135,3.1,3.4,77,0.00,,---,0.00,VWS V14.00,2013-08-19 03:35:00,
2013-08-18 23:36:00,68.7,61.2,29.32,SE,135,3.1,3.1,77,0.00,,---,0.00,VWS V14.00,2013-08-19 03:36:00,
2013-08-18 23:37:00,68.7,61.2,29.32,SE,135,3.1,3.1,77,0.00,,---,0.00,VWS V14.00,2013-08-19 03:37:00,
2013-08-18 23:38:00,68.5,61.0,29.32,SE,135,3.1,3.1,77,0.00,,---,0.00,VWS V14.00,2013-08-19 03:38:00,
2013-08-18 23:39:00,68.5,61.0,29.32,ESE,112,5.6,5.6,77,0.00,,---,0.00,VWS V14.00,2013-08-19 03:39:00,
2013-08-18 23:40:00,68.5,61.4,29.32,ESE,112,5.6,5.6,78,0.00,,---,0.00,VWS V14.00,2013-08-19 03:40:00,
2013-08-18 23:41:00,68.5,61.4,29.32,ESE,112,5.6,5.6,78,0.00,,---,0.00,VWS V14.00,2013-08-19 03:41:00,
2013-08-18 23:42:00,68.5,61.4,29.32,ESE,112,5.6,5.6,78,0.00,,---,0.00,VWS V14.00,2013-08-19 03:42:00,
2013-08-18 23:43:00,68.5,61.4,29.32,ESE,112,5.6,5.6,78,0.00,,---,0.00,VWS V14.00,2013-08-19 03:43:00,
2013-08-18 23:44:00,68.5,61.4,29.29,ESE,112,5.6,5.6,78,0.00,,---,0.00,VWS V14.00,2013-08-19 03:44:00,
2013-08-18 23:45:00,68.5,61.4,29.29,ESE,112,5.6,5.6,78,0.00,,---,0.00,VWS V14.00,2013-08-19 03:45:00,
2013-08-18 23:46:00,68.5,61.4,29.29,ESE,112,5.6,5.6,78,0.00,,---,0.00,VWS V14.00,2013-08-19 03:46:00,
2013-08-18 23:47:00,68.5,61.4,29.29,ESE,112,5.6,5.6,78,0.00,,---,0.00,VWS V14.00,2013-08-19 03:47:00,
2013-08-18 23:48:00,68.5,61.4,29.29,ESE,112,5.6,5.6,78,0.00,,---,0.00,VWS V14.00,2013-08-19 03:48:00,
2013-08-18 23:49:00,68.4,61.2,29.29,NNE,22,2.0,5.6,78,0.00,,---,0.00,VWS V14.00,2013-08-19 03:49:00,
2013-08-18 23:50:00,68.4,61.2,29.29,NNE,22,2.0,2.0,78,0.00,,---,0.00,VWS V14.00,2013-08-19 03:50:00,
2013-08-18 23:51:00,68.4,61.2,29.29,NNE,22,2.0,2.0,78,0.00,,---,0.00,VWS V14.00,2013-08-19 03:51:00,
2013-08-18 23:52:00,68.4,61.2,29.29,ESE,112,3.4,3.4,78,0.00,,---,0.00,VWS V14.00,2013-08-19 03:52:00,
2013-08-18 23:53:00,68.4,61.2,29.29,ESE,112,6.0,6.0,78,0.00,,---,0.00,VWS V14.00,2013-08-19 03:53:00,
2013-08-18 23:54:00,68.4,61.2,29.29,ESE,112,3.6,6.0,78,0.00,,---,0.00,VWS V14.00,2013-08-19 03:54:00,
2013-08-18 23:55:00,68.4,61.2,29.29,SSE,158,3.8,3.8,78,0.00,,---,0.00,VWS V14.00,2013-08-19 03:55:00,
2013-08-18 23:56:00,68.4,61.6,29.29,SSE,158,3.8,3.8,79,0.00,,---,0.00,VWS V14.00,2013-08-19 03:56:00,
2013-08-18 23:57:00,68.4,61.6,29.29,NNW,338,3.4,3.8,79,0.00,,---,0.00,VWS V14.00,2013-08-19 03:57:00,
2013-08-18 23:58:00,68.2,61.4,29.29,NNE,22,3.8,3.8,79,0.00,,---,0.00,VWS V14.00,2013-08-19 03:58:00,
2013-08-18 23:59:00,68.2,61.4,29.29,ENE,68,3.4,4.7,79,0.00,,---,0.00,VWS V14.00,2013-08-19 03:59:00,